<?xml version="1.0" encoding="UTF-8" standalone="no" ?>
<gpx xmlns="http://www.topografix.com/GPX/1/1" xmlns:xsi="http://www.w3.org/2001/XMLSchema-instance" xsi:schemaLocation="http://www.topografix.com/GPX/1/1 http://www.topografix.com/GPX/1/1/gpx.xsd" version="1.1" creator="VisuGPX - https://www.visugpx.com">
  <metadata>
    <name>Seillons montée près du vallon des abeilles</name>
    <desc><![CDATA[Tour improvisé pour contourner une battue, avec du coup une portion de route non négligeable, mais montée sympa par un petit single à l'Ouest du vallon des abeilles. Sur le plateau au nord de Seillons, paysages en noir et blanc, avec le calcaire et les arbres calcinés par les incendies de 2017]]></desc>
  </metadata>
  <trk>
    <name><![CDATA[20180324102413-54vbD]]></name>
    <trkseg>
      <trkpt lat="43.50353" lon="5.88681">
        <ele>308</ele>
        <time>2018-01-07T07:19:55Z</time>
      </trkpt>
      <trkpt lat="43.50347" lon="5.88657">
        <ele>309</ele>
        <time>2018-01-07T07:24:37Z</time>
      </trkpt>
      <trkpt lat="43.50337" lon="5.88636">
        <ele>310</ele>
        <time>2018-01-07T07:24:45Z</time>
      </trkpt>
      <trkpt lat="43.5033" lon="5.8861">
        <ele>310</ele>
        <time>2018-01-07T07:24:54Z</time>
      </trkpt>
      <trkpt lat="43.50328" lon="5.88584">
        <ele>311</ele>
        <time>2018-01-07T07:25:03Z</time>
      </trkpt>
      <trkpt lat="43.50328" lon="5.88558">
        <ele>314</ele>
        <time>2018-01-07T07:25:11Z</time>
      </trkpt>
      <trkpt lat="43.50329" lon="5.88532">
        <ele>316</ele>
        <time>2018-01-07T07:25:20Z</time>
      </trkpt>
      <trkpt lat="43.50328" lon="5.88507">
        <ele>318</ele>
        <time>2018-01-07T07:25:29Z</time>
      </trkpt>
      <trkpt lat="43.50328" lon="5.8848">
        <ele>320</ele>
        <time>2018-01-07T07:25:38Z</time>
      </trkpt>
      <trkpt lat="43.50325" lon="5.88454">
        <ele>321</ele>
        <time>2018-01-07T07:25:47Z</time>
      </trkpt>
      <trkpt lat="43.50323" lon="5.88428">
        <ele>321</ele>
        <time>2018-01-07T07:25:56Z</time>
      </trkpt>
      <trkpt lat="43.50324" lon="5.88402">
        <ele>322</ele>
        <time>2018-01-07T07:26:05Z</time>
      </trkpt>
      <trkpt lat="43.50324" lon="5.88376">
        <ele>322</ele>
        <time>2018-01-07T07:26:14Z</time>
      </trkpt>
      <trkpt lat="43.50324" lon="5.8835">
        <ele>322</ele>
        <time>2018-01-07T07:26:23Z</time>
      </trkpt>
      <trkpt lat="43.50324" lon="5.88323">
        <ele>322</ele>
        <time>2018-01-07T07:26:32Z</time>
      </trkpt>
      <trkpt lat="43.50325" lon="5.88296">
        <ele>323</ele>
        <time>2018-01-07T07:26:41Z</time>
      </trkpt>
      <trkpt lat="43.50326" lon="5.8827">
        <ele>323</ele>
        <time>2018-01-07T07:26:50Z</time>
      </trkpt>
      <trkpt lat="43.50329" lon="5.88243">
        <ele>324</ele>
        <time>2018-01-07T07:26:59Z</time>
      </trkpt>
      <trkpt lat="43.50334" lon="5.88218">
        <ele>326</ele>
        <time>2018-01-07T07:27:08Z</time>
      </trkpt>
      <trkpt lat="43.50336" lon="5.88192">
        <ele>326</ele>
        <time>2018-01-07T07:27:16Z</time>
      </trkpt>
      <trkpt lat="43.50333" lon="5.88166">
        <ele>324</ele>
        <time>2018-01-07T07:27:24Z</time>
      </trkpt>
      <trkpt lat="43.50327" lon="5.88139">
        <ele>324</ele>
        <time>2018-01-07T07:27:32Z</time>
      </trkpt>
      <trkpt lat="43.50322" lon="5.88115">
        <ele>324</ele>
        <time>2018-01-07T07:27:40Z</time>
      </trkpt>
      <trkpt lat="43.50317" lon="5.8809">
        <ele>325</ele>
        <time>2018-01-07T07:27:48Z</time>
      </trkpt>
      <trkpt lat="43.50311" lon="5.88065">
        <ele>327</ele>
        <time>2018-01-07T07:27:56Z</time>
      </trkpt>
      <trkpt lat="43.50306" lon="5.88041">
        <ele>327</ele>
        <time>2018-01-07T07:28:04Z</time>
      </trkpt>
      <trkpt lat="43.50301" lon="5.88017">
        <ele>328</ele>
        <time>2018-01-07T07:28:12Z</time>
      </trkpt>
      <trkpt lat="43.50296" lon="5.87992">
        <ele>332</ele>
        <time>2018-01-07T07:28:21Z</time>
      </trkpt>
      <trkpt lat="43.50291" lon="5.87967">
        <ele>333</ele>
        <time>2018-01-07T07:28:32Z</time>
      </trkpt>
      <trkpt lat="43.50286" lon="5.87942">
        <ele>334</ele>
        <time>2018-01-07T07:28:43Z</time>
      </trkpt>
      <trkpt lat="43.50283" lon="5.87915">
        <ele>338</ele>
        <time>2018-01-07T07:28:55Z</time>
      </trkpt>
      <trkpt lat="43.50291" lon="5.87893">
        <ele>339</ele>
        <time>2018-01-07T07:29:24Z</time>
      </trkpt>
      <trkpt lat="43.50308" lon="5.87882">
        <ele>340</ele>
        <time>2018-01-07T07:29:40Z</time>
      </trkpt>
      <trkpt lat="43.50312" lon="5.87856">
        <ele>341</ele>
        <time>2018-01-07T07:29:55Z</time>
      </trkpt>
      <trkpt lat="43.50309" lon="5.8783">
        <ele>342</ele>
        <time>2018-01-07T07:30:06Z</time>
      </trkpt>
      <trkpt lat="43.50304" lon="5.87802">
        <ele>342</ele>
        <time>2018-01-07T07:30:14Z</time>
      </trkpt>
      <trkpt lat="43.50303" lon="5.87777">
        <ele>342</ele>
        <time>2018-01-07T07:30:20Z</time>
      </trkpt>
      <trkpt lat="43.50321" lon="5.87768">
        <ele>342</ele>
        <time>2018-01-07T07:30:27Z</time>
      </trkpt>
      <trkpt lat="43.50341" lon="5.87763">
        <ele>342</ele>
        <time>2018-01-07T07:30:35Z</time>
      </trkpt>
      <trkpt lat="43.50361" lon="5.87759">
        <ele>343</ele>
        <time>2018-01-07T07:30:43Z</time>
      </trkpt>
      <trkpt lat="43.50381" lon="5.87756">
        <ele>343</ele>
        <time>2018-01-07T07:30:50Z</time>
      </trkpt>
      <trkpt lat="43.50399" lon="5.87761">
        <ele>343</ele>
        <time>2018-01-07T07:30:57Z</time>
      </trkpt>
      <trkpt lat="43.50417" lon="5.87774">
        <ele>343</ele>
        <time>2018-01-07T07:31:04Z</time>
      </trkpt>
      <trkpt lat="43.50431" lon="5.8779">
        <ele>343</ele>
        <time>2018-01-07T07:31:10Z</time>
      </trkpt>
      <trkpt lat="43.50444" lon="5.87808">
        <ele>343</ele>
        <time>2018-01-07T07:31:16Z</time>
      </trkpt>
      <trkpt lat="43.50459" lon="5.87828">
        <ele>343</ele>
        <time>2018-01-07T07:31:22Z</time>
      </trkpt>
      <trkpt lat="43.50472" lon="5.87846">
        <ele>343</ele>
        <time>2018-01-07T07:31:27Z</time>
      </trkpt>
      <trkpt lat="43.50487" lon="5.87866">
        <ele>343</ele>
        <time>2018-01-07T07:31:33Z</time>
      </trkpt>
      <trkpt lat="43.505" lon="5.87885">
        <ele>343</ele>
        <time>2018-01-07T07:31:39Z</time>
      </trkpt>
      <trkpt lat="43.50512" lon="5.87903">
        <ele>344</ele>
        <time>2018-01-07T07:31:45Z</time>
      </trkpt>
      <trkpt lat="43.50526" lon="5.87923">
        <ele>345</ele>
        <time>2018-01-07T07:31:52Z</time>
      </trkpt>
      <trkpt lat="43.50541" lon="5.87942">
        <ele>346</ele>
        <time>2018-01-07T07:31:59Z</time>
      </trkpt>
      <trkpt lat="43.50555" lon="5.87962">
        <ele>346</ele>
        <time>2018-01-07T07:32:06Z</time>
      </trkpt>
      <trkpt lat="43.50568" lon="5.87981">
        <ele>347</ele>
        <time>2018-01-07T07:32:12Z</time>
      </trkpt>
      <trkpt lat="43.50581" lon="5.87999">
        <ele>348</ele>
        <time>2018-01-07T07:32:19Z</time>
      </trkpt>
      <trkpt lat="43.50594" lon="5.88018">
        <ele>350</ele>
        <time>2018-01-07T07:32:26Z</time>
      </trkpt>
      <trkpt lat="43.50608" lon="5.88035">
        <ele>351</ele>
        <time>2018-01-07T07:32:32Z</time>
      </trkpt>
      <trkpt lat="43.50623" lon="5.8805">
        <ele>352</ele>
        <time>2018-01-07T07:32:39Z</time>
      </trkpt>
      <trkpt lat="43.50641" lon="5.88064">
        <ele>352</ele>
        <time>2018-01-07T07:32:47Z</time>
      </trkpt>
      <trkpt lat="43.50658" lon="5.88074">
        <ele>354</ele>
        <time>2018-01-07T07:32:54Z</time>
      </trkpt>
      <trkpt lat="43.50676" lon="5.88084">
        <ele>355</ele>
        <time>2018-01-07T07:33:00Z</time>
      </trkpt>
      <trkpt lat="43.50695" lon="5.8809">
        <ele>355</ele>
        <time>2018-01-07T07:33:07Z</time>
      </trkpt>
      <trkpt lat="43.50715" lon="5.88091">
        <ele>355</ele>
        <time>2018-01-07T07:33:14Z</time>
      </trkpt>
      <trkpt lat="43.50735" lon="5.8809">
        <ele>356</ele>
        <time>2018-01-07T07:33:21Z</time>
      </trkpt>
      <trkpt lat="43.50755" lon="5.88089">
        <ele>357</ele>
        <time>2018-01-07T07:33:28Z</time>
      </trkpt>
      <trkpt lat="43.50774" lon="5.88084">
        <ele>357</ele>
        <time>2018-01-07T07:33:35Z</time>
      </trkpt>
      <trkpt lat="43.50792" lon="5.88078">
        <ele>358</ele>
        <time>2018-01-07T07:33:42Z</time>
      </trkpt>
      <trkpt lat="43.50811" lon="5.88073">
        <ele>358</ele>
        <time>2018-01-07T07:33:49Z</time>
      </trkpt>
      <trkpt lat="43.50828" lon="5.88068">
        <ele>359</ele>
        <time>2018-01-07T07:33:56Z</time>
      </trkpt>
      <trkpt lat="43.50846" lon="5.88063">
        <ele>361</ele>
        <time>2018-01-07T07:34:03Z</time>
      </trkpt>
      <trkpt lat="43.50867" lon="5.88059">
        <ele>362</ele>
        <time>2018-01-07T07:34:11Z</time>
      </trkpt>
      <trkpt lat="43.50887" lon="5.88053">
        <ele>362</ele>
        <time>2018-01-07T07:34:19Z</time>
      </trkpt>
      <trkpt lat="43.50907" lon="5.88052">
        <ele>363</ele>
        <time>2018-01-07T07:34:28Z</time>
      </trkpt>
      <trkpt lat="43.50926" lon="5.88052">
        <ele>366</ele>
        <time>2018-01-07T07:34:36Z</time>
      </trkpt>
      <trkpt lat="43.50945" lon="5.88051">
        <ele>366</ele>
        <time>2018-01-07T07:34:44Z</time>
      </trkpt>
      <trkpt lat="43.50965" lon="5.8805">
        <ele>366</ele>
        <time>2018-01-07T07:34:52Z</time>
      </trkpt>
      <trkpt lat="43.50984" lon="5.88049">
        <ele>366</ele>
        <time>2018-01-07T07:35:00Z</time>
      </trkpt>
      <trkpt lat="43.51002" lon="5.88047">
        <ele>369</ele>
        <time>2018-01-07T07:35:08Z</time>
      </trkpt>
      <trkpt lat="43.51022" lon="5.88045">
        <ele>369</ele>
        <time>2018-01-07T07:35:17Z</time>
      </trkpt>
      <trkpt lat="43.5104" lon="5.88047">
        <ele>370</ele>
        <time>2018-01-07T07:35:24Z</time>
      </trkpt>
      <trkpt lat="43.51059" lon="5.88047">
        <ele>370</ele>
        <time>2018-01-07T07:35:31Z</time>
      </trkpt>
      <trkpt lat="43.51079" lon="5.88046">
        <ele>371</ele>
        <time>2018-01-07T07:35:39Z</time>
      </trkpt>
      <trkpt lat="43.51098" lon="5.88045">
        <ele>374</ele>
        <time>2018-01-07T07:35:47Z</time>
      </trkpt>
      <trkpt lat="43.51116" lon="5.88045">
        <ele>375</ele>
        <time>2018-01-07T07:35:55Z</time>
      </trkpt>
      <trkpt lat="43.51134" lon="5.88045">
        <ele>375</ele>
        <time>2018-01-07T07:36:03Z</time>
      </trkpt>
      <trkpt lat="43.51153" lon="5.88045">
        <ele>376</ele>
        <time>2018-01-07T07:36:11Z</time>
      </trkpt>
      <trkpt lat="43.51172" lon="5.88044">
        <ele>379</ele>
        <time>2018-01-07T07:36:19Z</time>
      </trkpt>
      <trkpt lat="43.51192" lon="5.88044">
        <ele>379</ele>
        <time>2018-01-07T07:36:28Z</time>
      </trkpt>
      <trkpt lat="43.51212" lon="5.88043">
        <ele>379</ele>
        <time>2018-01-07T07:36:37Z</time>
      </trkpt>
      <trkpt lat="43.51232" lon="5.88044">
        <ele>379</ele>
        <time>2018-01-07T07:36:45Z</time>
      </trkpt>
      <trkpt lat="43.51251" lon="5.88043">
        <ele>382</ele>
        <time>2018-01-07T07:36:53Z</time>
      </trkpt>
      <trkpt lat="43.5127" lon="5.88042">
        <ele>382</ele>
        <time>2018-01-07T07:37:01Z</time>
      </trkpt>
      <trkpt lat="43.51289" lon="5.88041">
        <ele>383</ele>
        <time>2018-01-07T07:37:09Z</time>
      </trkpt>
      <trkpt lat="43.51307" lon="5.88048">
        <ele>384</ele>
        <time>2018-01-07T07:37:20Z</time>
      </trkpt>
      <trkpt lat="43.51313" lon="5.88073">
        <ele>384</ele>
        <time>2018-01-07T07:37:28Z</time>
      </trkpt>
      <trkpt lat="43.51328" lon="5.88089">
        <ele>385</ele>
        <time>2018-01-07T07:37:36Z</time>
      </trkpt>
      <trkpt lat="43.51341" lon="5.88108">
        <ele>385</ele>
        <time>2018-01-07T07:37:44Z</time>
      </trkpt>
      <trkpt lat="43.51358" lon="5.88118">
        <ele>384</ele>
        <time>2018-01-07T07:37:51Z</time>
      </trkpt>
      <trkpt lat="43.51377" lon="5.88122">
        <ele>385</ele>
        <time>2018-01-07T07:37:59Z</time>
      </trkpt>
      <trkpt lat="43.51395" lon="5.8813">
        <ele>385</ele>
        <time>2018-01-07T07:38:07Z</time>
      </trkpt>
      <trkpt lat="43.51415" lon="5.88139">
        <ele>385</ele>
        <time>2018-01-07T07:38:16Z</time>
      </trkpt>
      <trkpt lat="43.51434" lon="5.88142">
        <ele>387</ele>
        <time>2018-01-07T07:38:24Z</time>
      </trkpt>
      <trkpt lat="43.51452" lon="5.88144">
        <ele>388</ele>
        <time>2018-01-07T07:38:33Z</time>
      </trkpt>
      <trkpt lat="43.51471" lon="5.88148">
        <ele>388</ele>
        <time>2018-01-07T07:38:41Z</time>
      </trkpt>
      <trkpt lat="43.5149" lon="5.88146">
        <ele>389</ele>
        <time>2018-01-07T07:38:49Z</time>
      </trkpt>
      <trkpt lat="43.5151" lon="5.88143">
        <ele>390</ele>
        <time>2018-01-07T07:38:57Z</time>
      </trkpt>
      <trkpt lat="43.51529" lon="5.88141">
        <ele>390</ele>
        <time>2018-01-07T07:39:05Z</time>
      </trkpt>
      <trkpt lat="43.51549" lon="5.88139">
        <ele>390</ele>
        <time>2018-01-07T07:39:13Z</time>
      </trkpt>
      <trkpt lat="43.51569" lon="5.88138">
        <ele>390</ele>
        <time>2018-01-07T07:39:21Z</time>
      </trkpt>
      <trkpt lat="43.51588" lon="5.88139">
        <ele>389</ele>
        <time>2018-01-07T07:39:29Z</time>
      </trkpt>
      <trkpt lat="43.51606" lon="5.88136">
        <ele>389</ele>
        <time>2018-01-07T07:39:37Z</time>
      </trkpt>
      <trkpt lat="43.51626" lon="5.88132">
        <ele>389</ele>
        <time>2018-01-07T07:39:46Z</time>
      </trkpt>
      <trkpt lat="43.51643" lon="5.88122">
        <ele>389</ele>
        <time>2018-01-07T07:39:54Z</time>
      </trkpt>
      <trkpt lat="43.51661" lon="5.88111">
        <ele>390</ele>
        <time>2018-01-07T07:40:02Z</time>
      </trkpt>
      <trkpt lat="43.51677" lon="5.88099">
        <ele>388</ele>
        <time>2018-01-07T07:40:09Z</time>
      </trkpt>
      <trkpt lat="43.51693" lon="5.88086">
        <ele>387</ele>
        <time>2018-01-07T07:40:16Z</time>
      </trkpt>
      <trkpt lat="43.51709" lon="5.88069">
        <ele>392</ele>
        <time>2018-01-07T07:40:23Z</time>
      </trkpt>
      <trkpt lat="43.51724" lon="5.88053">
        <ele>392</ele>
        <time>2018-01-07T07:40:29Z</time>
      </trkpt>
      <trkpt lat="43.51739" lon="5.88036">
        <ele>393</ele>
        <time>2018-01-07T07:40:36Z</time>
      </trkpt>
      <trkpt lat="43.51753" lon="5.88018">
        <ele>393</ele>
        <time>2018-01-07T07:40:42Z</time>
      </trkpt>
      <trkpt lat="43.51768" lon="5.88003">
        <ele>393</ele>
        <time>2018-01-07T07:40:49Z</time>
      </trkpt>
      <trkpt lat="43.51782" lon="5.87984">
        <ele>398</ele>
        <time>2018-01-07T07:40:55Z</time>
      </trkpt>
      <trkpt lat="43.51799" lon="5.87973">
        <ele>398</ele>
        <time>2018-01-07T07:41:00Z</time>
      </trkpt>
      <trkpt lat="43.51814" lon="5.87959">
        <ele>399</ele>
        <time>2018-01-07T07:41:10Z</time>
      </trkpt>
      <trkpt lat="43.51819" lon="5.87984">
        <ele>397</ele>
        <time>2018-01-07T07:41:30Z</time>
      </trkpt>
      <trkpt lat="43.51822" lon="5.8801">
        <ele>392</ele>
        <time>2018-01-07T07:41:41Z</time>
      </trkpt>
      <trkpt lat="43.51828" lon="5.88034">
        <ele>392</ele>
        <time>2018-01-07T07:41:53Z</time>
      </trkpt>
      <trkpt lat="43.51843" lon="5.88049">
        <ele>394</ele>
        <time>2018-01-07T07:42:07Z</time>
      </trkpt>
      <trkpt lat="43.51861" lon="5.88039">
        <ele>395</ele>
        <time>2018-01-07T07:42:19Z</time>
      </trkpt>
      <trkpt lat="43.51879" lon="5.88031">
        <ele>396</ele>
        <time>2018-01-07T07:42:31Z</time>
      </trkpt>
      <trkpt lat="43.51898" lon="5.8803">
        <ele>396</ele>
        <time>2018-01-07T07:42:40Z</time>
      </trkpt>
      <trkpt lat="43.51918" lon="5.88028">
        <ele>399</ele>
        <time>2018-01-07T07:42:49Z</time>
      </trkpt>
      <trkpt lat="43.51934" lon="5.88014">
        <ele>400</ele>
        <time>2018-01-07T07:42:58Z</time>
      </trkpt>
      <trkpt lat="43.51953" lon="5.88004">
        <ele>399</ele>
        <time>2018-01-07T07:43:07Z</time>
      </trkpt>
      <trkpt lat="43.51966" lon="5.87984">
        <ele>405</ele>
        <time>2018-01-07T07:43:17Z</time>
      </trkpt>
      <trkpt lat="43.51983" lon="5.87974">
        <ele>406</ele>
        <time>2018-01-07T07:43:27Z</time>
      </trkpt>
      <trkpt lat="43.52002" lon="5.87966">
        <ele>407</ele>
        <time>2018-01-07T07:43:35Z</time>
      </trkpt>
      <trkpt lat="43.5202" lon="5.87966">
        <ele>407</ele>
        <time>2018-01-07T07:43:45Z</time>
      </trkpt>
      <trkpt lat="43.52038" lon="5.87961">
        <ele>408</ele>
        <time>2018-01-07T07:43:54Z</time>
      </trkpt>
      <trkpt lat="43.52056" lon="5.87955">
        <ele>408</ele>
        <time>2018-01-07T07:44:03Z</time>
      </trkpt>
      <trkpt lat="43.52074" lon="5.87947">
        <ele>409</ele>
        <time>2018-01-07T07:44:12Z</time>
      </trkpt>
      <trkpt lat="43.52091" lon="5.87935">
        <ele>411</ele>
        <time>2018-01-07T07:44:22Z</time>
      </trkpt>
      <trkpt lat="43.52108" lon="5.87926">
        <ele>411</ele>
        <time>2018-01-07T07:44:32Z</time>
      </trkpt>
      <trkpt lat="43.52125" lon="5.87917">
        <ele>411</ele>
        <time>2018-01-07T07:44:42Z</time>
      </trkpt>
      <trkpt lat="43.52143" lon="5.87909">
        <ele>417</ele>
        <time>2018-01-07T07:44:52Z</time>
      </trkpt>
      <trkpt lat="43.52163" lon="5.87905">
        <ele>416</ele>
        <time>2018-01-07T07:45:03Z</time>
      </trkpt>
      <trkpt lat="43.5218" lon="5.87899">
        <ele>418</ele>
        <time>2018-01-07T07:45:12Z</time>
      </trkpt>
      <trkpt lat="43.52197" lon="5.87887">
        <ele>419</ele>
        <time>2018-01-07T07:45:22Z</time>
      </trkpt>
      <trkpt lat="43.52214" lon="5.87877">
        <ele>420</ele>
        <time>2018-01-07T07:45:32Z</time>
      </trkpt>
      <trkpt lat="43.5223" lon="5.87865">
        <ele>422</ele>
        <time>2018-01-07T07:45:42Z</time>
      </trkpt>
      <trkpt lat="43.52248" lon="5.87854">
        <ele>423</ele>
        <time>2018-01-07T07:45:51Z</time>
      </trkpt>
      <trkpt lat="43.52264" lon="5.87845">
        <ele>424</ele>
        <time>2018-01-07T07:46:03Z</time>
      </trkpt>
      <trkpt lat="43.52282" lon="5.8784">
        <ele>424</ele>
        <time>2018-01-07T07:46:14Z</time>
      </trkpt>
      <trkpt lat="43.52299" lon="5.8783">
        <ele>432</ele>
        <time>2018-01-07T07:46:24Z</time>
      </trkpt>
      <trkpt lat="43.52315" lon="5.87819">
        <ele>433</ele>
        <time>2018-01-07T07:46:34Z</time>
      </trkpt>
      <trkpt lat="43.52333" lon="5.87808">
        <ele>433</ele>
        <time>2018-01-07T07:46:43Z</time>
      </trkpt>
      <trkpt lat="43.5235" lon="5.878">
        <ele>434</ele>
        <time>2018-01-07T07:46:52Z</time>
      </trkpt>
      <trkpt lat="43.52367" lon="5.87789">
        <ele>435</ele>
        <time>2018-01-07T07:47:03Z</time>
      </trkpt>
      <trkpt lat="43.52369" lon="5.87765">
        <ele>437</ele>
        <time>2018-01-07T07:47:21Z</time>
      </trkpt>
      <trkpt lat="43.52379" lon="5.87743">
        <ele>446</ele>
        <time>2018-01-07T07:47:39Z</time>
      </trkpt>
      <trkpt lat="43.5239" lon="5.87724">
        <ele>447</ele>
        <time>2018-01-07T07:53:05Z</time>
      </trkpt>
      <trkpt lat="43.52386" lon="5.87698">
        <ele>449</ele>
        <time>2018-01-07T07:53:42Z</time>
      </trkpt>
      <trkpt lat="43.52374" lon="5.87679">
        <ele>450</ele>
        <time>2018-01-07T07:53:59Z</time>
      </trkpt>
      <trkpt lat="43.52379" lon="5.87655">
        <ele>459</ele>
        <time>2018-01-07T07:54:12Z</time>
      </trkpt>
      <trkpt lat="43.52388" lon="5.87633">
        <ele>460</ele>
        <time>2018-01-07T07:54:26Z</time>
      </trkpt>
      <trkpt lat="43.52401" lon="5.87615">
        <ele>461</ele>
        <time>2018-01-07T07:54:39Z</time>
      </trkpt>
      <trkpt lat="43.52411" lon="5.87594">
        <ele>464</ele>
        <time>2018-01-07T07:54:53Z</time>
      </trkpt>
      <trkpt lat="43.52421" lon="5.87572">
        <ele>462</ele>
        <time>2018-01-07T07:55:07Z</time>
      </trkpt>
      <trkpt lat="43.52426" lon="5.87547">
        <ele>460</ele>
        <time>2018-01-07T07:55:21Z</time>
      </trkpt>
      <trkpt lat="43.52437" lon="5.87527">
        <ele>461</ele>
        <time>2018-01-07T07:55:32Z</time>
      </trkpt>
      <trkpt lat="43.52436" lon="5.87502">
        <ele>465</ele>
        <time>2018-01-07T07:55:45Z</time>
      </trkpt>
      <trkpt lat="43.5244" lon="5.87477">
        <ele>469</ele>
        <time>2018-01-07T07:55:58Z</time>
      </trkpt>
      <trkpt lat="43.52443" lon="5.87452">
        <ele>470</ele>
        <time>2018-01-07T07:56:11Z</time>
      </trkpt>
      <trkpt lat="43.52444" lon="5.87426">
        <ele>472</ele>
        <time>2018-01-07T07:56:24Z</time>
      </trkpt>
      <trkpt lat="43.52438" lon="5.87402">
        <ele>478</ele>
        <time>2018-01-07T07:56:36Z</time>
      </trkpt>
      <trkpt lat="43.52438" lon="5.87376">
        <ele>478</ele>
        <time>2018-01-07T07:56:48Z</time>
      </trkpt>
      <trkpt lat="43.52434" lon="5.87351">
        <ele>480</ele>
        <time>2018-01-07T07:57:00Z</time>
      </trkpt>
      <trkpt lat="43.52424" lon="5.87329">
        <ele>483</ele>
        <time>2018-01-07T07:57:12Z</time>
      </trkpt>
      <trkpt lat="43.52418" lon="5.87306">
        <ele>481</ele>
        <time>2018-01-07T07:57:23Z</time>
      </trkpt>
      <trkpt lat="43.52406" lon="5.87286">
        <ele>485</ele>
        <time>2018-01-07T07:57:34Z</time>
      </trkpt>
      <trkpt lat="43.52403" lon="5.87261">
        <ele>485</ele>
        <time>2018-01-07T07:57:45Z</time>
      </trkpt>
      <trkpt lat="43.5239" lon="5.87242">
        <ele>485</ele>
        <time>2018-01-07T07:57:56Z</time>
      </trkpt>
      <trkpt lat="43.52381" lon="5.87219">
        <ele>485</ele>
        <time>2018-01-07T07:58:07Z</time>
      </trkpt>
      <trkpt lat="43.52374" lon="5.87195">
        <ele>485</ele>
        <time>2018-01-07T07:58:18Z</time>
      </trkpt>
      <trkpt lat="43.52363" lon="5.87173">
        <ele>486</ele>
        <time>2018-01-07T07:58:31Z</time>
      </trkpt>
      <trkpt lat="43.52356" lon="5.87148">
        <ele>487</ele>
        <time>2018-01-07T07:58:42Z</time>
      </trkpt>
      <trkpt lat="43.5234" lon="5.87134">
        <ele>488</ele>
        <time>2018-01-07T07:59:07Z</time>
      </trkpt>
      <trkpt lat="43.52323" lon="5.87141">
        <ele>490</ele>
        <time>2018-01-07T07:59:15Z</time>
      </trkpt>
      <trkpt lat="43.52305" lon="5.87141">
        <ele>490</ele>
        <time>2018-01-07T07:59:25Z</time>
      </trkpt>
      <trkpt lat="43.52286" lon="5.87146">
        <ele>491</ele>
        <time>2018-01-07T07:59:35Z</time>
      </trkpt>
      <trkpt lat="43.52267" lon="5.87142">
        <ele>491</ele>
        <time>2018-01-07T07:59:45Z</time>
      </trkpt>
      <trkpt lat="43.52249" lon="5.87136">
        <ele>491</ele>
        <time>2018-01-07T07:59:56Z</time>
      </trkpt>
      <trkpt lat="43.52229" lon="5.87132">
        <ele>491</ele>
        <time>2018-01-07T08:00:06Z</time>
      </trkpt>
      <trkpt lat="43.52211" lon="5.87132">
        <ele>491</ele>
        <time>2018-01-07T08:02:26Z</time>
      </trkpt>
      <trkpt lat="43.5222" lon="5.87109">
        <ele>491</ele>
        <time>2018-01-07T08:02:36Z</time>
      </trkpt>
      <trkpt lat="43.52231" lon="5.87087">
        <ele>492</ele>
        <time>2018-01-07T08:02:46Z</time>
      </trkpt>
      <trkpt lat="43.52241" lon="5.87065">
        <ele>494</ele>
        <time>2018-01-07T08:02:54Z</time>
      </trkpt>
      <trkpt lat="43.52251" lon="5.87043">
        <ele>494</ele>
        <time>2018-01-07T08:03:01Z</time>
      </trkpt>
      <trkpt lat="43.52262" lon="5.87022">
        <ele>495</ele>
        <time>2018-01-07T08:03:09Z</time>
      </trkpt>
      <trkpt lat="43.52272" lon="5.87001">
        <ele>495</ele>
        <time>2018-01-07T08:03:16Z</time>
      </trkpt>
      <trkpt lat="43.52283" lon="5.86979">
        <ele>496</ele>
        <time>2018-01-07T08:03:23Z</time>
      </trkpt>
      <trkpt lat="43.52293" lon="5.86956">
        <ele>497</ele>
        <time>2018-01-07T08:03:30Z</time>
      </trkpt>
      <trkpt lat="43.52305" lon="5.86933">
        <ele>497</ele>
        <time>2018-01-07T08:03:37Z</time>
      </trkpt>
      <trkpt lat="43.52315" lon="5.86911">
        <ele>497</ele>
        <time>2018-01-07T08:03:43Z</time>
      </trkpt>
      <trkpt lat="43.52326" lon="5.86891">
        <ele>497</ele>
        <time>2018-01-07T08:03:49Z</time>
      </trkpt>
      <trkpt lat="43.52337" lon="5.86871">
        <ele>495</ele>
        <time>2018-01-07T08:03:55Z</time>
      </trkpt>
      <trkpt lat="43.5235" lon="5.86849">
        <ele>496</ele>
        <time>2018-01-07T08:04:02Z</time>
      </trkpt>
      <trkpt lat="43.5236" lon="5.86824">
        <ele>495</ele>
        <time>2018-01-07T08:04:09Z</time>
      </trkpt>
      <trkpt lat="43.52366" lon="5.86801">
        <ele>495</ele>
        <time>2018-01-07T08:04:14Z</time>
      </trkpt>
      <trkpt lat="43.52371" lon="5.86775">
        <ele>495</ele>
        <time>2018-01-07T08:04:19Z</time>
      </trkpt>
      <trkpt lat="43.52375" lon="5.86749">
        <ele>494</ele>
        <time>2018-01-07T08:04:24Z</time>
      </trkpt>
      <trkpt lat="43.52379" lon="5.86724">
        <ele>494</ele>
        <time>2018-01-07T08:04:29Z</time>
      </trkpt>
      <trkpt lat="43.52382" lon="5.86697">
        <ele>493</ele>
        <time>2018-01-07T08:04:34Z</time>
      </trkpt>
      <trkpt lat="43.52383" lon="5.86667">
        <ele>493</ele>
        <time>2018-01-07T08:04:39Z</time>
      </trkpt>
      <trkpt lat="43.52383" lon="5.86642">
        <ele>492</ele>
        <time>2018-01-07T08:04:43Z</time>
      </trkpt>
      <trkpt lat="43.52384" lon="5.86613">
        <ele>492</ele>
        <time>2018-01-07T08:04:48Z</time>
      </trkpt>
      <trkpt lat="43.52387" lon="5.86585">
        <ele>492</ele>
        <time>2018-01-07T08:04:53Z</time>
      </trkpt>
      <trkpt lat="43.52396" lon="5.86563">
        <ele>491</ele>
        <time>2018-01-07T08:04:58Z</time>
      </trkpt>
      <trkpt lat="43.52412" lon="5.86549">
        <ele>491</ele>
        <time>2018-01-07T08:05:04Z</time>
      </trkpt>
      <trkpt lat="43.5243" lon="5.86548">
        <ele>490</ele>
        <time>2018-01-07T08:05:10Z</time>
      </trkpt>
      <trkpt lat="43.52449" lon="5.8655">
        <ele>490</ele>
        <time>2018-01-07T08:05:16Z</time>
      </trkpt>
      <trkpt lat="43.5247" lon="5.86551">
        <ele>490</ele>
        <time>2018-01-07T08:05:23Z</time>
      </trkpt>
      <trkpt lat="43.52489" lon="5.86554">
        <ele>490</ele>
        <time>2018-01-07T08:05:29Z</time>
      </trkpt>
      <trkpt lat="43.52508" lon="5.86555">
        <ele>488</ele>
        <time>2018-01-07T08:05:35Z</time>
      </trkpt>
      <trkpt lat="43.52528" lon="5.86552">
        <ele>488</ele>
        <time>2018-01-07T08:05:42Z</time>
      </trkpt>
      <trkpt lat="43.52547" lon="5.86541">
        <ele>488</ele>
        <time>2018-01-07T08:05:50Z</time>
      </trkpt>
      <trkpt lat="43.52561" lon="5.86521">
        <ele>488</ele>
        <time>2018-01-07T08:05:57Z</time>
      </trkpt>
      <trkpt lat="43.52574" lon="5.86499">
        <ele>489</ele>
        <time>2018-01-07T08:06:03Z</time>
      </trkpt>
      <trkpt lat="43.52587" lon="5.86479">
        <ele>488</ele>
        <time>2018-01-07T08:06:09Z</time>
      </trkpt>
      <trkpt lat="43.52599" lon="5.86456">
        <ele>488</ele>
        <time>2018-01-07T08:06:16Z</time>
      </trkpt>
      <trkpt lat="43.52611" lon="5.86435">
        <ele>488</ele>
        <time>2018-01-07T08:06:22Z</time>
      </trkpt>
      <trkpt lat="43.52624" lon="5.86412">
        <ele>489</ele>
        <time>2018-01-07T08:06:28Z</time>
      </trkpt>
      <trkpt lat="43.52636" lon="5.86389">
        <ele>488</ele>
        <time>2018-01-07T08:06:34Z</time>
      </trkpt>
      <trkpt lat="43.52649" lon="5.86366">
        <ele>488</ele>
        <time>2018-01-07T08:06:40Z</time>
      </trkpt>
      <trkpt lat="43.5266" lon="5.86345">
        <ele>487</ele>
        <time>2018-01-07T08:06:45Z</time>
      </trkpt>
      <trkpt lat="43.5267" lon="5.86323">
        <ele>486</ele>
        <time>2018-01-07T08:06:50Z</time>
      </trkpt>
      <trkpt lat="43.52678" lon="5.86302">
        <ele>485</ele>
        <time>2018-01-07T08:06:55Z</time>
      </trkpt>
      <trkpt lat="43.52688" lon="5.86278">
        <ele>485</ele>
        <time>2018-01-07T08:07:01Z</time>
      </trkpt>
      <trkpt lat="43.52696" lon="5.86253">
        <ele>485</ele>
        <time>2018-01-07T08:07:08Z</time>
      </trkpt>
      <trkpt lat="43.52705" lon="5.86228">
        <ele>486</ele>
        <time>2018-01-07T08:07:16Z</time>
      </trkpt>
      <trkpt lat="43.52715" lon="5.86204">
        <ele>486</ele>
      </trkpt>
      <trkpt lat="43.52726" lon="5.86173">
        <ele>487</ele>
      </trkpt>
      <trkpt lat="43.52756" lon="5.86089">
        <ele>487</ele>
      </trkpt>
      <trkpt lat="43.52764" lon="5.86062">
        <ele>488</ele>
        <time>2018-01-07T08:14:42Z</time>
      </trkpt>
      <trkpt lat="43.52776" lon="5.8604">
        <ele>488</ele>
        <time>2018-01-07T08:14:51Z</time>
      </trkpt>
      <trkpt lat="43.52789" lon="5.86018">
        <ele>488</ele>
        <time>2018-01-07T08:14:59Z</time>
      </trkpt>
      <trkpt lat="43.52803" lon="5.85998">
        <ele>490</ele>
        <time>2018-01-07T08:15:07Z</time>
      </trkpt>
      <trkpt lat="43.52817" lon="5.85979">
        <ele>490</ele>
        <time>2018-01-07T08:15:15Z</time>
      </trkpt>
      <trkpt lat="43.5283" lon="5.85959">
        <ele>490</ele>
        <time>2018-01-07T08:15:23Z</time>
      </trkpt>
      <trkpt lat="43.52844" lon="5.85939">
        <ele>491</ele>
        <time>2018-01-07T08:15:31Z</time>
      </trkpt>
      <trkpt lat="43.52857" lon="5.8592">
        <ele>491</ele>
        <time>2018-01-07T08:15:38Z</time>
      </trkpt>
      <trkpt lat="43.5287" lon="5.859">
        <ele>491</ele>
        <time>2018-01-07T08:15:45Z</time>
      </trkpt>
      <trkpt lat="43.52883" lon="5.85881">
        <ele>491</ele>
        <time>2018-01-07T08:15:52Z</time>
      </trkpt>
      <trkpt lat="43.52896" lon="5.8586">
        <ele>491</ele>
        <time>2018-01-07T08:16:00Z</time>
      </trkpt>
      <trkpt lat="43.52909" lon="5.85841">
        <ele>491</ele>
        <time>2018-01-07T08:16:09Z</time>
      </trkpt>
      <trkpt lat="43.52923" lon="5.85823">
        <ele>491</ele>
        <time>2018-01-07T08:16:17Z</time>
      </trkpt>
      <trkpt lat="43.52936" lon="5.85803">
        <ele>492</ele>
        <time>2018-01-07T08:16:25Z</time>
      </trkpt>
      <trkpt lat="43.52948" lon="5.85785">
        <ele>492</ele>
        <time>2018-01-07T08:16:32Z</time>
      </trkpt>
      <trkpt lat="43.52961" lon="5.85766">
        <ele>492</ele>
        <time>2018-01-07T08:16:39Z</time>
      </trkpt>
      <trkpt lat="43.52974" lon="5.85747">
        <ele>494</ele>
        <time>2018-01-07T08:16:46Z</time>
      </trkpt>
      <trkpt lat="43.52988" lon="5.85728">
        <ele>494</ele>
        <time>2018-01-07T08:16:53Z</time>
      </trkpt>
      <trkpt lat="43.53001" lon="5.85708">
        <ele>492</ele>
        <time>2018-01-07T08:17:00Z</time>
      </trkpt>
      <trkpt lat="43.53014" lon="5.85687">
        <ele>492</ele>
        <time>2018-01-07T08:17:07Z</time>
      </trkpt>
      <trkpt lat="43.53028" lon="5.85667">
        <ele>492</ele>
        <time>2018-01-07T08:17:14Z</time>
      </trkpt>
      <trkpt lat="43.53042" lon="5.85644">
        <ele>493</ele>
        <time>2018-01-07T08:24:35Z</time>
      </trkpt>
      <trkpt lat="43.53056" lon="5.85625">
        <ele>494</ele>
        <time>2018-01-07T08:24:42Z</time>
      </trkpt>
      <trkpt lat="43.53069" lon="5.85604">
        <ele>494</ele>
        <time>2018-01-07T08:24:50Z</time>
      </trkpt>
      <trkpt lat="43.53082" lon="5.85585">
        <ele>494</ele>
        <time>2018-01-07T08:24:57Z</time>
      </trkpt>
      <trkpt lat="43.53095" lon="5.85566">
        <ele>495</ele>
        <time>2018-01-07T08:25:04Z</time>
      </trkpt>
      <trkpt lat="43.53107" lon="5.85548">
        <ele>496</ele>
        <time>2018-01-07T08:25:11Z</time>
      </trkpt>
      <trkpt lat="43.5312" lon="5.85529">
        <ele>496</ele>
        <time>2018-01-07T08:25:18Z</time>
      </trkpt>
      <trkpt lat="43.53134" lon="5.85508">
        <ele>497</ele>
        <time>2018-01-07T08:25:26Z</time>
      </trkpt>
      <trkpt lat="43.53146" lon="5.85488">
        <ele>499</ele>
        <time>2018-01-07T08:25:33Z</time>
      </trkpt>
      <trkpt lat="43.53159" lon="5.8547">
        <ele>499</ele>
        <time>2018-01-07T08:25:40Z</time>
      </trkpt>
      <trkpt lat="43.53171" lon="5.85451">
        <ele>500</ele>
        <time>2018-01-07T08:25:47Z</time>
      </trkpt>
      <trkpt lat="43.53185" lon="5.85432">
        <ele>501</ele>
        <time>2018-01-07T08:25:54Z</time>
      </trkpt>
      <trkpt lat="43.53197" lon="5.85413">
        <ele>502</ele>
        <time>2018-01-07T08:26:00Z</time>
      </trkpt>
      <trkpt lat="43.53211" lon="5.85393">
        <ele>503</ele>
        <time>2018-01-07T08:26:07Z</time>
      </trkpt>
      <trkpt lat="43.53224" lon="5.85373">
        <ele>503</ele>
        <time>2018-01-07T08:26:14Z</time>
      </trkpt>
      <trkpt lat="43.53238" lon="5.85352">
        <ele>504</ele>
        <time>2018-01-07T08:26:21Z</time>
      </trkpt>
      <trkpt lat="43.53251" lon="5.85333">
        <ele>504</ele>
        <time>2018-01-07T08:26:28Z</time>
      </trkpt>
      <trkpt lat="43.53264" lon="5.85313">
        <ele>504</ele>
        <time>2018-01-07T08:26:35Z</time>
      </trkpt>
      <trkpt lat="43.53277" lon="5.85294">
        <ele>504</ele>
        <time>2018-01-07T08:26:42Z</time>
      </trkpt>
      <trkpt lat="43.53289" lon="5.85275">
        <ele>504</ele>
        <time>2018-01-07T08:26:49Z</time>
      </trkpt>
      <trkpt lat="43.53302" lon="5.85256">
        <ele>504</ele>
        <time>2018-01-07T08:26:56Z</time>
      </trkpt>
      <trkpt lat="43.53316" lon="5.85236">
        <ele>506</ele>
        <time>2018-01-07T08:27:04Z</time>
      </trkpt>
      <trkpt lat="43.5333" lon="5.85216">
        <ele>506</ele>
        <time>2018-01-07T08:27:11Z</time>
      </trkpt>
      <trkpt lat="43.53344" lon="5.85195">
        <ele>507</ele>
        <time>2018-01-07T08:27:19Z</time>
      </trkpt>
      <trkpt lat="43.53356" lon="5.85177">
        <ele>507</ele>
        <time>2018-01-07T08:27:26Z</time>
      </trkpt>
      <trkpt lat="43.53371" lon="5.85157">
        <ele>509</ele>
        <time>2018-01-07T08:27:34Z</time>
      </trkpt>
      <trkpt lat="43.53385" lon="5.85138">
        <ele>509</ele>
        <time>2018-01-07T08:27:42Z</time>
      </trkpt>
      <trkpt lat="43.53403" lon="5.85125">
        <ele>509</ele>
        <time>2018-01-07T08:27:50Z</time>
      </trkpt>
      <trkpt lat="43.53421" lon="5.85121">
        <ele>510</ele>
        <time>2018-01-07T08:27:56Z</time>
      </trkpt>
      <trkpt lat="43.53442" lon="5.85118">
        <ele>510</ele>
        <time>2018-01-07T08:28:03Z</time>
      </trkpt>
      <trkpt lat="43.5346" lon="5.85115">
        <ele>510</ele>
        <time>2018-01-07T08:28:10Z</time>
      </trkpt>
      <trkpt lat="43.53479" lon="5.85112">
        <ele>510</ele>
        <time>2018-01-07T08:28:18Z</time>
      </trkpt>
      <trkpt lat="43.53499" lon="5.8511">
        <ele>510</ele>
        <time>2018-01-07T08:28:26Z</time>
      </trkpt>
      <trkpt lat="43.53519" lon="5.85107">
        <ele>510</ele>
        <time>2018-01-07T08:28:34Z</time>
      </trkpt>
      <trkpt lat="43.53538" lon="5.85105">
        <ele>509</ele>
        <time>2018-01-07T08:28:41Z</time>
      </trkpt>
      <trkpt lat="43.53557" lon="5.85102">
        <ele>509</ele>
        <time>2018-01-07T08:28:48Z</time>
      </trkpt>
      <trkpt lat="43.53575" lon="5.851">
        <ele>510</ele>
        <time>2018-01-07T08:28:55Z</time>
      </trkpt>
      <trkpt lat="43.53594" lon="5.85097">
        <ele>510</ele>
        <time>2018-01-07T08:29:02Z</time>
      </trkpt>
      <trkpt lat="43.53614" lon="5.85096">
        <ele>509</ele>
        <time>2018-01-07T08:35:33Z</time>
      </trkpt>
      <trkpt lat="43.53633" lon="5.85092">
        <ele>509</ele>
        <time>2018-01-07T08:35:40Z</time>
      </trkpt>
      <trkpt lat="43.53653" lon="5.85089">
        <ele>510</ele>
        <time>2018-01-07T08:35:46Z</time>
      </trkpt>
      <trkpt lat="43.53674" lon="5.85086">
        <ele>510</ele>
        <time>2018-01-07T08:35:52Z</time>
      </trkpt>
      <trkpt lat="43.53694" lon="5.85083">
        <ele>512</ele>
        <time>2018-01-07T08:35:58Z</time>
      </trkpt>
      <trkpt lat="43.53715" lon="5.8508">
        <ele>512</ele>
        <time>2018-01-07T08:36:04Z</time>
      </trkpt>
      <trkpt lat="43.53736" lon="5.85077">
        <ele>511</ele>
        <time>2018-01-07T08:36:10Z</time>
      </trkpt>
      <trkpt lat="43.53754" lon="5.85075">
        <ele>510</ele>
        <time>2018-01-07T08:36:15Z</time>
      </trkpt>
      <trkpt lat="43.53774" lon="5.85072">
        <ele>511</ele>
        <time>2018-01-07T08:36:20Z</time>
      </trkpt>
      <trkpt lat="43.53794" lon="5.85067">
        <ele>511</ele>
        <time>2018-01-07T08:36:25Z</time>
      </trkpt>
      <trkpt lat="43.53813" lon="5.85059">
        <ele>511</ele>
        <time>2018-01-07T08:36:30Z</time>
      </trkpt>
      <trkpt lat="43.53831" lon="5.85049">
        <ele>511</ele>
        <time>2018-01-07T08:36:35Z</time>
      </trkpt>
      <trkpt lat="43.53849" lon="5.85038">
        <ele>511</ele>
        <time>2018-01-07T08:36:40Z</time>
      </trkpt>
      <trkpt lat="43.53867" lon="5.85027">
        <ele>511</ele>
        <time>2018-01-07T08:36:45Z</time>
      </trkpt>
      <trkpt lat="43.53886" lon="5.85015">
        <ele>511</ele>
        <time>2018-01-07T08:36:50Z</time>
      </trkpt>
      <trkpt lat="43.53907" lon="5.85004">
        <ele>511</ele>
        <time>2018-01-07T08:36:55Z</time>
      </trkpt>
      <trkpt lat="43.53928" lon="5.84999">
        <ele>511</ele>
        <time>2018-01-07T08:36:59Z</time>
      </trkpt>
      <trkpt lat="43.53949" lon="5.84997">
        <ele>512</ele>
        <time>2018-01-07T08:37:03Z</time>
      </trkpt>
      <trkpt lat="43.53971" lon="5.84996">
        <ele>511</ele>
        <time>2018-01-07T08:37:07Z</time>
      </trkpt>
      <trkpt lat="43.53993" lon="5.84995">
        <ele>510</ele>
        <time>2018-01-07T08:37:11Z</time>
      </trkpt>
      <trkpt lat="43.54014" lon="5.84993">
        <ele>510</ele>
        <time>2018-01-07T08:37:15Z</time>
      </trkpt>
      <trkpt lat="43.54035" lon="5.84991">
        <ele>510</ele>
        <time>2018-01-07T08:37:19Z</time>
      </trkpt>
      <trkpt lat="43.54053" lon="5.8499">
        <ele>510</ele>
        <time>2018-01-07T08:37:23Z</time>
      </trkpt>
      <trkpt lat="43.54071" lon="5.84988">
        <ele>509</ele>
        <time>2018-01-07T08:37:27Z</time>
      </trkpt>
      <trkpt lat="43.5409" lon="5.84987">
        <ele>509</ele>
        <time>2018-01-07T08:37:31Z</time>
      </trkpt>
      <trkpt lat="43.54108" lon="5.84986">
        <ele>509</ele>
        <time>2018-01-07T08:37:35Z</time>
      </trkpt>
      <trkpt lat="43.54126" lon="5.84985">
        <ele>510</ele>
        <time>2018-01-07T08:37:39Z</time>
      </trkpt>
      <trkpt lat="43.54148" lon="5.84984">
        <ele>510</ele>
        <time>2018-01-07T08:37:44Z</time>
      </trkpt>
      <trkpt lat="43.5417" lon="5.84982">
        <ele>510</ele>
        <time>2018-01-07T08:37:49Z</time>
      </trkpt>
      <trkpt lat="43.5419" lon="5.84984">
        <ele>510</ele>
        <time>2018-01-07T08:37:54Z</time>
      </trkpt>
      <trkpt lat="43.54195" lon="5.85011">
        <ele>509</ele>
        <time>2018-01-07T08:37:59Z</time>
      </trkpt>
      <trkpt lat="43.54193" lon="5.85039">
        <ele>508</ele>
        <time>2018-01-07T08:38:06Z</time>
      </trkpt>
      <trkpt lat="43.54191" lon="5.85064">
        <ele>508</ele>
        <time>2018-01-07T08:38:13Z</time>
      </trkpt>
      <trkpt lat="43.54184" lon="5.85087">
        <ele>506</ele>
        <time>2018-01-07T08:38:20Z</time>
      </trkpt>
      <trkpt lat="43.54175" lon="5.85114">
        <ele>506</ele>
        <time>2018-01-07T08:38:26Z</time>
      </trkpt>
      <trkpt lat="43.54167" lon="5.85139">
        <ele>505</ele>
        <time>2018-01-07T08:38:31Z</time>
      </trkpt>
      <trkpt lat="43.54158" lon="5.85163">
        <ele>504</ele>
        <time>2018-01-07T08:38:36Z</time>
      </trkpt>
      <trkpt lat="43.54149" lon="5.85186">
        <ele>503</ele>
        <time>2018-01-07T08:38:41Z</time>
      </trkpt>
      <trkpt lat="43.54153" lon="5.85212">
        <ele>503</ele>
        <time>2018-01-07T08:38:47Z</time>
      </trkpt>
      <trkpt lat="43.54171" lon="5.85218">
        <ele>503</ele>
        <time>2018-01-07T08:38:55Z</time>
      </trkpt>
      <trkpt lat="43.54191" lon="5.85213">
        <ele>503</ele>
        <time>2018-01-07T08:39:00Z</time>
      </trkpt>
      <trkpt lat="43.54211" lon="5.85213">
        <ele>503</ele>
        <time>2018-01-07T08:39:05Z</time>
      </trkpt>
      <trkpt lat="43.54231" lon="5.85222">
        <ele>503</ele>
        <time>2018-01-07T08:39:10Z</time>
      </trkpt>
      <trkpt lat="43.54249" lon="5.85238">
        <ele>503</ele>
        <time>2018-01-07T08:39:15Z</time>
      </trkpt>
      <trkpt lat="43.54257" lon="5.85265">
        <ele>503</ele>
        <time>2018-01-07T08:39:20Z</time>
      </trkpt>
      <trkpt lat="43.5427" lon="5.85289">
        <ele>503</ele>
        <time>2018-01-07T08:39:25Z</time>
      </trkpt>
      <trkpt lat="43.54278" lon="5.85312">
        <ele>503</ele>
        <time>2018-01-07T08:39:30Z</time>
      </trkpt>
      <trkpt lat="43.54263" lon="5.85334">
        <ele>502</ele>
        <time>2018-01-07T08:39:35Z</time>
      </trkpt>
      <trkpt lat="43.54266" lon="5.85361">
        <ele>501</ele>
        <time>2018-01-07T08:39:40Z</time>
      </trkpt>
      <trkpt lat="43.54259" lon="5.85388">
        <ele>500</ele>
        <time>2018-01-07T08:39:45Z</time>
      </trkpt>
      <trkpt lat="43.54253" lon="5.85413">
        <ele>499</ele>
        <time>2018-01-07T08:39:49Z</time>
      </trkpt>
      <trkpt lat="43.54243" lon="5.85436">
        <ele>499</ele>
        <time>2018-01-07T08:39:53Z</time>
      </trkpt>
      <trkpt lat="43.54239" lon="5.85461">
        <ele>500</ele>
        <time>2018-01-07T08:39:57Z</time>
      </trkpt>
      <trkpt lat="43.54224" lon="5.85476">
        <ele>500</ele>
        <time>2018-01-07T08:40:01Z</time>
      </trkpt>
      <trkpt lat="43.54206" lon="5.85486">
        <ele>500</ele>
        <time>2018-01-07T08:40:05Z</time>
      </trkpt>
      <trkpt lat="43.54187" lon="5.85501">
        <ele>500</ele>
        <time>2018-01-07T08:40:10Z</time>
      </trkpt>
      <trkpt lat="43.5417" lon="5.85516">
        <ele>500</ele>
        <time>2018-01-07T08:40:15Z</time>
      </trkpt>
      <trkpt lat="43.54162" lon="5.85541">
        <ele>500</ele>
        <time>2018-01-07T08:40:20Z</time>
      </trkpt>
      <trkpt lat="43.5416" lon="5.85567">
        <ele>500</ele>
        <time>2018-01-07T08:40:26Z</time>
      </trkpt>
      <trkpt lat="43.54141" lon="5.85567">
        <ele>500</ele>
        <time>2018-01-07T08:40:31Z</time>
      </trkpt>
      <trkpt lat="43.54121" lon="5.85562">
        <ele>500</ele>
        <time>2018-01-07T08:40:36Z</time>
      </trkpt>
      <trkpt lat="43.54101" lon="5.85568">
        <ele>500</ele>
        <time>2018-01-07T08:40:42Z</time>
      </trkpt>
      <trkpt lat="43.54084" lon="5.85583">
        <ele>500</ele>
        <time>2018-01-07T08:40:48Z</time>
      </trkpt>
      <trkpt lat="43.54067" lon="5.85596">
        <ele>499</ele>
        <time>2018-01-07T08:40:53Z</time>
      </trkpt>
      <trkpt lat="43.5405" lon="5.85607">
        <ele>499</ele>
        <time>2018-01-07T08:40:58Z</time>
      </trkpt>
      <trkpt lat="43.54034" lon="5.85618">
        <ele>499</ele>
        <time>2018-01-07T08:41:03Z</time>
      </trkpt>
      <trkpt lat="43.54016" lon="5.8563">
        <ele>498</ele>
        <time>2018-01-07T08:41:09Z</time>
      </trkpt>
      <trkpt lat="43.54004" lon="5.85651">
        <ele>498</ele>
        <time>2018-01-07T08:41:23Z</time>
      </trkpt>
      <trkpt lat="43.53998" lon="5.85676">
        <ele>497</ele>
        <time>2018-01-07T08:41:31Z</time>
      </trkpt>
      <trkpt lat="43.54016" lon="5.85686">
        <ele>497</ele>
        <time>2018-01-07T08:43:56Z</time>
      </trkpt>
      <trkpt lat="43.54034" lon="5.85695">
        <ele>497</ele>
        <time>2018-01-07T08:44:05Z</time>
      </trkpt>
      <trkpt lat="43.54051" lon="5.8568">
        <ele>497</ele>
        <time>2018-01-07T08:44:21Z</time>
      </trkpt>
      <trkpt lat="43.5407" lon="5.85675">
        <ele>498</ele>
        <time>2018-01-07T08:44:29Z</time>
      </trkpt>
      <trkpt lat="43.54086" lon="5.85662">
        <ele>498</ele>
        <time>2018-01-07T08:44:36Z</time>
      </trkpt>
      <trkpt lat="43.54106" lon="5.85656">
        <ele>499</ele>
        <time>2018-01-07T08:44:43Z</time>
      </trkpt>
      <trkpt lat="43.54119" lon="5.85637">
        <ele>499</ele>
        <time>2018-01-07T08:44:50Z</time>
      </trkpt>
      <trkpt lat="43.54134" lon="5.8562">
        <ele>499</ele>
        <time>2018-01-07T08:44:56Z</time>
      </trkpt>
      <trkpt lat="43.54145" lon="5.85601">
        <ele>499</ele>
        <time>2018-01-07T08:45:02Z</time>
      </trkpt>
      <trkpt lat="43.54163" lon="5.8559">
        <ele>500</ele>
        <time>2018-01-07T08:45:09Z</time>
      </trkpt>
      <trkpt lat="43.54182" lon="5.85593">
        <ele>500</ele>
        <time>2018-01-07T08:45:15Z</time>
      </trkpt>
      <trkpt lat="43.54199" lon="5.85606">
        <ele>500</ele>
        <time>2018-01-07T08:45:21Z</time>
      </trkpt>
      <trkpt lat="43.54217" lon="5.85614">
        <ele>500</ele>
        <time>2018-01-07T08:45:27Z</time>
      </trkpt>
      <trkpt lat="43.54236" lon="5.85624">
        <ele>500</ele>
        <time>2018-01-07T08:45:33Z</time>
      </trkpt>
      <trkpt lat="43.54255" lon="5.85635">
        <ele>500</ele>
        <time>2018-01-07T08:45:39Z</time>
      </trkpt>
      <trkpt lat="43.5427" lon="5.85649">
        <ele>500</ele>
        <time>2018-01-07T08:45:45Z</time>
      </trkpt>
      <trkpt lat="43.54288" lon="5.85664">
        <ele>500</ele>
        <time>2018-01-07T08:45:51Z</time>
      </trkpt>
      <trkpt lat="43.54306" lon="5.85656">
        <ele>500</ele>
        <time>2018-01-07T08:49:15Z</time>
      </trkpt>
      <trkpt lat="43.54324" lon="5.85648">
        <ele>499</ele>
        <time>2018-01-07T08:49:25Z</time>
      </trkpt>
      <trkpt lat="43.54343" lon="5.85642">
        <ele>500</ele>
        <time>2018-01-07T08:49:32Z</time>
      </trkpt>
      <trkpt lat="43.54362" lon="5.85631">
        <ele>500</ele>
        <time>2018-01-07T08:49:39Z</time>
      </trkpt>
      <trkpt lat="43.54381" lon="5.85626">
        <ele>500</ele>
        <time>2018-01-07T08:49:46Z</time>
      </trkpt>
      <trkpt lat="43.54399" lon="5.85619">
        <ele>501</ele>
        <time>2018-01-07T08:49:53Z</time>
      </trkpt>
      <trkpt lat="43.54402" lon="5.85593">
        <ele>501</ele>
        <time>2018-01-07T08:50:02Z</time>
      </trkpt>
      <trkpt lat="43.54407" lon="5.85567">
        <ele>501</ele>
        <time>2018-01-07T08:50:10Z</time>
      </trkpt>
      <trkpt lat="43.544" lon="5.85542">
        <ele>501</ele>
        <time>2018-01-07T08:50:19Z</time>
      </trkpt>
      <trkpt lat="43.54388" lon="5.85522">
        <ele>501</ele>
        <time>2018-01-07T08:50:28Z</time>
      </trkpt>
      <trkpt lat="43.54375" lon="5.85503">
        <ele>501</ele>
        <time>2018-01-07T08:50:36Z</time>
      </trkpt>
      <trkpt lat="43.5438" lon="5.85476">
        <ele>501</ele>
        <time>2018-01-07T08:50:45Z</time>
      </trkpt>
      <trkpt lat="43.54382" lon="5.85451">
        <ele>501</ele>
        <time>2018-01-07T08:50:52Z</time>
      </trkpt>
      <trkpt lat="43.5439" lon="5.85426">
        <ele>502</ele>
        <time>2018-01-07T08:50:59Z</time>
      </trkpt>
      <trkpt lat="43.54403" lon="5.85408">
        <ele>503</ele>
        <time>2018-01-07T08:51:05Z</time>
      </trkpt>
      <trkpt lat="43.54417" lon="5.85388">
        <ele>503</ele>
        <time>2018-01-07T08:51:12Z</time>
      </trkpt>
      <trkpt lat="43.54432" lon="5.85373">
        <ele>504</ele>
        <time>2018-01-07T08:51:19Z</time>
      </trkpt>
      <trkpt lat="43.54447" lon="5.85355">
        <ele>504</ele>
        <time>2018-01-07T08:51:27Z</time>
      </trkpt>
      <trkpt lat="43.54453" lon="5.8533">
        <ele>504</ele>
        <time>2018-01-07T08:51:35Z</time>
      </trkpt>
      <trkpt lat="43.54462" lon="5.85306">
        <ele>504</ele>
        <time>2018-01-07T08:51:43Z</time>
      </trkpt>
      <trkpt lat="43.54475" lon="5.85285">
        <ele>504</ele>
        <time>2018-01-07T08:51:50Z</time>
      </trkpt>
      <trkpt lat="43.54483" lon="5.85263">
        <ele>504</ele>
        <time>2018-01-07T08:51:56Z</time>
      </trkpt>
      <trkpt lat="43.54493" lon="5.85241">
        <ele>504</ele>
        <time>2018-01-07T08:52:02Z</time>
      </trkpt>
      <trkpt lat="43.54502" lon="5.85216">
        <ele>504</ele>
        <time>2018-01-07T08:52:09Z</time>
      </trkpt>
      <trkpt lat="43.54512" lon="5.85193">
        <ele>504</ele>
        <time>2018-01-07T08:52:16Z</time>
      </trkpt>
      <trkpt lat="43.5452" lon="5.85166">
        <ele>505</ele>
        <time>2018-01-07T08:52:23Z</time>
      </trkpt>
      <trkpt lat="43.54532" lon="5.85144">
        <ele>505</ele>
        <time>2018-01-07T08:52:29Z</time>
      </trkpt>
      <trkpt lat="43.54542" lon="5.85118">
        <ele>506</ele>
        <time>2018-01-07T08:52:35Z</time>
      </trkpt>
      <trkpt lat="43.54545" lon="5.85091">
        <ele>506</ele>
        <time>2018-01-07T08:52:41Z</time>
      </trkpt>
      <trkpt lat="43.54543" lon="5.85065">
        <ele>508</ele>
        <time>2018-01-07T08:52:47Z</time>
      </trkpt>
      <trkpt lat="43.54547" lon="5.8504">
        <ele>508</ele>
        <time>2018-01-07T08:52:53Z</time>
      </trkpt>
      <trkpt lat="43.54562" lon="5.85021">
        <ele>508</ele>
        <time>2018-01-07T08:53:00Z</time>
      </trkpt>
      <trkpt lat="43.54575" lon="5.85004">
        <ele>508</ele>
        <time>2018-01-07T08:53:09Z</time>
      </trkpt>
      <trkpt lat="43.54579" lon="5.84978">
        <ele>509</ele>
        <time>2018-01-07T08:54:19Z</time>
      </trkpt>
      <trkpt lat="43.54593" lon="5.8496">
        <ele>508</ele>
        <time>2018-01-07T08:54:27Z</time>
      </trkpt>
      <trkpt lat="43.54613" lon="5.84959">
        <ele>508</ele>
        <time>2018-01-07T08:54:32Z</time>
      </trkpt>
      <trkpt lat="43.54632" lon="5.84958">
        <ele>507</ele>
        <time>2018-01-07T08:54:37Z</time>
      </trkpt>
      <trkpt lat="43.54651" lon="5.84955">
        <ele>507</ele>
        <time>2018-01-07T08:54:46Z</time>
      </trkpt>
      <trkpt lat="43.54672" lon="5.84954">
        <ele>508</ele>
        <time>2018-01-07T08:54:56Z</time>
      </trkpt>
      <trkpt lat="43.54691" lon="5.84953">
        <ele>508</ele>
        <time>2018-01-07T08:55:04Z</time>
      </trkpt>
      <trkpt lat="43.54709" lon="5.84953">
        <ele>508</ele>
        <time>2018-01-07T08:55:11Z</time>
      </trkpt>
      <trkpt lat="43.54727" lon="5.84952">
        <ele>509</ele>
        <time>2018-01-07T08:55:17Z</time>
      </trkpt>
      <trkpt lat="43.54747" lon="5.84951">
        <ele>509</ele>
        <time>2018-01-07T08:55:24Z</time>
      </trkpt>
      <trkpt lat="43.54767" lon="5.8495">
        <ele>509</ele>
        <time>2018-01-07T08:55:31Z</time>
      </trkpt>
      <trkpt lat="43.54788" lon="5.84954">
        <ele>509</ele>
        <time>2018-01-07T08:55:38Z</time>
      </trkpt>
      <trkpt lat="43.548" lon="5.84976">
        <ele>508</ele>
        <time>2018-01-07T08:55:43Z</time>
      </trkpt>
      <trkpt lat="43.54799" lon="5.85001">
        <ele>508</ele>
        <time>2018-01-07T08:55:47Z</time>
      </trkpt>
      <trkpt lat="43.54799" lon="5.85032">
        <ele>508</ele>
        <time>2018-01-07T08:55:51Z</time>
      </trkpt>
      <trkpt lat="43.54799" lon="5.85064">
        <ele>508</ele>
        <time>2018-01-07T08:55:55Z</time>
      </trkpt>
      <trkpt lat="43.54794" lon="5.85096">
        <ele>508</ele>
        <time>2018-01-07T08:55:59Z</time>
      </trkpt>
      <trkpt lat="43.54787" lon="5.85119">
        <ele>508</ele>
        <time>2018-01-07T08:56:02Z</time>
      </trkpt>
      <trkpt lat="43.54779" lon="5.85142">
        <ele>507</ele>
        <time>2018-01-07T08:56:05Z</time>
      </trkpt>
      <trkpt lat="43.5477" lon="5.85172">
        <ele>506</ele>
        <time>2018-01-07T08:56:09Z</time>
      </trkpt>
      <trkpt lat="43.54762" lon="5.852">
        <ele>506</ele>
        <time>2018-01-07T08:56:13Z</time>
      </trkpt>
      <trkpt lat="43.54753" lon="5.85227">
        <ele>506</ele>
        <time>2018-01-07T08:56:17Z</time>
      </trkpt>
      <trkpt lat="43.54744" lon="5.85254">
        <ele>505</ele>
        <time>2018-01-07T08:56:21Z</time>
      </trkpt>
      <trkpt lat="43.54737" lon="5.8528">
        <ele>504</ele>
        <time>2018-01-07T08:56:25Z</time>
      </trkpt>
      <trkpt lat="43.54733" lon="5.85306">
        <ele>504</ele>
        <time>2018-01-07T08:56:29Z</time>
      </trkpt>
      <trkpt lat="43.54731" lon="5.85331">
        <ele>504</ele>
        <time>2018-01-07T08:56:33Z</time>
      </trkpt>
      <trkpt lat="43.54723" lon="5.85356">
        <ele>503</ele>
        <time>2018-01-07T08:56:38Z</time>
      </trkpt>
      <trkpt lat="43.5471" lon="5.85381">
        <ele>503</ele>
        <time>2018-01-07T08:56:43Z</time>
      </trkpt>
      <trkpt lat="43.54697" lon="5.854">
        <ele>503</ele>
        <time>2018-01-07T08:56:47Z</time>
      </trkpt>
      <trkpt lat="43.54683" lon="5.85419">
        <ele>502</ele>
        <time>2018-01-07T08:56:51Z</time>
      </trkpt>
      <trkpt lat="43.54669" lon="5.85438">
        <ele>502</ele>
        <time>2018-01-07T08:56:55Z</time>
      </trkpt>
      <trkpt lat="43.54654" lon="5.85453">
        <ele>501</ele>
        <time>2018-01-07T08:56:59Z</time>
      </trkpt>
      <trkpt lat="43.54636" lon="5.85467">
        <ele>501</ele>
        <time>2018-01-07T08:57:03Z</time>
      </trkpt>
      <trkpt lat="43.54621" lon="5.85484">
        <ele>501</ele>
        <time>2018-01-07T08:57:07Z</time>
      </trkpt>
      <trkpt lat="43.54608" lon="5.85502">
        <ele>500</ele>
        <time>2018-01-07T08:57:11Z</time>
      </trkpt>
      <trkpt lat="43.54597" lon="5.85523">
        <ele>499</ele>
        <time>2018-01-07T08:57:15Z</time>
      </trkpt>
      <trkpt lat="43.54588" lon="5.85546">
        <ele>499</ele>
        <time>2018-01-07T08:57:19Z</time>
      </trkpt>
      <trkpt lat="43.54581" lon="5.85572">
        <ele>498</ele>
        <time>2018-01-07T08:57:23Z</time>
      </trkpt>
      <trkpt lat="43.54575" lon="5.856">
        <ele>498</ele>
        <time>2018-01-07T08:57:28Z</time>
      </trkpt>
      <trkpt lat="43.54568" lon="5.85625">
        <ele>498</ele>
        <time>2018-01-07T08:57:34Z</time>
      </trkpt>
      <trkpt lat="43.54557" lon="5.85647">
        <ele>498</ele>
        <time>2018-01-07T08:57:40Z</time>
      </trkpt>
      <trkpt lat="43.54545" lon="5.85669">
        <ele>498</ele>
        <time>2018-01-07T08:57:46Z</time>
      </trkpt>
      <trkpt lat="43.54533" lon="5.85691">
        <ele>498</ele>
        <time>2018-01-07T08:57:52Z</time>
      </trkpt>
      <trkpt lat="43.5452" lon="5.85712">
        <ele>498</ele>
        <time>2018-01-07T08:57:58Z</time>
      </trkpt>
      <trkpt lat="43.54507" lon="5.8573">
        <ele>498</ele>
        <time>2018-01-07T08:58:06Z</time>
      </trkpt>
      <trkpt lat="43.54504" lon="5.85755">
        <ele>497</ele>
        <time>2018-01-07T08:58:27Z</time>
      </trkpt>
      <trkpt lat="43.54517" lon="5.85773">
        <ele>499</ele>
        <time>2018-01-07T08:58:38Z</time>
      </trkpt>
      <trkpt lat="43.54529" lon="5.85793">
        <ele>500</ele>
        <time>2018-01-07T08:58:48Z</time>
      </trkpt>
      <trkpt lat="43.54541" lon="5.85813">
        <ele>501</ele>
        <time>2018-01-07T08:58:58Z</time>
      </trkpt>
      <trkpt lat="43.54547" lon="5.85837">
        <ele>504</ele>
        <time>2018-01-07T08:59:06Z</time>
      </trkpt>
      <trkpt lat="43.5453" lon="5.85852">
        <ele>503</ele>
        <time>2018-01-07T08:59:15Z</time>
      </trkpt>
      <trkpt lat="43.54511" lon="5.85853">
        <ele>502</ele>
        <time>2018-01-07T08:59:23Z</time>
      </trkpt>
      <trkpt lat="43.54491" lon="5.85855">
        <ele>501</ele>
        <time>2018-01-07T08:59:31Z</time>
      </trkpt>
      <trkpt lat="43.54473" lon="5.8586">
        <ele>501</ele>
        <time>2018-01-07T08:59:38Z</time>
      </trkpt>
      <trkpt lat="43.54455" lon="5.85874">
        <ele>501</ele>
        <time>2018-01-07T08:59:46Z</time>
      </trkpt>
      <trkpt lat="43.54438" lon="5.85888">
        <ele>501</ele>
        <time>2018-01-07T08:59:54Z</time>
      </trkpt>
      <trkpt lat="43.54425" lon="5.85905">
        <ele>502</ele>
        <time>2018-01-07T09:00:01Z</time>
      </trkpt>
      <trkpt lat="43.54412" lon="5.85923">
        <ele>502</ele>
        <time>2018-01-07T09:00:08Z</time>
      </trkpt>
      <trkpt lat="43.54403" lon="5.85948">
        <ele>502</ele>
        <time>2018-01-07T09:00:16Z</time>
      </trkpt>
      <trkpt lat="43.54399" lon="5.85975">
        <ele>502</ele>
        <time>2018-01-07T09:00:24Z</time>
      </trkpt>
      <trkpt lat="43.54396" lon="5.86">
        <ele>503</ele>
        <time>2018-01-07T09:00:31Z</time>
      </trkpt>
      <trkpt lat="43.54394" lon="5.86027">
        <ele>503</ele>
        <time>2018-01-07T09:00:39Z</time>
      </trkpt>
      <trkpt lat="43.54389" lon="5.86052">
        <ele>503</ele>
        <time>2018-01-07T09:00:46Z</time>
      </trkpt>
      <trkpt lat="43.54385" lon="5.86078">
        <ele>503</ele>
        <time>2018-01-07T09:00:53Z</time>
      </trkpt>
      <trkpt lat="43.5438" lon="5.86105">
        <ele>503</ele>
        <time>2018-01-07T09:01:00Z</time>
      </trkpt>
      <trkpt lat="43.54374" lon="5.86132">
        <ele>503</ele>
        <time>2018-01-07T09:01:07Z</time>
      </trkpt>
      <trkpt lat="43.54367" lon="5.86159">
        <ele>503</ele>
        <time>2018-01-07T09:01:14Z</time>
      </trkpt>
      <trkpt lat="43.54361" lon="5.86186">
        <ele>503</ele>
        <time>2018-01-07T09:01:21Z</time>
      </trkpt>
      <trkpt lat="43.54356" lon="5.86214">
        <ele>503</ele>
        <time>2018-01-07T09:01:28Z</time>
      </trkpt>
      <trkpt lat="43.54351" lon="5.86242">
        <ele>502</ele>
        <time>2018-01-07T09:01:35Z</time>
      </trkpt>
      <trkpt lat="43.54347" lon="5.86267">
        <ele>502</ele>
        <time>2018-01-07T09:01:41Z</time>
      </trkpt>
      <trkpt lat="43.54343" lon="5.86293">
        <ele>503</ele>
        <time>2018-01-07T09:01:48Z</time>
      </trkpt>
      <trkpt lat="43.54337" lon="5.8632">
        <ele>502</ele>
        <time>2018-01-07T09:01:55Z</time>
      </trkpt>
      <trkpt lat="43.54332" lon="5.86345">
        <ele>502</ele>
        <time>2018-01-07T09:02:01Z</time>
      </trkpt>
      <trkpt lat="43.54325" lon="5.86371">
        <ele>501</ele>
        <time>2018-01-07T09:02:08Z</time>
      </trkpt>
      <trkpt lat="43.5432" lon="5.86396">
        <ele>502</ele>
        <time>2018-01-07T09:02:14Z</time>
      </trkpt>
      <trkpt lat="43.54316" lon="5.86421">
        <ele>502</ele>
        <time>2018-01-07T09:02:20Z</time>
      </trkpt>
      <trkpt lat="43.5431" lon="5.86447">
        <ele>502</ele>
        <time>2018-01-07T09:02:27Z</time>
      </trkpt>
      <trkpt lat="43.54305" lon="5.86473">
        <ele>502</ele>
        <time>2018-01-07T09:02:34Z</time>
      </trkpt>
      <trkpt lat="43.54301" lon="5.86499">
        <ele>502</ele>
        <time>2018-01-07T09:02:41Z</time>
      </trkpt>
      <trkpt lat="43.54296" lon="5.86526">
        <ele>502</ele>
        <time>2018-01-07T09:02:48Z</time>
      </trkpt>
      <trkpt lat="43.54291" lon="5.8655">
        <ele>502</ele>
        <time>2018-01-07T09:02:54Z</time>
      </trkpt>
      <trkpt lat="43.54285" lon="5.86575">
        <ele>502</ele>
        <time>2018-01-07T09:03:01Z</time>
      </trkpt>
      <trkpt lat="43.54279" lon="5.866">
        <ele>502</ele>
        <time>2018-01-07T09:03:08Z</time>
      </trkpt>
      <trkpt lat="43.54275" lon="5.86625">
        <ele>501</ele>
        <time>2018-01-07T09:03:14Z</time>
      </trkpt>
      <trkpt lat="43.54272" lon="5.86653">
        <ele>501</ele>
        <time>2018-01-07T09:03:21Z</time>
      </trkpt>
      <trkpt lat="43.54266" lon="5.86678">
        <ele>501</ele>
        <time>2018-01-07T09:03:28Z</time>
      </trkpt>
      <trkpt lat="43.54259" lon="5.86703">
        <ele>501</ele>
        <time>2018-01-07T09:03:35Z</time>
      </trkpt>
      <trkpt lat="43.54253" lon="5.86731">
        <ele>501</ele>
        <time>2018-01-07T09:03:42Z</time>
      </trkpt>
      <trkpt lat="43.54247" lon="5.86758">
        <ele>501</ele>
        <time>2018-01-07T09:03:49Z</time>
      </trkpt>
      <trkpt lat="43.54243" lon="5.86785">
        <ele>500</ele>
        <time>2018-01-07T09:03:56Z</time>
      </trkpt>
      <trkpt lat="43.54237" lon="5.86813">
        <ele>500</ele>
        <time>2018-01-07T09:04:03Z</time>
      </trkpt>
      <trkpt lat="43.54234" lon="5.8684">
        <ele>500</ele>
        <time>2018-01-07T09:04:10Z</time>
      </trkpt>
      <trkpt lat="43.54231" lon="5.86867">
        <ele>500</ele>
        <time>2018-01-07T09:04:17Z</time>
      </trkpt>
      <trkpt lat="43.54226" lon="5.86894">
        <ele>500</ele>
        <time>2018-01-07T09:04:24Z</time>
      </trkpt>
      <trkpt lat="43.54217" lon="5.86915">
        <ele>500</ele>
        <time>2018-01-07T09:04:33Z</time>
      </trkpt>
      <trkpt lat="43.54203" lon="5.86932">
        <ele>501</ele>
        <time>2018-01-07T09:09:32Z</time>
      </trkpt>
      <trkpt lat="43.54187" lon="5.86951">
        <ele>501</ele>
        <time>2018-01-07T09:09:40Z</time>
      </trkpt>
      <trkpt lat="43.54174" lon="5.86969">
        <ele>501</ele>
        <time>2018-01-07T09:09:46Z</time>
      </trkpt>
      <trkpt lat="43.54161" lon="5.86986">
        <ele>501</ele>
        <time>2018-01-07T09:09:52Z</time>
      </trkpt>
      <trkpt lat="43.54149" lon="5.87006">
        <ele>502</ele>
        <time>2018-01-07T09:09:58Z</time>
      </trkpt>
      <trkpt lat="43.54134" lon="5.87025">
        <ele>502</ele>
        <time>2018-01-07T09:10:04Z</time>
      </trkpt>
      <trkpt lat="43.5412" lon="5.87043">
        <ele>502</ele>
        <time>2018-01-07T09:10:10Z</time>
      </trkpt>
      <trkpt lat="43.54105" lon="5.87062">
        <ele>502</ele>
        <time>2018-01-07T09:10:16Z</time>
      </trkpt>
      <trkpt lat="43.54091" lon="5.87082">
        <ele>502</ele>
        <time>2018-01-07T09:10:22Z</time>
      </trkpt>
      <trkpt lat="43.54077" lon="5.87101">
        <ele>502</ele>
        <time>2018-01-07T09:10:28Z</time>
      </trkpt>
      <trkpt lat="43.54065" lon="5.87124">
        <ele>502</ele>
        <time>2018-01-07T09:10:34Z</time>
      </trkpt>
      <trkpt lat="43.54053" lon="5.87148">
        <ele>502</ele>
        <time>2018-01-07T09:10:40Z</time>
      </trkpt>
      <trkpt lat="43.54043" lon="5.87171">
        <ele>503</ele>
        <time>2018-01-07T09:10:46Z</time>
      </trkpt>
      <trkpt lat="43.54033" lon="5.87193">
        <ele>502</ele>
        <time>2018-01-07T09:10:52Z</time>
      </trkpt>
      <trkpt lat="43.54025" lon="5.87216">
        <ele>503</ele>
        <time>2018-01-07T09:10:58Z</time>
      </trkpt>
      <trkpt lat="43.54017" lon="5.8724">
        <ele>503</ele>
        <time>2018-01-07T09:11:04Z</time>
      </trkpt>
      <trkpt lat="43.5401" lon="5.87264">
        <ele>503</ele>
        <time>2018-01-07T09:11:10Z</time>
      </trkpt>
      <trkpt lat="43.54002" lon="5.8729">
        <ele>502</ele>
        <time>2018-01-07T09:11:17Z</time>
      </trkpt>
      <trkpt lat="43.54011" lon="5.87315">
        <ele>502</ele>
        <time>2018-01-07T09:11:25Z</time>
      </trkpt>
      <trkpt lat="43.54028" lon="5.87328">
        <ele>502</ele>
        <time>2018-01-07T09:11:31Z</time>
      </trkpt>
      <trkpt lat="43.54045" lon="5.87337">
        <ele>502</ele>
        <time>2018-01-07T09:11:37Z</time>
      </trkpt>
      <trkpt lat="43.54059" lon="5.87355">
        <ele>502</ele>
        <time>2018-01-07T09:11:43Z</time>
      </trkpt>
      <trkpt lat="43.54074" lon="5.87369">
        <ele>502</ele>
        <time>2018-01-07T09:11:50Z</time>
      </trkpt>
      <trkpt lat="43.54092" lon="5.87383">
        <ele>505</ele>
        <time>2018-01-07T09:11:58Z</time>
      </trkpt>
      <trkpt lat="43.54105" lon="5.87401">
        <ele>505</ele>
        <time>2018-01-07T09:12:06Z</time>
      </trkpt>
      <trkpt lat="43.54098" lon="5.87427">
        <ele>505</ele>
        <time>2018-01-07T09:12:14Z</time>
      </trkpt>
      <trkpt lat="43.54093" lon="5.87453">
        <ele>506</ele>
        <time>2018-01-07T09:12:21Z</time>
      </trkpt>
      <trkpt lat="43.5409" lon="5.87479">
        <ele>507</ele>
        <time>2018-01-07T09:12:28Z</time>
      </trkpt>
      <trkpt lat="43.54088" lon="5.87506">
        <ele>508</ele>
        <time>2018-01-07T09:12:36Z</time>
      </trkpt>
      <trkpt lat="43.54083" lon="5.87532">
        <ele>506</ele>
        <time>2018-01-07T09:12:43Z</time>
      </trkpt>
      <trkpt lat="43.54079" lon="5.87558">
        <ele>506</ele>
        <time>2018-01-07T09:12:51Z</time>
      </trkpt>
      <trkpt lat="43.54068" lon="5.87581">
        <ele>506</ele>
        <time>2018-01-07T09:12:59Z</time>
      </trkpt>
      <trkpt lat="43.54068" lon="5.87607">
        <ele>506</ele>
        <time>2018-01-07T09:13:06Z</time>
      </trkpt>
      <trkpt lat="43.5407" lon="5.87632">
        <ele>506</ele>
        <time>2018-01-07T09:13:15Z</time>
      </trkpt>
      <trkpt lat="43.54085" lon="5.87649">
        <ele>508</ele>
        <time>2018-01-07T09:13:24Z</time>
      </trkpt>
      <trkpt lat="43.54085" lon="5.87676">
        <ele>507</ele>
        <time>2018-01-07T09:13:34Z</time>
      </trkpt>
      <trkpt lat="43.54086" lon="5.87703">
        <ele>508</ele>
        <time>2018-01-07T09:13:53Z</time>
      </trkpt>
      <trkpt lat="43.54087" lon="5.8773">
        <ele>508</ele>
        <time>2018-01-07T09:13:59Z</time>
      </trkpt>
      <trkpt lat="43.54089" lon="5.87756">
        <ele>508</ele>
        <time>2018-01-07T09:14:06Z</time>
      </trkpt>
      <trkpt lat="43.54106" lon="5.87766">
        <ele>508</ele>
        <time>2018-01-07T09:14:17Z</time>
      </trkpt>
      <trkpt lat="43.54126" lon="5.8776">
        <ele>509</ele>
        <time>2018-01-07T09:14:24Z</time>
      </trkpt>
      <trkpt lat="43.54143" lon="5.87753">
        <ele>509</ele>
        <time>2018-01-07T09:14:30Z</time>
      </trkpt>
      <trkpt lat="43.54164" lon="5.87745">
        <ele>509</ele>
        <time>2018-01-07T09:14:36Z</time>
      </trkpt>
      <trkpt lat="43.54182" lon="5.87729">
        <ele>509</ele>
        <time>2018-01-07T09:14:41Z</time>
      </trkpt>
      <trkpt lat="43.54198" lon="5.87715">
        <ele>509</ele>
        <time>2018-01-07T09:14:46Z</time>
      </trkpt>
      <trkpt lat="43.54217" lon="5.87703">
        <ele>509</ele>
        <time>2018-01-07T09:14:52Z</time>
      </trkpt>
      <trkpt lat="43.54235" lon="5.87694">
        <ele>509</ele>
        <time>2018-01-07T09:14:58Z</time>
      </trkpt>
      <trkpt lat="43.54253" lon="5.87702">
        <ele>507</ele>
        <time>2018-01-07T09:15:04Z</time>
      </trkpt>
      <trkpt lat="43.54268" lon="5.87723">
        <ele>506</ele>
        <time>2018-01-07T09:15:09Z</time>
      </trkpt>
      <trkpt lat="43.54286" lon="5.8772">
        <ele>505</ele>
        <time>2018-01-07T09:15:13Z</time>
      </trkpt>
      <trkpt lat="43.54303" lon="5.877">
        <ele>504</ele>
        <time>2018-01-07T09:15:17Z</time>
      </trkpt>
      <trkpt lat="43.5432" lon="5.87677">
        <ele>504</ele>
        <time>2018-01-07T09:15:21Z</time>
      </trkpt>
      <trkpt lat="43.54334" lon="5.87653">
        <ele>501</ele>
        <time>2018-01-07T09:15:25Z</time>
      </trkpt>
      <trkpt lat="43.54346" lon="5.8763">
        <ele>500</ele>
        <time>2018-01-07T09:15:29Z</time>
      </trkpt>
      <trkpt lat="43.54353" lon="5.87605">
        <ele>500</ele>
        <time>2018-01-07T09:15:33Z</time>
      </trkpt>
      <trkpt lat="43.54374" lon="5.87595">
        <ele>499</ele>
        <time>2018-01-07T09:15:38Z</time>
      </trkpt>
      <trkpt lat="43.54386" lon="5.87573">
        <ele>499</ele>
        <time>2018-01-07T09:15:42Z</time>
      </trkpt>
      <trkpt lat="43.54402" lon="5.87561">
        <ele>498</ele>
        <time>2018-01-07T09:15:46Z</time>
      </trkpt>
      <trkpt lat="43.54414" lon="5.87541">
        <ele>498</ele>
        <time>2018-01-07T09:15:50Z</time>
      </trkpt>
      <trkpt lat="43.54418" lon="5.87511">
        <ele>495</ele>
        <time>2018-01-07T09:15:55Z</time>
      </trkpt>
      <trkpt lat="43.54425" lon="5.87484">
        <ele>494</ele>
        <time>2018-01-07T09:15:59Z</time>
      </trkpt>
      <trkpt lat="43.5443" lon="5.8746">
        <ele>493</ele>
        <time>2018-01-07T09:16:02Z</time>
      </trkpt>
      <trkpt lat="43.54435" lon="5.87433">
        <ele>492</ele>
        <time>2018-01-07T09:16:05Z</time>
      </trkpt>
      <trkpt lat="43.54442" lon="5.87407">
        <ele>489</ele>
        <time>2018-01-07T09:16:08Z</time>
      </trkpt>
      <trkpt lat="43.54453" lon="5.87379">
        <ele>488</ele>
        <time>2018-01-07T09:16:11Z</time>
      </trkpt>
      <trkpt lat="43.54468" lon="5.87351">
        <ele>487</ele>
        <time>2018-01-07T09:16:14Z</time>
      </trkpt>
      <trkpt lat="43.54482" lon="5.87324">
        <ele>486</ele>
        <time>2018-01-07T09:16:17Z</time>
      </trkpt>
      <trkpt lat="43.54502" lon="5.87312">
        <ele>483</ele>
        <time>2018-01-07T09:16:21Z</time>
      </trkpt>
      <trkpt lat="43.54524" lon="5.87311">
        <ele>482</ele>
        <time>2018-01-07T09:16:25Z</time>
      </trkpt>
      <trkpt lat="43.54543" lon="5.87312">
        <ele>482</ele>
        <time>2018-01-07T09:16:28Z</time>
      </trkpt>
      <trkpt lat="43.54561" lon="5.87318">
        <ele>481</ele>
        <time>2018-01-07T09:16:31Z</time>
      </trkpt>
      <trkpt lat="43.54579" lon="5.87317">
        <ele>480</ele>
        <time>2018-01-07T09:16:34Z</time>
      </trkpt>
      <trkpt lat="43.54597" lon="5.87306">
        <ele>477</ele>
        <time>2018-01-07T09:16:37Z</time>
      </trkpt>
      <trkpt lat="43.54616" lon="5.87298">
        <ele>477</ele>
        <time>2018-01-07T09:16:40Z</time>
      </trkpt>
      <trkpt lat="43.54635" lon="5.87292">
        <ele>476</ele>
        <time>2018-01-07T09:16:43Z</time>
      </trkpt>
      <trkpt lat="43.54655" lon="5.87289">
        <ele>476</ele>
        <time>2018-01-07T09:16:46Z</time>
      </trkpt>
      <trkpt lat="43.54673" lon="5.87286">
        <ele>472</ele>
        <time>2018-01-07T09:16:49Z</time>
      </trkpt>
      <trkpt lat="43.54691" lon="5.8728">
        <ele>472</ele>
        <time>2018-01-07T09:16:52Z</time>
      </trkpt>
      <trkpt lat="43.5471" lon="5.87277">
        <ele>471</ele>
        <time>2018-01-07T09:16:55Z</time>
      </trkpt>
      <trkpt lat="43.54731" lon="5.87278">
        <ele>471</ele>
        <time>2018-01-07T09:16:58Z</time>
      </trkpt>
      <trkpt lat="43.54751" lon="5.87285">
        <ele>468</ele>
        <time>2018-01-07T09:17:01Z</time>
      </trkpt>
      <trkpt lat="43.54769" lon="5.87291">
        <ele>468</ele>
        <time>2018-01-07T09:17:04Z</time>
      </trkpt>
      <trkpt lat="43.54784" lon="5.87312">
        <ele>467</ele>
        <time>2018-01-07T09:17:08Z</time>
      </trkpt>
      <trkpt lat="43.548" lon="5.87328">
        <ele>467</ele>
        <time>2018-01-07T09:17:12Z</time>
      </trkpt>
      <trkpt lat="43.54818" lon="5.8732">
        <ele>467</ele>
        <time>2018-01-07T09:17:16Z</time>
      </trkpt>
      <trkpt lat="43.54835" lon="5.87305">
        <ele>465</ele>
        <time>2018-01-07T09:17:20Z</time>
      </trkpt>
      <trkpt lat="43.54849" lon="5.87284">
        <ele>465</ele>
        <time>2018-01-07T09:17:24Z</time>
      </trkpt>
      <trkpt lat="43.54866" lon="5.87273">
        <ele>464</ele>
        <time>2018-01-07T09:17:28Z</time>
      </trkpt>
      <trkpt lat="43.54888" lon="5.87275">
        <ele>464</ele>
        <time>2018-01-07T09:17:32Z</time>
      </trkpt>
      <trkpt lat="43.5491" lon="5.87273">
        <ele>463</ele>
        <time>2018-01-07T09:17:36Z</time>
      </trkpt>
      <trkpt lat="43.5493" lon="5.87264">
        <ele>462</ele>
        <time>2018-01-07T09:17:40Z</time>
      </trkpt>
      <trkpt lat="43.54949" lon="5.87247">
        <ele>459</ele>
        <time>2018-01-07T09:17:44Z</time>
      </trkpt>
      <trkpt lat="43.54966" lon="5.87225">
        <ele>459</ele>
        <time>2018-01-07T09:17:48Z</time>
      </trkpt>
      <trkpt lat="43.54984" lon="5.87207">
        <ele>458</ele>
        <time>2018-01-07T09:17:52Z</time>
      </trkpt>
      <trkpt lat="43.55004" lon="5.87192">
        <ele>456</ele>
        <time>2018-01-07T09:17:56Z</time>
      </trkpt>
      <trkpt lat="43.55027" lon="5.8719">
        <ele>456</ele>
        <time>2018-01-07T09:18:00Z</time>
      </trkpt>
      <trkpt lat="43.55048" lon="5.87198">
        <ele>455</ele>
        <time>2018-01-07T09:18:04Z</time>
      </trkpt>
      <trkpt lat="43.55068" lon="5.87207">
        <ele>455</ele>
        <time>2018-01-07T09:18:08Z</time>
      </trkpt>
      <trkpt lat="43.55085" lon="5.87218">
        <ele>451</ele>
        <time>2018-01-07T09:18:12Z</time>
      </trkpt>
      <trkpt lat="43.55105" lon="5.8722">
        <ele>450</ele>
        <time>2018-01-07T09:18:16Z</time>
      </trkpt>
      <trkpt lat="43.55126" lon="5.87215">
        <ele>449</ele>
        <time>2018-01-07T09:18:21Z</time>
      </trkpt>
      <trkpt lat="43.55143" lon="5.87226">
        <ele>448</ele>
        <time>2018-01-07T09:18:27Z</time>
      </trkpt>
      <trkpt lat="43.55163" lon="5.87237">
        <ele>446</ele>
        <time>2018-01-07T09:18:32Z</time>
      </trkpt>
      <trkpt lat="43.5518" lon="5.87246">
        <ele>444</ele>
        <time>2018-01-07T09:18:36Z</time>
      </trkpt>
      <trkpt lat="43.55195" lon="5.8726">
        <ele>441</ele>
        <time>2018-01-07T09:18:41Z</time>
      </trkpt>
      <trkpt lat="43.55208" lon="5.87281">
        <ele>441</ele>
        <time>2018-01-07T09:18:47Z</time>
      </trkpt>
      <trkpt lat="43.55222" lon="5.87298">
        <ele>440</ele>
        <time>2018-01-07T09:18:53Z</time>
      </trkpt>
      <trkpt lat="43.55237" lon="5.87318">
        <ele>439</ele>
        <time>2018-01-07T09:18:59Z</time>
      </trkpt>
      <trkpt lat="43.55252" lon="5.87333">
        <ele>436</ele>
        <time>2018-01-07T09:19:16Z</time>
      </trkpt>
      <trkpt lat="43.55266" lon="5.87354">
        <ele>435</ele>
        <time>2018-01-07T09:19:24Z</time>
      </trkpt>
      <trkpt lat="43.55278" lon="5.87373">
        <ele>435</ele>
        <time>2018-01-07T09:19:41Z</time>
      </trkpt>
      <trkpt lat="43.55295" lon="5.87386">
        <ele>435</ele>
        <time>2018-01-07T09:19:53Z</time>
      </trkpt>
      <trkpt lat="43.5531" lon="5.87403">
        <ele>434</ele>
        <time>2018-01-07T09:20:02Z</time>
      </trkpt>
      <trkpt lat="43.55327" lon="5.87415">
        <ele>433</ele>
        <time>2018-01-07T09:20:10Z</time>
      </trkpt>
      <trkpt lat="43.55346" lon="5.8742">
        <ele>433</ele>
        <time>2018-01-07T09:20:18Z</time>
      </trkpt>
      <trkpt lat="43.55364" lon="5.87428">
        <ele>433</ele>
        <time>2018-01-07T09:20:27Z</time>
      </trkpt>
      <trkpt lat="43.55382" lon="5.87435">
        <ele>433</ele>
        <time>2018-01-07T09:20:34Z</time>
      </trkpt>
      <trkpt lat="43.554" lon="5.87442">
        <ele>432</ele>
        <time>2018-01-07T09:20:42Z</time>
      </trkpt>
      <trkpt lat="43.55418" lon="5.87443">
        <ele>430</ele>
        <time>2018-01-07T09:20:50Z</time>
      </trkpt>
      <trkpt lat="43.55436" lon="5.87451">
        <ele>430</ele>
        <time>2018-01-07T09:20:57Z</time>
      </trkpt>
      <trkpt lat="43.55454" lon="5.87467">
        <ele>430</ele>
        <time>2018-01-07T09:21:04Z</time>
      </trkpt>
      <trkpt lat="43.55474" lon="5.87473">
        <ele>429</ele>
        <time>2018-01-07T09:21:09Z</time>
      </trkpt>
      <trkpt lat="43.55492" lon="5.87487">
        <ele>428</ele>
        <time>2018-01-07T09:21:14Z</time>
      </trkpt>
      <trkpt lat="43.55509" lon="5.87499">
        <ele>426</ele>
        <time>2018-01-07T09:21:19Z</time>
      </trkpt>
      <trkpt lat="43.55528" lon="5.875">
        <ele>425</ele>
        <time>2018-01-07T09:21:23Z</time>
      </trkpt>
      <trkpt lat="43.55548" lon="5.87494">
        <ele>424</ele>
        <time>2018-01-07T09:21:28Z</time>
      </trkpt>
      <trkpt lat="43.55569" lon="5.87484">
        <ele>423</ele>
        <time>2018-01-07T09:21:33Z</time>
      </trkpt>
      <trkpt lat="43.55586" lon="5.87498">
        <ele>421</ele>
        <time>2018-01-07T09:21:38Z</time>
      </trkpt>
      <trkpt lat="43.55596" lon="5.87521">
        <ele>423</ele>
        <time>2018-01-07T09:21:42Z</time>
      </trkpt>
      <trkpt lat="43.556" lon="5.87546">
        <ele>424</ele>
        <time>2018-01-07T09:21:46Z</time>
      </trkpt>
      <trkpt lat="43.556" lon="5.87573">
        <ele>424</ele>
        <time>2018-01-07T09:21:52Z</time>
      </trkpt>
      <trkpt lat="43.55615" lon="5.8759">
        <ele>426</ele>
        <time>2018-01-07T09:22:04Z</time>
      </trkpt>
      <trkpt lat="43.55627" lon="5.87609">
        <ele>427</ele>
        <time>2018-01-07T09:25:36Z</time>
      </trkpt>
      <trkpt lat="43.55618" lon="5.87631">
        <ele>427</ele>
        <time>2018-01-07T09:25:46Z</time>
      </trkpt>
      <trkpt lat="43.55613" lon="5.87655">
        <ele>426</ele>
        <time>2018-01-07T09:25:53Z</time>
      </trkpt>
      <trkpt lat="43.55612" lon="5.87682">
        <ele>428</ele>
        <time>2018-01-07T09:26:02Z</time>
      </trkpt>
      <trkpt lat="43.55607" lon="5.87708">
        <ele>429</ele>
        <time>2018-01-07T09:26:11Z</time>
      </trkpt>
      <trkpt lat="43.55599" lon="5.87731">
        <ele>428</ele>
        <time>2018-01-07T09:26:19Z</time>
      </trkpt>
      <trkpt lat="43.55589" lon="5.87754">
        <ele>427</ele>
        <time>2018-01-07T09:26:28Z</time>
      </trkpt>
      <trkpt lat="43.5558" lon="5.87776">
        <ele>425</ele>
        <time>2018-01-07T09:26:38Z</time>
      </trkpt>
      <trkpt lat="43.5557" lon="5.87798">
        <ele>426</ele>
        <time>2018-01-07T09:26:45Z</time>
      </trkpt>
      <trkpt lat="43.55564" lon="5.87821">
        <ele>428</ele>
        <time>2018-01-07T09:26:53Z</time>
      </trkpt>
      <trkpt lat="43.55554" lon="5.87843">
        <ele>432</ele>
        <time>2018-01-07T09:27:02Z</time>
      </trkpt>
      <trkpt lat="43.55543" lon="5.87865">
        <ele>431</ele>
        <time>2018-01-07T09:27:12Z</time>
      </trkpt>
      <trkpt lat="43.55534" lon="5.87889">
        <ele>431</ele>
        <time>2018-01-07T09:27:22Z</time>
      </trkpt>
      <trkpt lat="43.5553" lon="5.87914">
        <ele>431</ele>
        <time>2018-01-07T09:27:32Z</time>
      </trkpt>
      <trkpt lat="43.55525" lon="5.87943">
        <ele>433</ele>
        <time>2018-01-07T09:30:05Z</time>
      </trkpt>
      <trkpt lat="43.55529" lon="5.87967">
        <ele>433</ele>
        <time>2018-01-07T09:30:15Z</time>
      </trkpt>
      <trkpt lat="43.55536" lon="5.87992">
        <ele>433</ele>
        <time>2018-01-07T09:30:22Z</time>
      </trkpt>
      <trkpt lat="43.55545" lon="5.88018">
        <ele>433</ele>
        <time>2018-01-07T09:30:29Z</time>
      </trkpt>
      <trkpt lat="43.55555" lon="5.88043">
        <ele>433</ele>
        <time>2018-01-07T09:30:35Z</time>
      </trkpt>
      <trkpt lat="43.55571" lon="5.88062">
        <ele>432</ele>
        <time>2018-01-07T09:30:41Z</time>
      </trkpt>
      <trkpt lat="43.55584" lon="5.88081">
        <ele>432</ele>
        <time>2018-01-07T09:30:49Z</time>
      </trkpt>
      <trkpt lat="43.55603" lon="5.88089">
        <ele>434</ele>
        <time>2018-01-07T09:30:57Z</time>
      </trkpt>
      <trkpt lat="43.55621" lon="5.88089">
        <ele>435</ele>
        <time>2018-01-07T09:31:04Z</time>
      </trkpt>
      <trkpt lat="43.55637" lon="5.88106">
        <ele>435</ele>
        <time>2018-01-07T09:31:13Z</time>
      </trkpt>
      <trkpt lat="43.55646" lon="5.88129">
        <ele>436</ele>
        <time>2018-01-07T09:31:20Z</time>
      </trkpt>
      <trkpt lat="43.55653" lon="5.88156">
        <ele>436</ele>
        <time>2018-01-07T09:31:27Z</time>
      </trkpt>
      <trkpt lat="43.55661" lon="5.88181">
        <ele>438</ele>
        <time>2018-01-07T09:31:35Z</time>
      </trkpt>
      <trkpt lat="43.55665" lon="5.88206">
        <ele>438</ele>
        <time>2018-01-07T09:31:42Z</time>
      </trkpt>
      <trkpt lat="43.55667" lon="5.88232">
        <ele>438</ele>
        <time>2018-01-07T09:31:50Z</time>
      </trkpt>
      <trkpt lat="43.55677" lon="5.88256">
        <ele>440</ele>
        <time>2018-01-07T09:31:58Z</time>
      </trkpt>
      <trkpt lat="43.55691" lon="5.88272">
        <ele>442</ele>
        <time>2018-01-07T09:32:06Z</time>
      </trkpt>
      <trkpt lat="43.55699" lon="5.88296">
        <ele>442</ele>
        <time>2018-01-07T09:32:15Z</time>
      </trkpt>
      <trkpt lat="43.55715" lon="5.88311">
        <ele>443</ele>
        <time>2018-01-07T09:32:27Z</time>
      </trkpt>
      <trkpt lat="43.55728" lon="5.88328">
        <ele>444</ele>
        <time>2018-01-07T09:32:36Z</time>
      </trkpt>
      <trkpt lat="43.55734" lon="5.88353">
        <ele>445</ele>
        <time>2018-01-07T09:32:45Z</time>
      </trkpt>
      <trkpt lat="43.55736" lon="5.88379">
        <ele>445</ele>
        <time>2018-01-07T09:32:54Z</time>
      </trkpt>
      <trkpt lat="43.55741" lon="5.88406">
        <ele>446</ele>
        <time>2018-01-07T09:33:03Z</time>
      </trkpt>
      <trkpt lat="43.55745" lon="5.88431">
        <ele>445</ele>
        <time>2018-01-07T09:33:11Z</time>
      </trkpt>
      <trkpt lat="43.5575" lon="5.88457">
        <ele>444</ele>
        <time>2018-01-07T09:33:20Z</time>
      </trkpt>
      <trkpt lat="43.55753" lon="5.88484">
        <ele>448</ele>
        <time>2018-01-07T09:33:28Z</time>
      </trkpt>
      <trkpt lat="43.55759" lon="5.8851">
        <ele>447</ele>
        <time>2018-01-07T09:33:36Z</time>
      </trkpt>
      <trkpt lat="43.55765" lon="5.88535">
        <ele>449</ele>
        <time>2018-01-07T09:33:45Z</time>
      </trkpt>
      <trkpt lat="43.55773" lon="5.88558">
        <ele>449</ele>
        <time>2018-01-07T09:33:54Z</time>
      </trkpt>
      <trkpt lat="43.55786" lon="5.88574">
        <ele>450</ele>
        <time>2018-01-07T09:34:08Z</time>
      </trkpt>
      <trkpt lat="43.55804" lon="5.88582">
        <ele>452</ele>
        <time>2018-01-07T09:34:22Z</time>
      </trkpt>
      <trkpt lat="43.55823" lon="5.88589">
        <ele>455</ele>
        <time>2018-01-07T09:34:37Z</time>
      </trkpt>
      <trkpt lat="43.5584" lon="5.88601">
        <ele>458</ele>
        <time>2018-01-07T09:34:49Z</time>
      </trkpt>
      <trkpt lat="43.55854" lon="5.88619">
        <ele>459</ele>
        <time>2018-01-07T09:35:01Z</time>
      </trkpt>
      <trkpt lat="43.55871" lon="5.88631">
        <ele>460</ele>
        <time>2018-01-07T09:35:12Z</time>
      </trkpt>
      <trkpt lat="43.55889" lon="5.88641">
        <ele>460</ele>
        <time>2018-01-07T09:35:21Z</time>
      </trkpt>
      <trkpt lat="43.55907" lon="5.88652">
        <ele>461</ele>
        <time>2018-01-07T09:35:30Z</time>
      </trkpt>
      <trkpt lat="43.55924" lon="5.88662">
        <ele>461</ele>
        <time>2018-01-07T09:35:39Z</time>
      </trkpt>
      <trkpt lat="43.55942" lon="5.88673">
        <ele>460</ele>
        <time>2018-01-07T09:35:47Z</time>
      </trkpt>
      <trkpt lat="43.55958" lon="5.88685">
        <ele>460</ele>
        <time>2018-01-07T09:35:53Z</time>
      </trkpt>
      <trkpt lat="43.55977" lon="5.88698">
        <ele>460</ele>
        <time>2018-01-07T09:35:59Z</time>
      </trkpt>
      <trkpt lat="43.55997" lon="5.88706">
        <ele>460</ele>
        <time>2018-01-07T09:36:05Z</time>
      </trkpt>
      <trkpt lat="43.56016" lon="5.88707">
        <ele>460</ele>
        <time>2018-01-07T09:36:11Z</time>
      </trkpt>
      <trkpt lat="43.56035" lon="5.88709">
        <ele>459</ele>
        <time>2018-01-07T09:36:18Z</time>
      </trkpt>
      <trkpt lat="43.56053" lon="5.88717">
        <ele>459</ele>
        <time>2018-01-07T09:36:26Z</time>
      </trkpt>
      <trkpt lat="43.56072" lon="5.88711">
        <ele>459</ele>
        <time>2018-01-07T09:36:33Z</time>
      </trkpt>
      <trkpt lat="43.5609" lon="5.88706">
        <ele>460</ele>
        <time>2018-01-07T09:36:42Z</time>
      </trkpt>
      <trkpt lat="43.56108" lon="5.88699">
        <ele>461</ele>
        <time>2018-01-07T09:36:52Z</time>
      </trkpt>
      <trkpt lat="43.56127" lon="5.88694">
        <ele>461</ele>
        <time>2018-01-07T09:37:02Z</time>
      </trkpt>
      <trkpt lat="43.56147" lon="5.88691">
        <ele>461</ele>
        <time>2018-01-07T09:37:12Z</time>
      </trkpt>
      <trkpt lat="43.56165" lon="5.88687">
        <ele>461</ele>
        <time>2018-01-07T09:37:22Z</time>
      </trkpt>
      <trkpt lat="43.56184" lon="5.88684">
        <ele>464</ele>
        <time>2018-01-07T09:37:32Z</time>
      </trkpt>
      <trkpt lat="43.56203" lon="5.88681">
        <ele>465</ele>
        <time>2018-01-07T09:37:41Z</time>
      </trkpt>
      <trkpt lat="43.56221" lon="5.88682">
        <ele>466</ele>
        <time>2018-01-07T09:37:51Z</time>
      </trkpt>
      <trkpt lat="43.5624" lon="5.88686">
        <ele>466</ele>
        <time>2018-01-07T09:38:02Z</time>
      </trkpt>
      <trkpt lat="43.56258" lon="5.88691">
        <ele>469</ele>
        <time>2018-01-07T09:38:12Z</time>
      </trkpt>
      <trkpt lat="43.56277" lon="5.88696">
        <ele>470</ele>
        <time>2018-01-07T09:38:23Z</time>
      </trkpt>
      <trkpt lat="43.56295" lon="5.887">
        <ele>471</ele>
        <time>2018-01-07T09:38:33Z</time>
      </trkpt>
      <trkpt lat="43.56314" lon="5.88701">
        <ele>471</ele>
        <time>2018-01-07T09:38:43Z</time>
      </trkpt>
      <trkpt lat="43.56332" lon="5.88702">
        <ele>472</ele>
        <time>2018-01-07T09:38:53Z</time>
      </trkpt>
      <trkpt lat="43.5635" lon="5.887">
        <ele>474</ele>
        <time>2018-01-07T09:39:04Z</time>
      </trkpt>
      <trkpt lat="43.56368" lon="5.88689">
        <ele>475</ele>
        <time>2018-01-07T09:39:14Z</time>
      </trkpt>
      <trkpt lat="43.56386" lon="5.88678">
        <ele>475</ele>
        <time>2018-01-07T09:39:24Z</time>
      </trkpt>
      <trkpt lat="43.56404" lon="5.88673">
        <ele>476</ele>
        <time>2018-01-07T09:39:33Z</time>
      </trkpt>
      <trkpt lat="43.56423" lon="5.88673">
        <ele>477</ele>
        <time>2018-01-07T09:39:42Z</time>
      </trkpt>
      <trkpt lat="43.56443" lon="5.88667">
        <ele>476</ele>
        <time>2018-01-07T09:39:51Z</time>
      </trkpt>
      <trkpt lat="43.56459" lon="5.88655">
        <ele>476</ele>
        <time>2018-01-07T09:39:58Z</time>
      </trkpt>
      <trkpt lat="43.56474" lon="5.8864">
        <ele>476</ele>
        <time>2018-01-07T09:40:06Z</time>
      </trkpt>
      <trkpt lat="43.57337" lon="5.8824">
        <ele>495</ele>
        <time>2018-01-07T09:52:57Z</time>
      </trkpt>
      <trkpt lat="43.57335" lon="5.88214">
        <ele>497</ele>
        <time>2018-01-07T09:54:55Z</time>
      </trkpt>
      <trkpt lat="43.57329" lon="5.88189">
        <ele>494</ele>
        <time>2018-01-07T09:55:04Z</time>
      </trkpt>
      <trkpt lat="43.57327" lon="5.88164">
        <ele>495</ele>
        <time>2018-01-07T09:55:11Z</time>
      </trkpt>
      <trkpt lat="43.5733" lon="5.88139">
        <ele>494</ele>
        <time>2018-01-07T09:55:26Z</time>
      </trkpt>
      <trkpt lat="43.57326" lon="5.88114">
        <ele>494</ele>
        <time>2018-01-07T09:55:44Z</time>
      </trkpt>
      <trkpt lat="43.57323" lon="5.88087">
        <ele>494</ele>
        <time>2018-01-07T09:55:57Z</time>
      </trkpt>
      <trkpt lat="43.57317" lon="5.88062">
        <ele>495</ele>
        <time>2018-01-07T09:56:07Z</time>
      </trkpt>
      <trkpt lat="43.57313" lon="5.88036">
        <ele>495</ele>
        <time>2018-01-07T09:56:16Z</time>
      </trkpt>
      <trkpt lat="43.57297" lon="5.88021">
        <ele>495</ele>
        <time>2018-01-07T09:56:28Z</time>
      </trkpt>
      <trkpt lat="43.57289" lon="5.87998">
        <ele>497</ele>
        <time>2018-01-07T09:56:44Z</time>
      </trkpt>
      <trkpt lat="43.57285" lon="5.87972">
        <ele>497</ele>
        <time>2018-01-07T09:56:56Z</time>
      </trkpt>
      <trkpt lat="43.57277" lon="5.87947">
        <ele>498</ele>
        <time>2018-01-07T09:57:07Z</time>
      </trkpt>
      <trkpt lat="43.57272" lon="5.87923">
        <ele>498</ele>
        <time>2018-01-07T09:57:17Z</time>
      </trkpt>
      <trkpt lat="43.57274" lon="5.87897">
        <ele>500</ele>
        <time>2018-01-07T09:57:27Z</time>
      </trkpt>
      <trkpt lat="43.57277" lon="5.87872">
        <ele>502</ele>
        <time>2018-01-07T09:57:40Z</time>
      </trkpt>
      <trkpt lat="43.57272" lon="5.87845">
        <ele>503</ele>
        <time>2018-01-07T09:57:52Z</time>
      </trkpt>
      <trkpt lat="43.57259" lon="5.87826">
        <ele>505</ele>
        <time>2018-01-07T09:58:03Z</time>
      </trkpt>
      <trkpt lat="43.57247" lon="5.87806">
        <ele>504</ele>
        <time>2018-01-07T09:58:12Z</time>
      </trkpt>
      <trkpt lat="43.57236" lon="5.87786">
        <ele>504</ele>
        <time>2018-01-07T09:58:22Z</time>
      </trkpt>
      <trkpt lat="43.57219" lon="5.87769">
        <ele>504</ele>
        <time>2018-01-07T09:58:29Z</time>
      </trkpt>
      <trkpt lat="43.57203" lon="5.87754">
        <ele>504</ele>
        <time>2018-01-07T09:58:36Z</time>
      </trkpt>
      <trkpt lat="43.57186" lon="5.87743">
        <ele>504</ele>
        <time>2018-01-07T09:58:42Z</time>
      </trkpt>
      <trkpt lat="43.57183" lon="5.87718">
        <ele>505</ele>
        <time>2018-01-07T09:59:15Z</time>
      </trkpt>
      <trkpt lat="43.57184" lon="5.87691">
        <ele>505</ele>
        <time>2018-01-07T09:59:23Z</time>
      </trkpt>
      <trkpt lat="43.57183" lon="5.87665">
        <ele>504</ele>
        <time>2018-01-07T09:59:31Z</time>
      </trkpt>
      <trkpt lat="43.57178" lon="5.87639">
        <ele>504</ele>
        <time>2018-01-07T09:59:39Z</time>
      </trkpt>
      <trkpt lat="43.57175" lon="5.87612">
        <ele>503</ele>
        <time>2018-01-07T09:59:46Z</time>
      </trkpt>
      <trkpt lat="43.57168" lon="5.87585">
        <ele>502</ele>
        <time>2018-01-07T09:59:52Z</time>
      </trkpt>
      <trkpt lat="43.57157" lon="5.87562">
        <ele>502</ele>
        <time>2018-01-07T09:59:59Z</time>
      </trkpt>
      <trkpt lat="43.57147" lon="5.87542">
        <ele>502</ele>
        <time>2018-01-07T10:00:05Z</time>
      </trkpt>
      <trkpt lat="43.57135" lon="5.87521">
        <ele>502</ele>
        <time>2018-01-07T10:00:11Z</time>
      </trkpt>
      <trkpt lat="43.57124" lon="5.87502">
        <ele>502</ele>
        <time>2018-01-07T10:00:17Z</time>
      </trkpt>
      <trkpt lat="43.57113" lon="5.8748">
        <ele>502</ele>
        <time>2018-01-07T10:00:26Z</time>
      </trkpt>
      <trkpt lat="43.57098" lon="5.87463">
        <ele>502</ele>
        <time>2018-01-07T10:00:32Z</time>
      </trkpt>
      <trkpt lat="43.57084" lon="5.87448">
        <ele>501</ele>
        <time>2018-01-07T10:00:37Z</time>
      </trkpt>
      <trkpt lat="43.5707" lon="5.87431">
        <ele>502</ele>
        <time>2018-01-07T10:00:42Z</time>
      </trkpt>
      <trkpt lat="43.57056" lon="5.87412">
        <ele>502</ele>
        <time>2018-01-07T10:00:46Z</time>
      </trkpt>
      <trkpt lat="43.57044" lon="5.87394">
        <ele>503</ele>
        <time>2018-01-07T10:00:54Z</time>
      </trkpt>
      <trkpt lat="43.57037" lon="5.8737">
        <ele>503</ele>
        <time>2018-01-07T10:01:18Z</time>
      </trkpt>
      <trkpt lat="43.57021" lon="5.87358">
        <ele>503</ele>
        <time>2018-01-07T10:01:34Z</time>
      </trkpt>
      <trkpt lat="43.57009" lon="5.87334">
        <ele>502</ele>
        <time>2018-01-07T10:01:41Z</time>
      </trkpt>
      <trkpt lat="43.57004" lon="5.87307">
        <ele>502</ele>
        <time>2018-01-07T10:01:49Z</time>
      </trkpt>
      <trkpt lat="43.57" lon="5.87283">
        <ele>500</ele>
        <time>2018-01-07T10:01:56Z</time>
      </trkpt>
      <trkpt lat="43.56995" lon="5.87258">
        <ele>499</ele>
        <time>2018-01-07T10:02:04Z</time>
      </trkpt>
      <trkpt lat="43.56991" lon="5.87232">
        <ele>497</ele>
        <time>2018-01-07T10:02:11Z</time>
      </trkpt>
      <trkpt lat="43.56985" lon="5.87208">
        <ele>497</ele>
        <time>2018-01-07T10:02:16Z</time>
      </trkpt>
      <trkpt lat="43.56978" lon="5.87184">
        <ele>497</ele>
        <time>2018-01-07T10:02:21Z</time>
      </trkpt>
      <trkpt lat="43.56975" lon="5.87158">
        <ele>496</ele>
        <time>2018-01-07T10:02:26Z</time>
      </trkpt>
      <trkpt lat="43.56974" lon="5.87133">
        <ele>496</ele>
        <time>2018-01-07T10:02:31Z</time>
      </trkpt>
      <trkpt lat="43.56973" lon="5.87108">
        <ele>496</ele>
        <time>2018-01-07T10:02:36Z</time>
      </trkpt>
      <trkpt lat="43.56966" lon="5.87082">
        <ele>495</ele>
        <time>2018-01-07T10:02:42Z</time>
      </trkpt>
      <trkpt lat="43.56959" lon="5.87056">
        <ele>495</ele>
        <time>2018-01-07T10:02:47Z</time>
      </trkpt>
      <trkpt lat="43.56951" lon="5.87029">
        <ele>495</ele>
        <time>2018-01-07T10:02:52Z</time>
      </trkpt>
      <trkpt lat="43.56948" lon="5.87004">
        <ele>495</ele>
        <time>2018-01-07T10:03:00Z</time>
      </trkpt>
      <trkpt lat="43.56947" lon="5.86978">
        <ele>493</ele>
        <time>2018-01-07T10:03:08Z</time>
      </trkpt>
      <trkpt lat="43.56944" lon="5.86952">
        <ele>493</ele>
        <time>2018-01-07T10:03:14Z</time>
      </trkpt>
      <trkpt lat="43.56941" lon="5.86922">
        <ele>493</ele>
        <time>2018-01-07T10:03:19Z</time>
      </trkpt>
      <trkpt lat="43.56937" lon="5.86897">
        <ele>490</ele>
        <time>2018-01-07T10:03:23Z</time>
      </trkpt>
      <trkpt lat="43.56933" lon="5.86871">
        <ele>489</ele>
        <time>2018-01-07T10:03:27Z</time>
      </trkpt>
      <trkpt lat="43.56927" lon="5.86844">
        <ele>488</ele>
        <time>2018-01-07T10:03:31Z</time>
      </trkpt>
      <trkpt lat="43.56924" lon="5.86818">
        <ele>486</ele>
        <time>2018-01-07T10:03:35Z</time>
      </trkpt>
      <trkpt lat="43.56921" lon="5.86791">
        <ele>485</ele>
        <time>2018-01-07T10:03:39Z</time>
      </trkpt>
      <trkpt lat="43.56918" lon="5.86763">
        <ele>484</ele>
        <time>2018-01-07T10:03:44Z</time>
      </trkpt>
      <trkpt lat="43.56916" lon="5.86732">
        <ele>481</ele>
        <time>2018-01-07T10:03:49Z</time>
      </trkpt>
      <trkpt lat="43.56915" lon="5.86701">
        <ele>481</ele>
        <time>2018-01-07T10:03:54Z</time>
      </trkpt>
      <trkpt lat="43.56917" lon="5.86676">
        <ele>481</ele>
        <time>2018-01-07T10:03:58Z</time>
      </trkpt>
      <trkpt lat="43.56922" lon="5.86647">
        <ele>481</ele>
        <time>2018-01-07T10:04:03Z</time>
      </trkpt>
      <trkpt lat="43.56922" lon="5.86618">
        <ele>481</ele>
        <time>2018-01-07T10:04:08Z</time>
      </trkpt>
      <trkpt lat="43.56912" lon="5.86597">
        <ele>480</ele>
        <time>2018-01-07T10:04:13Z</time>
      </trkpt>
      <trkpt lat="43.56894" lon="5.8659">
        <ele>480</ele>
        <time>2018-01-07T10:04:26Z</time>
      </trkpt>
      <trkpt lat="43.56882" lon="5.86576">
        <ele>481</ele>
        <time>2018-01-07T10:16:16Z</time>
      </trkpt>
      <trkpt lat="43.56872" lon="5.86553">
        <ele>481</ele>
        <time>2018-01-07T10:16:22Z</time>
      </trkpt>
      <trkpt lat="43.56855" lon="5.86537">
        <ele>481</ele>
        <time>2018-01-07T10:16:28Z</time>
      </trkpt>
      <trkpt lat="43.5684" lon="5.86518">
        <ele>481</ele>
        <time>2018-01-07T10:16:35Z</time>
      </trkpt>
      <trkpt lat="43.56844" lon="5.86492">
        <ele>482</ele>
        <time>2018-01-07T10:16:41Z</time>
      </trkpt>
      <trkpt lat="43.56851" lon="5.86468">
        <ele>482</ele>
        <time>2018-01-07T10:16:47Z</time>
      </trkpt>
      <trkpt lat="43.56858" lon="5.86443">
        <ele>482</ele>
        <time>2018-01-07T10:16:53Z</time>
      </trkpt>
      <trkpt lat="43.56856" lon="5.86416">
        <ele>482</ele>
        <time>2018-01-07T10:17:01Z</time>
      </trkpt>
      <trkpt lat="43.56852" lon="5.8639">
        <ele>482</ele>
        <time>2018-01-07T10:17:08Z</time>
      </trkpt>
      <trkpt lat="43.56855" lon="5.86365">
        <ele>483</ele>
        <time>2018-01-07T10:17:14Z</time>
      </trkpt>
      <trkpt lat="43.56855" lon="5.86336">
        <ele>482</ele>
        <time>2018-01-07T10:17:20Z</time>
      </trkpt>
      <trkpt lat="43.56853" lon="5.86309">
        <ele>483</ele>
        <time>2018-01-07T10:17:27Z</time>
      </trkpt>
      <trkpt lat="43.56853" lon="5.86281">
        <ele>483</ele>
        <time>2018-01-07T10:17:34Z</time>
      </trkpt>
      <trkpt lat="43.56855" lon="5.86253">
        <ele>483</ele>
        <time>2018-01-07T10:17:41Z</time>
      </trkpt>
      <trkpt lat="43.56854" lon="5.86227">
        <ele>484</ele>
        <time>2018-01-07T10:17:47Z</time>
      </trkpt>
      <trkpt lat="43.56855" lon="5.86198">
        <ele>484</ele>
        <time>2018-01-07T10:17:54Z</time>
      </trkpt>
      <trkpt lat="43.56846" lon="5.86175">
        <ele>484</ele>
        <time>2018-01-07T10:18:03Z</time>
      </trkpt>
      <trkpt lat="43.56827" lon="5.86187">
        <ele>484</ele>
        <time>2018-01-07T10:18:11Z</time>
      </trkpt>
      <trkpt lat="43.56809" lon="5.86187">
        <ele>484</ele>
        <time>2018-01-07T10:18:18Z</time>
      </trkpt>
      <trkpt lat="43.5679" lon="5.86186">
        <ele>484</ele>
        <time>2018-01-07T10:18:26Z</time>
      </trkpt>
      <trkpt lat="43.56769" lon="5.86187">
        <ele>484</ele>
        <time>2018-01-07T10:18:33Z</time>
      </trkpt>
      <trkpt lat="43.56749" lon="5.86183">
        <ele>485</ele>
        <time>2018-01-07T10:18:39Z</time>
      </trkpt>
      <trkpt lat="43.56731" lon="5.86176">
        <ele>485</ele>
        <time>2018-01-07T10:18:45Z</time>
      </trkpt>
      <trkpt lat="43.56711" lon="5.86173">
        <ele>486</ele>
        <time>2018-01-07T10:18:52Z</time>
      </trkpt>
      <trkpt lat="43.56693" lon="5.86166">
        <ele>485</ele>
        <time>2018-01-07T10:18:59Z</time>
      </trkpt>
      <trkpt lat="43.56674" lon="5.86159">
        <ele>486</ele>
        <time>2018-01-07T10:19:06Z</time>
      </trkpt>
      <trkpt lat="43.56655" lon="5.86161">
        <ele>488</ele>
        <time>2018-01-07T10:19:12Z</time>
      </trkpt>
      <trkpt lat="43.56635" lon="5.86168">
        <ele>489</ele>
        <time>2018-01-07T10:19:19Z</time>
      </trkpt>
      <trkpt lat="43.56615" lon="5.86175">
        <ele>489</ele>
        <time>2018-01-07T10:19:26Z</time>
      </trkpt>
      <trkpt lat="43.56597" lon="5.86182">
        <ele>490</ele>
        <time>2018-01-07T10:19:34Z</time>
      </trkpt>
      <trkpt lat="43.56578" lon="5.86188">
        <ele>490</ele>
        <time>2018-01-07T10:19:44Z</time>
      </trkpt>
      <trkpt lat="43.56561" lon="5.862">
        <ele>490</ele>
        <time>2018-01-07T10:19:52Z</time>
      </trkpt>
      <trkpt lat="43.56544" lon="5.86214">
        <ele>490</ele>
        <time>2018-01-07T10:20:00Z</time>
      </trkpt>
      <trkpt lat="43.56528" lon="5.86227">
        <ele>490</ele>
        <time>2018-01-07T10:20:07Z</time>
      </trkpt>
      <trkpt lat="43.56511" lon="5.86241">
        <ele>490</ele>
        <time>2018-01-07T10:20:15Z</time>
      </trkpt>
      <trkpt lat="43.56482" lon="5.86258">
        <ele>489</ele>
        <time>2018-01-07T10:24:49Z</time>
      </trkpt>
      <trkpt lat="43.56464" lon="5.8627">
        <ele>489</ele>
        <time>2018-01-07T10:24:56Z</time>
      </trkpt>
      <trkpt lat="43.56444" lon="5.86278">
        <ele>489</ele>
        <time>2018-01-07T10:25:02Z</time>
      </trkpt>
      <trkpt lat="43.56424" lon="5.86281">
        <ele>488</ele>
        <time>2018-01-07T10:25:07Z</time>
      </trkpt>
      <trkpt lat="43.56402" lon="5.86288">
        <ele>485</ele>
        <time>2018-01-07T10:25:12Z</time>
      </trkpt>
      <trkpt lat="43.56384" lon="5.86286">
        <ele>485</ele>
        <time>2018-01-07T10:25:17Z</time>
      </trkpt>
      <trkpt lat="43.56362" lon="5.86288">
        <ele>484</ele>
        <time>2018-01-07T10:25:22Z</time>
      </trkpt>
      <trkpt lat="43.56342" lon="5.86293">
        <ele>483</ele>
        <time>2018-01-07T10:25:26Z</time>
      </trkpt>
      <trkpt lat="43.56323" lon="5.86292">
        <ele>480</ele>
        <time>2018-01-07T10:25:30Z</time>
      </trkpt>
      <trkpt lat="43.56304" lon="5.86291">
        <ele>480</ele>
        <time>2018-01-07T10:25:34Z</time>
      </trkpt>
      <trkpt lat="43.56285" lon="5.86284">
        <ele>480</ele>
        <time>2018-01-07T10:25:40Z</time>
      </trkpt>
      <trkpt lat="43.56266" lon="5.86285">
        <ele>480</ele>
        <time>2018-01-07T10:26:26Z</time>
      </trkpt>
      <trkpt lat="43.56248" lon="5.8629">
        <ele>477</ele>
        <time>2018-01-07T10:27:10Z</time>
      </trkpt>
      <trkpt lat="43.56229" lon="5.86288">
        <ele>477</ele>
        <time>2018-01-07T10:27:23Z</time>
      </trkpt>
      <trkpt lat="43.5621" lon="5.86291">
        <ele>477</ele>
        <time>2018-01-07T10:27:36Z</time>
      </trkpt>
      <trkpt lat="43.56191" lon="5.86297">
        <ele>476</ele>
        <time>2018-01-07T10:27:45Z</time>
      </trkpt>
      <trkpt lat="43.56173" lon="5.86303">
        <ele>476</ele>
        <time>2018-01-07T10:27:53Z</time>
      </trkpt>
      <trkpt lat="43.56155" lon="5.86309">
        <ele>472</ele>
        <time>2018-01-07T10:27:59Z</time>
      </trkpt>
      <trkpt lat="43.56135" lon="5.86316">
        <ele>471</ele>
        <time>2018-01-07T10:28:04Z</time>
      </trkpt>
      <trkpt lat="43.56117" lon="5.86316">
        <ele>469</ele>
        <time>2018-01-07T10:28:09Z</time>
      </trkpt>
      <trkpt lat="43.56097" lon="5.86313">
        <ele>468</ele>
        <time>2018-01-07T10:28:13Z</time>
      </trkpt>
      <trkpt lat="43.56076" lon="5.86305">
        <ele>461</ele>
        <time>2018-01-07T10:28:17Z</time>
      </trkpt>
      <trkpt lat="43.56053" lon="5.86297">
        <ele>459</ele>
        <time>2018-01-07T10:28:21Z</time>
      </trkpt>
      <trkpt lat="43.56032" lon="5.86285">
        <ele>457</ele>
        <time>2018-01-07T10:28:24Z</time>
      </trkpt>
      <trkpt lat="43.56011" lon="5.86277">
        <ele>456</ele>
        <time>2018-01-07T10:28:27Z</time>
      </trkpt>
      <trkpt lat="43.55993" lon="5.86271">
        <ele>451</ele>
        <time>2018-01-07T10:28:30Z</time>
      </trkpt>
      <trkpt lat="43.55973" lon="5.86263">
        <ele>451</ele>
        <time>2018-01-07T10:28:34Z</time>
      </trkpt>
      <trkpt lat="43.55953" lon="5.86257">
        <ele>450</ele>
        <time>2018-01-07T10:28:38Z</time>
      </trkpt>
      <trkpt lat="43.55935" lon="5.8625">
        <ele>449</ele>
        <time>2018-01-07T10:28:42Z</time>
      </trkpt>
      <trkpt lat="43.55918" lon="5.86258">
        <ele>448</ele>
        <time>2018-01-07T10:29:16Z</time>
      </trkpt>
      <trkpt lat="43.55909" lon="5.86281">
        <ele>450</ele>
        <time>2018-01-07T10:29:25Z</time>
      </trkpt>
      <trkpt lat="43.55907" lon="5.86306">
        <ele>450</ele>
        <time>2018-01-07T10:29:34Z</time>
      </trkpt>
      <trkpt lat="43.5591" lon="5.86331">
        <ele>448</ele>
        <time>2018-01-07T10:29:41Z</time>
      </trkpt>
      <trkpt lat="43.55915" lon="5.86357">
        <ele>451</ele>
        <time>2018-01-07T10:29:47Z</time>
      </trkpt>
      <trkpt lat="43.55925" lon="5.8638">
        <ele>448</ele>
        <time>2018-01-07T10:29:52Z</time>
      </trkpt>
      <trkpt lat="43.55938" lon="5.86401">
        <ele>447</ele>
        <time>2018-01-07T10:29:58Z</time>
      </trkpt>
      <trkpt lat="43.5595" lon="5.86423">
        <ele>448</ele>
        <time>2018-01-07T10:30:04Z</time>
      </trkpt>
      <trkpt lat="43.55965" lon="5.86438">
        <ele>448</ele>
        <time>2018-01-07T10:30:09Z</time>
      </trkpt>
      <trkpt lat="43.55984" lon="5.86452">
        <ele>448</ele>
        <time>2018-01-07T10:30:14Z</time>
      </trkpt>
      <trkpt lat="43.56002" lon="5.86464">
        <ele>449</ele>
        <time>2018-01-07T10:30:19Z</time>
      </trkpt>
      <trkpt lat="43.56022" lon="5.86472">
        <ele>449</ele>
        <time>2018-01-07T10:30:24Z</time>
      </trkpt>
      <trkpt lat="43.56037" lon="5.86488">
        <ele>450</ele>
        <time>2018-01-07T10:30:30Z</time>
      </trkpt>
      <trkpt lat="43.5604" lon="5.86512">
        <ele>447</ele>
        <time>2018-01-07T10:30:36Z</time>
      </trkpt>
      <trkpt lat="43.56056" lon="5.86528">
        <ele>447</ele>
        <time>2018-01-07T10:30:44Z</time>
      </trkpt>
      <trkpt lat="43.56072" lon="5.86545">
        <ele>446</ele>
        <time>2018-01-07T10:30:52Z</time>
      </trkpt>
      <trkpt lat="43.56084" lon="5.86569">
        <ele>449</ele>
        <time>2018-01-07T10:30:59Z</time>
      </trkpt>
      <trkpt lat="43.56089" lon="5.86594">
        <ele>448</ele>
        <time>2018-01-07T10:31:04Z</time>
      </trkpt>
      <trkpt lat="43.56085" lon="5.86621">
        <ele>451</ele>
        <time>2018-01-07T10:31:09Z</time>
      </trkpt>
      <trkpt lat="43.56065" lon="5.86628">
        <ele>444</ele>
        <time>2018-01-07T10:31:14Z</time>
      </trkpt>
      <trkpt lat="43.56044" lon="5.86622">
        <ele>444</ele>
        <time>2018-01-07T10:31:19Z</time>
      </trkpt>
      <trkpt lat="43.56024" lon="5.86626">
        <ele>444</ele>
        <time>2018-01-07T10:31:24Z</time>
      </trkpt>
      <trkpt lat="43.56003" lon="5.8662">
        <ele>444</ele>
        <time>2018-01-07T10:31:30Z</time>
      </trkpt>
      <trkpt lat="43.55985" lon="5.86616">
        <ele>443</ele>
        <time>2018-01-07T10:31:37Z</time>
      </trkpt>
      <trkpt lat="43.55969" lon="5.86634">
        <ele>443</ele>
        <time>2018-01-07T10:31:43Z</time>
      </trkpt>
      <trkpt lat="43.55952" lon="5.86643">
        <ele>442</ele>
        <time>2018-01-07T10:31:48Z</time>
      </trkpt>
      <trkpt lat="43.55936" lon="5.86654">
        <ele>441</ele>
        <time>2018-01-07T10:31:52Z</time>
      </trkpt>
      <trkpt lat="43.55919" lon="5.86664">
        <ele>438</ele>
        <time>2018-01-07T10:31:57Z</time>
      </trkpt>
      <trkpt lat="43.559" lon="5.8667">
        <ele>438</ele>
        <time>2018-01-07T10:32:02Z</time>
      </trkpt>
      <trkpt lat="43.55883" lon="5.86686">
        <ele>438</ele>
        <time>2018-01-07T10:32:08Z</time>
      </trkpt>
      <trkpt lat="43.55872" lon="5.86707">
        <ele>438</ele>
        <time>2018-01-07T10:32:15Z</time>
      </trkpt>
      <trkpt lat="43.55858" lon="5.86724">
        <ele>438</ele>
        <time>2018-01-07T10:32:21Z</time>
      </trkpt>
      <trkpt lat="43.55839" lon="5.86727">
        <ele>437</ele>
        <time>2018-01-07T10:32:27Z</time>
      </trkpt>
      <trkpt lat="43.5582" lon="5.86732">
        <ele>440</ele>
        <time>2018-01-07T10:32:33Z</time>
      </trkpt>
      <trkpt lat="43.55799" lon="5.8674">
        <ele>441</ele>
        <time>2018-01-07T10:32:40Z</time>
      </trkpt>
      <trkpt lat="43.55787" lon="5.86765">
        <ele>439</ele>
        <time>2018-01-07T10:32:46Z</time>
      </trkpt>
      <trkpt lat="43.55776" lon="5.86787">
        <ele>439</ele>
        <time>2018-01-07T10:32:51Z</time>
      </trkpt>
      <trkpt lat="43.55765" lon="5.86812">
        <ele>438</ele>
        <time>2018-01-07T10:32:56Z</time>
      </trkpt>
      <trkpt lat="43.55756" lon="5.86838">
        <ele>436</ele>
        <time>2018-01-07T10:33:01Z</time>
      </trkpt>
      <trkpt lat="43.55752" lon="5.86865">
        <ele>437</ele>
        <time>2018-01-07T10:33:06Z</time>
      </trkpt>
      <trkpt lat="43.55749" lon="5.86892">
        <ele>437</ele>
        <time>2018-01-07T10:33:11Z</time>
      </trkpt>
      <trkpt lat="43.55747" lon="5.86918">
        <ele>433</ele>
        <time>2018-01-07T10:33:16Z</time>
      </trkpt>
      <trkpt lat="43.55747" lon="5.86948">
        <ele>436</ele>
        <time>2018-01-07T10:33:21Z</time>
      </trkpt>
      <trkpt lat="43.55748" lon="5.86977">
        <ele>435</ele>
        <time>2018-01-07T10:33:26Z</time>
      </trkpt>
      <trkpt lat="43.55755" lon="5.87004">
        <ele>432</ele>
        <time>2018-01-07T10:33:31Z</time>
      </trkpt>
      <trkpt lat="43.55764" lon="5.87028">
        <ele>434</ele>
        <time>2018-01-07T10:33:36Z</time>
      </trkpt>
      <trkpt lat="43.55781" lon="5.87044">
        <ele>435</ele>
        <time>2018-01-07T10:33:42Z</time>
      </trkpt>
      <trkpt lat="43.55793" lon="5.87065">
        <ele>436</ele>
        <time>2018-01-07T10:33:48Z</time>
      </trkpt>
      <trkpt lat="43.55809" lon="5.87081">
        <ele>437</ele>
        <time>2018-01-07T10:33:53Z</time>
      </trkpt>
      <trkpt lat="43.55821" lon="5.87101">
        <ele>436</ele>
        <time>2018-01-07T10:33:58Z</time>
      </trkpt>
      <trkpt lat="43.55824" lon="5.87128">
        <ele>436</ele>
        <time>2018-01-07T10:34:04Z</time>
      </trkpt>
      <trkpt lat="43.55807" lon="5.87145">
        <ele>436</ele>
        <time>2018-01-07T10:34:09Z</time>
      </trkpt>
      <trkpt lat="43.55788" lon="5.87144">
        <ele>435</ele>
        <time>2018-01-07T10:34:16Z</time>
      </trkpt>
      <trkpt lat="43.55782" lon="5.87121">
        <ele>435</ele>
        <time>2018-01-07T10:40:17Z</time>
      </trkpt>
      <trkpt lat="43.55769" lon="5.87103">
        <ele>434</ele>
        <time>2018-01-07T10:40:30Z</time>
      </trkpt>
      <trkpt lat="43.55754" lon="5.87089">
        <ele>433</ele>
        <time>2018-01-07T10:40:44Z</time>
      </trkpt>
      <trkpt lat="43.55738" lon="5.87074">
        <ele>433</ele>
        <time>2018-01-07T10:40:56Z</time>
      </trkpt>
      <trkpt lat="43.55729" lon="5.87051">
        <ele>434</ele>
        <time>2018-01-07T10:41:10Z</time>
      </trkpt>
      <trkpt lat="43.55717" lon="5.8703">
        <ele>435</ele>
        <time>2018-01-07T10:41:24Z</time>
      </trkpt>
      <trkpt lat="43.55706" lon="5.87009">
        <ele>436</ele>
        <time>2018-01-07T10:41:38Z</time>
      </trkpt>
      <trkpt lat="43.55696" lon="5.86989">
        <ele>439</ele>
        <time>2018-01-07T10:41:51Z</time>
      </trkpt>
      <trkpt lat="43.55684" lon="5.86969">
        <ele>440</ele>
        <time>2018-01-07T10:42:05Z</time>
      </trkpt>
      <trkpt lat="43.55672" lon="5.86948">
        <ele>441</ele>
        <time>2018-01-07T10:42:20Z</time>
      </trkpt>
      <trkpt lat="43.55662" lon="5.86927">
        <ele>446</ele>
        <time>2018-01-07T10:42:35Z</time>
      </trkpt>
      <trkpt lat="43.55652" lon="5.86905">
        <ele>450</ele>
        <time>2018-01-07T10:42:50Z</time>
      </trkpt>
      <trkpt lat="43.5565" lon="5.8688">
        <ele>452</ele>
        <time>2018-01-07T10:43:05Z</time>
      </trkpt>
      <trkpt lat="43.5565" lon="5.86853">
        <ele>453</ele>
        <time>2018-01-07T10:43:20Z</time>
      </trkpt>
      <trkpt lat="43.55645" lon="5.86829">
        <ele>458</ele>
        <time>2018-01-07T10:43:34Z</time>
      </trkpt>
      <trkpt lat="43.5564" lon="5.86804">
        <ele>460</ele>
        <time>2018-01-07T10:43:50Z</time>
      </trkpt>
      <trkpt lat="43.55628" lon="5.86786">
        <ele>462</ele>
        <time>2018-01-07T10:44:16Z</time>
      </trkpt>
      <trkpt lat="43.55622" lon="5.86762">
        <ele>464</ele>
        <time>2018-01-07T10:44:34Z</time>
      </trkpt>
      <trkpt lat="43.55609" lon="5.86742">
        <ele>471</ele>
        <time>2018-01-07T10:44:53Z</time>
      </trkpt>
      <trkpt lat="43.55594" lon="5.86728">
        <ele>472</ele>
        <time>2018-01-07T10:45:06Z</time>
      </trkpt>
      <trkpt lat="43.55582" lon="5.86707">
        <ele>476</ele>
        <time>2018-01-07T10:45:20Z</time>
      </trkpt>
      <trkpt lat="43.55564" lon="5.867">
        <ele>477</ele>
        <time>2018-01-07T10:45:32Z</time>
      </trkpt>
      <trkpt lat="43.55549" lon="5.86684">
        <ele>477</ele>
        <time>2018-01-07T10:45:44Z</time>
      </trkpt>
      <trkpt lat="43.55535" lon="5.86667">
        <ele>478</ele>
        <time>2018-01-07T10:45:56Z</time>
      </trkpt>
      <trkpt lat="43.55518" lon="5.86656">
        <ele>479</ele>
        <time>2018-01-07T10:46:09Z</time>
      </trkpt>
      <trkpt lat="43.55532" lon="5.86637">
        <ele>479</ele>
        <time>2018-01-07T10:48:41Z</time>
      </trkpt>
      <trkpt lat="43.5555" lon="5.86629">
        <ele>479</ele>
        <time>2018-01-07T10:48:50Z</time>
      </trkpt>
      <trkpt lat="43.55559" lon="5.86607">
        <ele>479</ele>
        <time>2018-01-07T10:49:01Z</time>
      </trkpt>
      <trkpt lat="43.55544" lon="5.86593">
        <ele>479</ele>
        <time>2018-01-07T10:49:09Z</time>
      </trkpt>
      <trkpt lat="43.55527" lon="5.86579">
        <ele>477</ele>
        <time>2018-01-07T10:49:16Z</time>
      </trkpt>
      <trkpt lat="43.55508" lon="5.86566">
        <ele>477</ele>
        <time>2018-01-07T10:49:22Z</time>
      </trkpt>
      <trkpt lat="43.55488" lon="5.86573">
        <ele>477</ele>
        <time>2018-01-07T10:49:27Z</time>
      </trkpt>
      <trkpt lat="43.5547" lon="5.86561">
        <ele>476</ele>
        <time>2018-01-07T10:49:32Z</time>
      </trkpt>
      <trkpt lat="43.55453" lon="5.8655">
        <ele>476</ele>
        <time>2018-01-07T10:50:03Z</time>
      </trkpt>
      <trkpt lat="43.55445" lon="5.86528">
        <ele>476</ele>
        <time>2018-01-07T10:50:11Z</time>
      </trkpt>
      <trkpt lat="43.55443" lon="5.86501">
        <ele>476</ele>
        <time>2018-01-07T10:50:19Z</time>
      </trkpt>
      <trkpt lat="43.55431" lon="5.86481">
        <ele>476</ele>
        <time>2018-01-07T10:50:27Z</time>
      </trkpt>
      <trkpt lat="43.55418" lon="5.86463">
        <ele>476</ele>
        <time>2018-01-07T10:50:36Z</time>
      </trkpt>
      <trkpt lat="43.55406" lon="5.86443">
        <ele>477</ele>
        <time>2018-01-07T10:50:45Z</time>
      </trkpt>
      <trkpt lat="43.55393" lon="5.86424">
        <ele>477</ele>
        <time>2018-01-07T10:50:55Z</time>
      </trkpt>
      <trkpt lat="43.55384" lon="5.864">
        <ele>479</ele>
        <time>2018-01-07T10:51:04Z</time>
      </trkpt>
      <trkpt lat="43.55372" lon="5.86378">
        <ele>480</ele>
        <time>2018-01-07T10:51:13Z</time>
      </trkpt>
      <trkpt lat="43.55359" lon="5.86358">
        <ele>480</ele>
        <time>2018-01-07T10:51:21Z</time>
      </trkpt>
      <trkpt lat="43.55348" lon="5.86337">
        <ele>481</ele>
        <time>2018-01-07T10:51:29Z</time>
      </trkpt>
      <trkpt lat="43.5533" lon="5.86327">
        <ele>484</ele>
        <time>2018-01-07T10:51:37Z</time>
      </trkpt>
      <trkpt lat="43.55311" lon="5.86329">
        <ele>486</ele>
        <time>2018-01-07T10:51:45Z</time>
      </trkpt>
      <trkpt lat="43.55294" lon="5.86321">
        <ele>487</ele>
        <time>2018-01-07T10:51:55Z</time>
      </trkpt>
      <trkpt lat="43.55276" lon="5.86316">
        <ele>488</ele>
        <time>2018-01-07T10:52:06Z</time>
      </trkpt>
      <trkpt lat="43.55257" lon="5.86313">
        <ele>487</ele>
        <time>2018-01-07T10:52:19Z</time>
      </trkpt>
      <trkpt lat="43.55241" lon="5.863">
        <ele>491</ele>
        <time>2018-01-07T10:52:32Z</time>
      </trkpt>
      <trkpt lat="43.55228" lon="5.86282">
        <ele>493</ele>
        <time>2018-01-07T10:52:43Z</time>
      </trkpt>
      <trkpt lat="43.55216" lon="5.86263">
        <ele>494</ele>
        <time>2018-01-07T10:52:55Z</time>
      </trkpt>
      <trkpt lat="43.55203" lon="5.86243">
        <ele>500</ele>
        <time>2018-01-07T10:53:07Z</time>
      </trkpt>
      <trkpt lat="43.5519" lon="5.86225">
        <ele>501</ele>
        <time>2018-01-07T10:53:19Z</time>
      </trkpt>
      <trkpt lat="43.55178" lon="5.86206">
        <ele>502</ele>
        <time>2018-01-07T10:53:33Z</time>
      </trkpt>
      <trkpt lat="43.55165" lon="5.86187">
        <ele>506</ele>
        <time>2018-01-07T10:53:44Z</time>
      </trkpt>
      <trkpt lat="43.55148" lon="5.86177">
        <ele>507</ele>
        <time>2018-01-07T10:53:57Z</time>
      </trkpt>
      <trkpt lat="43.55138" lon="5.862">
        <ele>507</ele>
        <time>2018-01-07T10:54:07Z</time>
      </trkpt>
      <trkpt lat="43.55131" lon="5.86224">
        <ele>506</ele>
        <time>2018-01-07T10:54:16Z</time>
      </trkpt>
      <trkpt lat="43.55127" lon="5.86249">
        <ele>505</ele>
        <time>2018-01-07T10:54:26Z</time>
      </trkpt>
      <trkpt lat="43.55122" lon="5.86274">
        <ele>500</ele>
        <time>2018-01-07T10:54:35Z</time>
      </trkpt>
      <trkpt lat="43.55105" lon="5.86288">
        <ele>501</ele>
        <time>2018-01-07T10:54:46Z</time>
      </trkpt>
      <trkpt lat="43.55089" lon="5.86299">
        <ele>501</ele>
        <time>2018-01-07T10:54:56Z</time>
      </trkpt>
      <trkpt lat="43.55073" lon="5.86313">
        <ele>505</ele>
        <time>2018-01-07T10:55:06Z</time>
      </trkpt>
      <trkpt lat="43.55056" lon="5.86328">
        <ele>505</ele>
        <time>2018-01-07T10:55:16Z</time>
      </trkpt>
      <trkpt lat="43.55051" lon="5.86304">
        <ele>507</ele>
        <time>2018-01-07T10:55:38Z</time>
      </trkpt>
      <trkpt lat="43.55062" lon="5.8628">
        <ele>508</ele>
        <time>2018-01-07T10:55:48Z</time>
      </trkpt>
      <trkpt lat="43.55071" lon="5.86256">
        <ele>508</ele>
        <time>2018-01-07T10:55:57Z</time>
      </trkpt>
      <trkpt lat="43.55077" lon="5.86233">
        <ele>511</ele>
        <time>2018-01-07T10:56:06Z</time>
      </trkpt>
      <trkpt lat="43.55084" lon="5.86208">
        <ele>509</ele>
        <time>2018-01-07T10:56:15Z</time>
      </trkpt>
      <trkpt lat="43.5509" lon="5.86182">
        <ele>511</ele>
        <time>2018-01-07T10:56:25Z</time>
      </trkpt>
      <trkpt lat="43.55085" lon="5.86158">
        <ele>514</ele>
        <time>2018-01-07T10:56:36Z</time>
      </trkpt>
      <trkpt lat="43.55079" lon="5.86134">
        <ele>516</ele>
        <time>2018-01-07T10:56:48Z</time>
      </trkpt>
      <trkpt lat="43.5508" lon="5.86108">
        <ele>517</ele>
        <time>2018-01-07T10:57:00Z</time>
      </trkpt>
      <trkpt lat="43.5508" lon="5.86082">
        <ele>518</ele>
        <time>2018-01-07T10:57:12Z</time>
      </trkpt>
      <trkpt lat="43.55077" lon="5.86056">
        <ele>519</ele>
        <time>2018-01-07T10:57:25Z</time>
      </trkpt>
      <trkpt lat="43.5507" lon="5.86032">
        <ele>520</ele>
        <time>2018-01-07T10:57:38Z</time>
      </trkpt>
      <trkpt lat="43.55078" lon="5.8601">
        <ele>521</ele>
        <time>2018-01-07T10:59:03Z</time>
      </trkpt>
      <trkpt lat="43.55088" lon="5.85987">
        <ele>523</ele>
        <time>2018-01-07T10:59:13Z</time>
      </trkpt>
      <trkpt lat="43.55092" lon="5.8596">
        <ele>523</ele>
        <time>2018-01-07T10:59:23Z</time>
      </trkpt>
      <trkpt lat="43.55102" lon="5.85939">
        <ele>524</ele>
        <time>2018-01-07T10:59:32Z</time>
      </trkpt>
      <trkpt lat="43.55105" lon="5.85912">
        <ele>525</ele>
        <time>2018-01-07T10:59:41Z</time>
      </trkpt>
      <trkpt lat="43.55106" lon="5.85886">
        <ele>526</ele>
        <time>2018-01-07T10:59:49Z</time>
      </trkpt>
      <trkpt lat="43.55109" lon="5.8586">
        <ele>526</ele>
        <time>2018-01-07T10:59:57Z</time>
      </trkpt>
      <trkpt lat="43.55121" lon="5.85842">
        <ele>526</ele>
        <time>2018-01-07T11:00:05Z</time>
      </trkpt>
      <trkpt lat="43.55131" lon="5.85817">
        <ele>527</ele>
        <time>2018-01-07T11:00:13Z</time>
      </trkpt>
      <trkpt lat="43.55141" lon="5.85796">
        <ele>527</ele>
        <time>2018-01-07T11:00:20Z</time>
      </trkpt>
      <trkpt lat="43.55154" lon="5.85776">
        <ele>528</ele>
        <time>2018-01-07T11:00:28Z</time>
      </trkpt>
      <trkpt lat="43.55163" lon="5.85751">
        <ele>530</ele>
        <time>2018-01-07T11:00:36Z</time>
      </trkpt>
      <trkpt lat="43.55173" lon="5.85729">
        <ele>530</ele>
        <time>2018-01-07T11:00:43Z</time>
      </trkpt>
      <trkpt lat="43.55182" lon="5.85706">
        <ele>530</ele>
        <time>2018-01-07T11:00:50Z</time>
      </trkpt>
      <trkpt lat="43.55189" lon="5.85681">
        <ele>530</ele>
        <time>2018-01-07T11:00:57Z</time>
      </trkpt>
      <trkpt lat="43.55199" lon="5.85656">
        <ele>528</ele>
        <time>2018-01-07T11:01:04Z</time>
      </trkpt>
      <trkpt lat="43.55207" lon="5.85631">
        <ele>528</ele>
        <time>2018-01-07T11:01:11Z</time>
      </trkpt>
      <trkpt lat="43.55209" lon="5.85606">
        <ele>528</ele>
        <time>2018-01-07T11:01:18Z</time>
      </trkpt>
      <trkpt lat="43.5522" lon="5.85584">
        <ele>528</ele>
        <time>2018-01-07T11:01:24Z</time>
      </trkpt>
      <trkpt lat="43.55232" lon="5.85563">
        <ele>527</ele>
        <time>2018-01-07T11:01:30Z</time>
      </trkpt>
      <trkpt lat="43.55242" lon="5.85542">
        <ele>526</ele>
        <time>2018-01-07T11:01:35Z</time>
      </trkpt>
      <trkpt lat="43.55246" lon="5.85514">
        <ele>526</ele>
        <time>2018-01-07T11:01:40Z</time>
      </trkpt>
      <trkpt lat="43.55248" lon="5.85488">
        <ele>525</ele>
        <time>2018-01-07T11:01:44Z</time>
      </trkpt>
      <trkpt lat="43.55252" lon="5.85463">
        <ele>528</ele>
        <time>2018-01-07T11:01:48Z</time>
      </trkpt>
      <trkpt lat="43.55257" lon="5.85437">
        <ele>527</ele>
        <time>2018-01-07T11:01:53Z</time>
      </trkpt>
      <trkpt lat="43.55268" lon="5.85414">
        <ele>526</ele>
        <time>2018-01-07T11:02:00Z</time>
      </trkpt>
      <trkpt lat="43.55276" lon="5.85388">
        <ele>527</ele>
        <time>2018-01-07T11:02:08Z</time>
      </trkpt>
      <trkpt lat="43.55276" lon="5.85362">
        <ele>526</ele>
        <time>2018-01-07T11:02:15Z</time>
      </trkpt>
      <trkpt lat="43.55284" lon="5.85335">
        <ele>526</ele>
        <time>2018-01-07T11:02:22Z</time>
      </trkpt>
      <trkpt lat="43.55277" lon="5.85311">
        <ele>524</ele>
        <time>2018-01-07T11:02:27Z</time>
      </trkpt>
      <trkpt lat="43.55268" lon="5.85284">
        <ele>523</ele>
        <time>2018-01-07T11:02:32Z</time>
      </trkpt>
      <trkpt lat="43.55256" lon="5.85263">
        <ele>522</ele>
        <time>2018-01-07T11:02:36Z</time>
      </trkpt>
      <trkpt lat="43.55251" lon="5.85238">
        <ele>521</ele>
        <time>2018-01-07T11:02:40Z</time>
      </trkpt>
      <trkpt lat="43.55252" lon="5.85212">
        <ele>521</ele>
        <time>2018-01-07T11:02:44Z</time>
      </trkpt>
      <trkpt lat="43.5526" lon="5.85189">
        <ele>520</ele>
        <time>2018-01-07T11:02:49Z</time>
      </trkpt>
      <trkpt lat="43.55272" lon="5.85167">
        <ele>520</ele>
        <time>2018-01-07T11:02:54Z</time>
      </trkpt>
      <trkpt lat="43.5528" lon="5.85142">
        <ele>519</ele>
        <time>2018-01-07T11:02:59Z</time>
      </trkpt>
      <trkpt lat="43.55274" lon="5.85114">
        <ele>519</ele>
        <time>2018-01-07T11:03:04Z</time>
      </trkpt>
      <trkpt lat="43.55266" lon="5.85091">
        <ele>519</ele>
        <time>2018-01-07T11:03:08Z</time>
      </trkpt>
      <trkpt lat="43.55267" lon="5.85066">
        <ele>518</ele>
        <time>2018-01-07T11:03:12Z</time>
      </trkpt>
      <trkpt lat="43.55266" lon="5.8504">
        <ele>517</ele>
        <time>2018-01-07T11:03:16Z</time>
      </trkpt>
      <trkpt lat="43.55263" lon="5.85015">
        <ele>517</ele>
        <time>2018-01-07T11:03:20Z</time>
      </trkpt>
      <trkpt lat="43.55256" lon="5.84986">
        <ele>517</ele>
        <time>2018-01-07T11:03:25Z</time>
      </trkpt>
      <trkpt lat="43.55246" lon="5.84962">
        <ele>518</ele>
        <time>2018-01-07T11:03:30Z</time>
      </trkpt>
      <trkpt lat="43.55235" lon="5.84938">
        <ele>518</ele>
        <time>2018-01-07T11:03:36Z</time>
      </trkpt>
      <trkpt lat="43.55216" lon="5.84932">
        <ele>518</ele>
        <time>2018-01-07T11:03:43Z</time>
      </trkpt>
      <trkpt lat="43.55198" lon="5.84933">
        <ele>518</ele>
        <time>2018-01-07T11:03:49Z</time>
      </trkpt>
      <trkpt lat="43.55179" lon="5.84933">
        <ele>517</ele>
        <time>2018-01-07T11:03:55Z</time>
      </trkpt>
      <trkpt lat="43.55161" lon="5.84934">
        <ele>517</ele>
        <time>2018-01-07T11:04:01Z</time>
      </trkpt>
      <trkpt lat="43.55141" lon="5.84934">
        <ele>517</ele>
        <time>2018-01-07T11:04:07Z</time>
      </trkpt>
      <trkpt lat="43.55119" lon="5.84935">
        <ele>516</ele>
        <time>2018-01-07T11:04:13Z</time>
      </trkpt>
      <trkpt lat="43.55101" lon="5.84937">
        <ele>516</ele>
        <time>2018-01-07T11:04:17Z</time>
      </trkpt>
      <trkpt lat="43.5508" lon="5.84936">
        <ele>515</ele>
        <time>2018-01-07T11:04:22Z</time>
      </trkpt>
      <trkpt lat="43.55062" lon="5.84937">
        <ele>515</ele>
        <time>2018-01-07T11:04:26Z</time>
      </trkpt>
      <trkpt lat="43.5504" lon="5.84938">
        <ele>514</ele>
        <time>2018-01-07T11:04:31Z</time>
      </trkpt>
      <trkpt lat="43.55018" lon="5.84939">
        <ele>514</ele>
        <time>2018-01-07T11:04:36Z</time>
      </trkpt>
      <trkpt lat="43.55" lon="5.8494">
        <ele>512</ele>
        <time>2018-01-07T11:04:40Z</time>
      </trkpt>
      <trkpt lat="43.5498" lon="5.84941">
        <ele>511</ele>
        <time>2018-01-07T11:04:44Z</time>
      </trkpt>
      <trkpt lat="43.54961" lon="5.84941">
        <ele>511</ele>
        <time>2018-01-07T11:04:48Z</time>
      </trkpt>
      <trkpt lat="43.54942" lon="5.84942">
        <ele>511</ele>
        <time>2018-01-07T11:04:52Z</time>
      </trkpt>
      <trkpt lat="43.5492" lon="5.84943">
        <ele>510</ele>
        <time>2018-01-07T11:04:56Z</time>
      </trkpt>
      <trkpt lat="43.54898" lon="5.84943">
        <ele>509</ele>
        <time>2018-01-07T11:05:00Z</time>
      </trkpt>
      <trkpt lat="43.54877" lon="5.84944">
        <ele>508</ele>
        <time>2018-01-07T11:05:04Z</time>
      </trkpt>
      <trkpt lat="43.54856" lon="5.84945">
        <ele>508</ele>
        <time>2018-01-07T11:05:08Z</time>
      </trkpt>
      <trkpt lat="43.54834" lon="5.84946">
        <ele>508</ele>
        <time>2018-01-07T11:05:12Z</time>
      </trkpt>
      <trkpt lat="43.54811" lon="5.84947">
        <ele>508</ele>
        <time>2018-01-07T11:05:16Z</time>
      </trkpt>
      <trkpt lat="43.54789" lon="5.84948">
        <ele>509</ele>
        <time>2018-01-07T11:05:20Z</time>
      </trkpt>
      <trkpt lat="43.5477" lon="5.84948">
        <ele>509</ele>
        <time>2018-01-07T11:05:24Z</time>
      </trkpt>
      <trkpt lat="43.54748" lon="5.84949">
        <ele>509</ele>
        <time>2018-01-07T11:05:29Z</time>
      </trkpt>
      <trkpt lat="43.54725" lon="5.8495">
        <ele>509</ele>
        <time>2018-01-07T11:05:34Z</time>
      </trkpt>
      <trkpt lat="43.54707" lon="5.84951">
        <ele>508</ele>
        <time>2018-01-07T11:05:38Z</time>
      </trkpt>
      <trkpt lat="43.54688" lon="5.84951">
        <ele>508</ele>
        <time>2018-01-07T11:05:42Z</time>
      </trkpt>
      <trkpt lat="43.54668" lon="5.84952">
        <ele>508</ele>
        <time>2018-01-07T11:05:46Z</time>
      </trkpt>
      <trkpt lat="43.54647" lon="5.84952">
        <ele>507</ele>
        <time>2018-01-07T11:05:50Z</time>
      </trkpt>
      <trkpt lat="43.54625" lon="5.84953">
        <ele>507</ele>
        <time>2018-01-07T11:05:54Z</time>
      </trkpt>
      <trkpt lat="43.54604" lon="5.84954">
        <ele>508</ele>
        <time>2018-01-07T11:05:58Z</time>
      </trkpt>
      <trkpt lat="43.54585" lon="5.84954">
        <ele>508</ele>
        <time>2018-01-07T11:06:02Z</time>
      </trkpt>
      <trkpt lat="43.54565" lon="5.84956">
        <ele>509</ele>
        <time>2018-01-07T11:06:07Z</time>
      </trkpt>
      <trkpt lat="43.54546" lon="5.84957">
        <ele>509</ele>
        <time>2018-01-07T11:06:12Z</time>
      </trkpt>
      <trkpt lat="43.54525" lon="5.84958">
        <ele>509</ele>
        <time>2018-01-07T11:06:17Z</time>
      </trkpt>
      <trkpt lat="43.54503" lon="5.84958">
        <ele>509</ele>
        <time>2018-01-07T11:06:22Z</time>
      </trkpt>
      <trkpt lat="43.54482" lon="5.84959">
        <ele>510</ele>
        <time>2018-01-07T11:06:27Z</time>
      </trkpt>
      <trkpt lat="43.5446" lon="5.84961">
        <ele>510</ele>
        <time>2018-01-07T11:06:32Z</time>
      </trkpt>
      <trkpt lat="43.54438" lon="5.84961">
        <ele>510</ele>
        <time>2018-01-07T11:06:37Z</time>
      </trkpt>
      <trkpt lat="43.54416" lon="5.84962">
        <ele>510</ele>
        <time>2018-01-07T11:06:42Z</time>
      </trkpt>
      <trkpt lat="43.54397" lon="5.84963">
        <ele>510</ele>
        <time>2018-01-07T11:06:46Z</time>
      </trkpt>
      <trkpt lat="43.54378" lon="5.84964">
        <ele>510</ele>
        <time>2018-01-07T11:06:50Z</time>
      </trkpt>
      <trkpt lat="43.5436" lon="5.84965">
        <ele>510</ele>
        <time>2018-01-07T11:06:54Z</time>
      </trkpt>
      <trkpt lat="43.54341" lon="5.84966">
        <ele>510</ele>
        <time>2018-01-07T11:06:58Z</time>
      </trkpt>
      <trkpt lat="43.54322" lon="5.84968">
        <ele>510</ele>
        <time>2018-01-07T11:07:02Z</time>
      </trkpt>
      <trkpt lat="43.54301" lon="5.8497">
        <ele>510</ele>
        <time>2018-01-07T11:07:06Z</time>
      </trkpt>
      <trkpt lat="43.54281" lon="5.84971">
        <ele>510</ele>
        <time>2018-01-07T11:07:10Z</time>
      </trkpt>
      <trkpt lat="43.5426" lon="5.84972">
        <ele>510</ele>
        <time>2018-01-07T11:07:14Z</time>
      </trkpt>
      <trkpt lat="43.54239" lon="5.84973">
        <ele>510</ele>
        <time>2018-01-07T11:07:18Z</time>
      </trkpt>
      <trkpt lat="43.54218" lon="5.84975">
        <ele>510</ele>
        <time>2018-01-07T11:07:22Z</time>
      </trkpt>
      <trkpt lat="43.54199" lon="5.84976">
        <ele>510</ele>
        <time>2018-01-07T11:07:26Z</time>
      </trkpt>
      <trkpt lat="43.54181" lon="5.84977">
        <ele>510</ele>
        <time>2018-01-07T11:07:30Z</time>
      </trkpt>
      <trkpt lat="43.54159" lon="5.84979">
        <ele>510</ele>
        <time>2018-01-07T11:07:35Z</time>
      </trkpt>
      <trkpt lat="43.54138" lon="5.8498">
        <ele>510</ele>
        <time>2018-01-07T11:07:40Z</time>
      </trkpt>
      <trkpt lat="43.54119" lon="5.84982">
        <ele>510</ele>
        <time>2018-01-07T11:07:44Z</time>
      </trkpt>
      <trkpt lat="43.54101" lon="5.84983">
        <ele>509</ele>
        <time>2018-01-07T11:07:48Z</time>
      </trkpt>
      <trkpt lat="43.54082" lon="5.84984">
        <ele>509</ele>
        <time>2018-01-07T11:07:52Z</time>
      </trkpt>
      <trkpt lat="43.54064" lon="5.84986">
        <ele>509</ele>
        <time>2018-01-07T11:07:56Z</time>
      </trkpt>
      <trkpt lat="43.54045" lon="5.84988">
        <ele>510</ele>
        <time>2018-01-07T11:08:00Z</time>
      </trkpt>
      <trkpt lat="43.54027" lon="5.84989">
        <ele>510</ele>
        <time>2018-01-07T11:08:04Z</time>
      </trkpt>
      <trkpt lat="43.54006" lon="5.8499">
        <ele>509</ele>
        <time>2018-01-07T11:08:08Z</time>
      </trkpt>
      <trkpt lat="43.53985" lon="5.84992">
        <ele>511</ele>
        <time>2018-01-07T11:08:12Z</time>
      </trkpt>
      <trkpt lat="43.53965" lon="5.84993">
        <ele>511</ele>
        <time>2018-01-07T11:08:16Z</time>
      </trkpt>
      <trkpt lat="43.53946" lon="5.84994">
        <ele>512</ele>
        <time>2018-01-07T11:08:20Z</time>
      </trkpt>
      <trkpt lat="43.53928" lon="5.84995">
        <ele>512</ele>
        <time>2018-01-07T11:08:24Z</time>
      </trkpt>
      <trkpt lat="43.5391" lon="5.84999">
        <ele>512</ele>
        <time>2018-01-07T11:08:28Z</time>
      </trkpt>
      <trkpt lat="43.53889" lon="5.85009">
        <ele>511</ele>
        <time>2018-01-07T11:08:33Z</time>
      </trkpt>
      <trkpt lat="43.53869" lon="5.85022">
        <ele>511</ele>
        <time>2018-01-07T11:08:38Z</time>
      </trkpt>
      <trkpt lat="43.53852" lon="5.85034">
        <ele>511</ele>
        <time>2018-01-07T11:08:42Z</time>
      </trkpt>
      <trkpt lat="43.53835" lon="5.85044">
        <ele>510</ele>
        <time>2018-01-07T11:08:46Z</time>
      </trkpt>
      <trkpt lat="43.53816" lon="5.85055">
        <ele>511</ele>
        <time>2018-01-07T11:08:50Z</time>
      </trkpt>
      <trkpt lat="43.53795" lon="5.85063">
        <ele>511</ele>
        <time>2018-01-07T11:08:54Z</time>
      </trkpt>
      <trkpt lat="43.53775" lon="5.85069">
        <ele>511</ele>
        <time>2018-01-07T11:08:58Z</time>
      </trkpt>
      <trkpt lat="43.53755" lon="5.85072">
        <ele>510</ele>
        <time>2018-01-07T11:09:02Z</time>
      </trkpt>
      <trkpt lat="43.53735" lon="5.85074">
        <ele>511</ele>
        <time>2018-01-07T11:09:06Z</time>
      </trkpt>
      <trkpt lat="43.53714" lon="5.85077">
        <ele>512</ele>
        <time>2018-01-07T11:09:10Z</time>
      </trkpt>
      <trkpt lat="43.53693" lon="5.8508">
        <ele>512</ele>
        <time>2018-01-07T11:09:14Z</time>
      </trkpt>
      <trkpt lat="43.53671" lon="5.85083">
        <ele>511</ele>
        <time>2018-01-07T11:09:18Z</time>
      </trkpt>
      <trkpt lat="43.53649" lon="5.85085">
        <ele>510</ele>
        <time>2018-01-07T11:09:22Z</time>
      </trkpt>
      <trkpt lat="43.53629" lon="5.85089">
        <ele>509</ele>
        <time>2018-01-07T11:09:26Z</time>
      </trkpt>
      <trkpt lat="43.53609" lon="5.85092">
        <ele>509</ele>
        <time>2018-01-07T11:09:30Z</time>
      </trkpt>
      <trkpt lat="43.53588" lon="5.85094">
        <ele>510</ele>
        <time>2018-01-07T11:09:34Z</time>
      </trkpt>
      <trkpt lat="43.53567" lon="5.85097">
        <ele>510</ele>
        <time>2018-01-07T11:09:38Z</time>
      </trkpt>
      <trkpt lat="43.53546" lon="5.851">
        <ele>509</ele>
        <time>2018-01-07T11:09:42Z</time>
      </trkpt>
      <trkpt lat="43.53525" lon="5.85103">
        <ele>510</ele>
        <time>2018-01-07T11:09:46Z</time>
      </trkpt>
      <trkpt lat="43.53502" lon="5.85105">
        <ele>510</ele>
        <time>2018-01-07T11:09:50Z</time>
      </trkpt>
      <trkpt lat="43.53478" lon="5.85109">
        <ele>510</ele>
        <time>2018-01-07T11:09:54Z</time>
      </trkpt>
      <trkpt lat="43.53458" lon="5.85111">
        <ele>510</ele>
        <time>2018-01-07T11:09:57Z</time>
      </trkpt>
      <trkpt lat="43.53437" lon="5.85114">
        <ele>510</ele>
        <time>2018-01-07T11:10:00Z</time>
      </trkpt>
      <trkpt lat="43.53415" lon="5.85117">
        <ele>510</ele>
        <time>2018-01-07T11:10:03Z</time>
      </trkpt>
      <trkpt lat="43.53396" lon="5.85125">
        <ele>510</ele>
        <time>2018-01-07T11:10:06Z</time>
      </trkpt>
      <trkpt lat="43.5338" lon="5.8514">
        <ele>509</ele>
        <time>2018-01-07T11:10:09Z</time>
      </trkpt>
      <trkpt lat="43.53366" lon="5.85158">
        <ele>509</ele>
        <time>2018-01-07T11:10:12Z</time>
      </trkpt>
      <trkpt lat="43.53352" lon="5.85177">
        <ele>507</ele>
        <time>2018-01-07T11:10:15Z</time>
      </trkpt>
      <trkpt lat="43.53339" lon="5.85197">
        <ele>507</ele>
        <time>2018-01-07T11:10:18Z</time>
      </trkpt>
      <trkpt lat="43.53326" lon="5.85216">
        <ele>506</ele>
        <time>2018-01-07T11:10:21Z</time>
      </trkpt>
      <trkpt lat="43.53313" lon="5.85235">
        <ele>506</ele>
        <time>2018-01-07T11:10:24Z</time>
      </trkpt>
      <trkpt lat="43.53301" lon="5.85253">
        <ele>504</ele>
        <time>2018-01-07T11:10:27Z</time>
      </trkpt>
      <trkpt lat="43.53285" lon="5.85277">
        <ele>504</ele>
        <time>2018-01-07T11:10:31Z</time>
      </trkpt>
      <trkpt lat="43.53273" lon="5.85296">
        <ele>504</ele>
        <time>2018-01-07T11:10:34Z</time>
      </trkpt>
      <trkpt lat="43.53256" lon="5.85319">
        <ele>504</ele>
        <time>2018-01-07T11:10:38Z</time>
      </trkpt>
      <trkpt lat="43.53244" lon="5.85338">
        <ele>504</ele>
        <time>2018-01-07T11:10:41Z</time>
      </trkpt>
      <trkpt lat="43.53232" lon="5.85357">
        <ele>504</ele>
        <time>2018-01-07T11:10:44Z</time>
      </trkpt>
      <trkpt lat="43.5322" lon="5.85376">
        <ele>503</ele>
        <time>2018-01-07T11:10:47Z</time>
      </trkpt>
      <trkpt lat="43.53207" lon="5.85394">
        <ele>503</ele>
        <time>2018-01-07T11:10:50Z</time>
      </trkpt>
      <trkpt lat="43.53195" lon="5.85412">
        <ele>502</ele>
        <time>2018-01-07T11:10:53Z</time>
      </trkpt>
      <trkpt lat="43.53182" lon="5.85431">
        <ele>501</ele>
        <time>2018-01-07T11:10:56Z</time>
      </trkpt>
      <trkpt lat="43.53168" lon="5.85452">
        <ele>500</ele>
        <time>2018-01-07T11:10:59Z</time>
      </trkpt>
      <trkpt lat="43.53154" lon="5.85472">
        <ele>499</ele>
        <time>2018-01-07T11:11:02Z</time>
      </trkpt>
      <trkpt lat="43.5314" lon="5.85494">
        <ele>499</ele>
        <time>2018-01-07T11:11:05Z</time>
      </trkpt>
      <trkpt lat="43.53125" lon="5.85516">
        <ele>496</ele>
        <time>2018-01-07T11:11:08Z</time>
      </trkpt>
      <trkpt lat="43.53111" lon="5.85537">
        <ele>496</ele>
        <time>2018-01-07T11:11:11Z</time>
      </trkpt>
      <trkpt lat="43.53096" lon="5.85558">
        <ele>495</ele>
        <time>2018-01-07T11:11:14Z</time>
      </trkpt>
      <trkpt lat="43.53082" lon="5.85581">
        <ele>494</ele>
        <time>2018-01-07T11:11:17Z</time>
      </trkpt>
      <trkpt lat="43.53067" lon="5.85603">
        <ele>494</ele>
        <time>2018-01-07T11:11:20Z</time>
      </trkpt>
      <trkpt lat="43.53052" lon="5.85625">
        <ele>494</ele>
        <time>2018-01-07T11:11:23Z</time>
      </trkpt>
      <trkpt lat="43.53037" lon="5.85647">
        <ele>493</ele>
        <time>2018-01-07T11:11:26Z</time>
      </trkpt>
      <trkpt lat="43.53022" lon="5.8567">
        <ele>492</ele>
        <time>2018-01-07T11:11:29Z</time>
      </trkpt>
      <trkpt lat="43.53007" lon="5.85692">
        <ele>492</ele>
        <time>2018-01-07T11:11:32Z</time>
      </trkpt>
      <trkpt lat="43.52992" lon="5.85713">
        <ele>494</ele>
        <time>2018-01-07T11:11:35Z</time>
      </trkpt>
      <trkpt lat="43.52979" lon="5.85733">
        <ele>494</ele>
        <time>2018-01-07T11:11:38Z</time>
      </trkpt>
      <trkpt lat="43.52966" lon="5.85752">
        <ele>493</ele>
        <time>2018-01-07T11:11:41Z</time>
      </trkpt>
      <trkpt lat="43.52954" lon="5.8577">
        <ele>492</ele>
        <time>2018-01-07T11:11:44Z</time>
      </trkpt>
      <trkpt lat="43.52941" lon="5.85788">
        <ele>492</ele>
        <time>2018-01-07T11:11:47Z</time>
      </trkpt>
      <trkpt lat="43.52925" lon="5.85812">
        <ele>492</ele>
        <time>2018-01-07T11:11:51Z</time>
      </trkpt>
      <trkpt lat="43.52912" lon="5.85832">
        <ele>491</ele>
        <time>2018-01-07T11:11:54Z</time>
      </trkpt>
      <trkpt lat="43.52899" lon="5.85851">
        <ele>491</ele>
        <time>2018-01-07T11:11:57Z</time>
      </trkpt>
      <trkpt lat="43.52887" lon="5.85869">
        <ele>491</ele>
        <time>2018-01-07T11:12:00Z</time>
      </trkpt>
      <trkpt lat="43.52874" lon="5.85888">
        <ele>491</ele>
        <time>2018-01-07T11:12:03Z</time>
      </trkpt>
      <trkpt lat="43.52858" lon="5.85912">
        <ele>491</ele>
        <time>2018-01-07T11:12:07Z</time>
      </trkpt>
      <trkpt lat="43.52843" lon="5.85935">
        <ele>491</ele>
        <time>2018-01-07T11:12:11Z</time>
      </trkpt>
      <trkpt lat="43.52827" lon="5.85958">
        <ele>490</ele>
        <time>2018-01-07T11:12:15Z</time>
      </trkpt>
      <trkpt lat="43.52812" lon="5.8598">
        <ele>490</ele>
        <time>2018-01-07T11:12:19Z</time>
      </trkpt>
      <trkpt lat="43.52797" lon="5.86002">
        <ele>488</ele>
        <time>2018-01-07T11:12:23Z</time>
      </trkpt>
      <trkpt lat="43.52782" lon="5.86024">
        <ele>488</ele>
        <time>2018-01-07T11:12:27Z</time>
      </trkpt>
      <trkpt lat="43.52768" lon="5.86048">
        <ele>488</ele>
        <time>2018-01-07T11:12:31Z</time>
      </trkpt>
      <trkpt lat="43.52756" lon="5.86074">
        <ele>487</ele>
        <time>2018-01-07T11:12:35Z</time>
      </trkpt>
      <trkpt lat="43.52746" lon="5.86102">
        <ele>487</ele>
        <time>2018-01-07T11:12:39Z</time>
      </trkpt>
      <trkpt lat="43.52737" lon="5.86129">
        <ele>488</ele>
        <time>2018-01-07T11:12:43Z</time>
      </trkpt>
      <trkpt lat="43.52728" lon="5.86155">
        <ele>488</ele>
        <time>2018-01-07T11:12:47Z</time>
      </trkpt>
      <trkpt lat="43.52718" lon="5.8618">
        <ele>487</ele>
        <time>2018-01-07T11:12:51Z</time>
      </trkpt>
      <trkpt lat="43.52709" lon="5.86205">
        <ele>486</ele>
        <time>2018-01-07T11:12:55Z</time>
      </trkpt>
      <trkpt lat="43.527" lon="5.8623">
        <ele>486</ele>
        <time>2018-01-07T11:12:59Z</time>
      </trkpt>
      <trkpt lat="43.52692" lon="5.86254">
        <ele>485</ele>
        <time>2018-01-07T11:13:03Z</time>
      </trkpt>
      <trkpt lat="43.52684" lon="5.86277">
        <ele>485</ele>
        <time>2018-01-07T11:13:07Z</time>
      </trkpt>
      <trkpt lat="43.52675" lon="5.86302">
        <ele>485</ele>
        <time>2018-01-07T11:13:12Z</time>
      </trkpt>
      <trkpt lat="43.52665" lon="5.86327">
        <ele>486</ele>
        <time>2018-01-07T11:13:17Z</time>
      </trkpt>
      <trkpt lat="43.52654" lon="5.86352">
        <ele>487</ele>
        <time>2018-01-07T11:13:22Z</time>
      </trkpt>
      <trkpt lat="43.52642" lon="5.86375">
        <ele>488</ele>
        <time>2018-01-07T11:13:27Z</time>
      </trkpt>
      <trkpt lat="43.52629" lon="5.86399">
        <ele>488</ele>
        <time>2018-01-07T11:13:32Z</time>
      </trkpt>
      <trkpt lat="43.52617" lon="5.86422">
        <ele>488</ele>
        <time>2018-01-07T11:13:37Z</time>
      </trkpt>
      <trkpt lat="43.52604" lon="5.86445">
        <ele>488</ele>
        <time>2018-01-07T11:13:42Z</time>
      </trkpt>
      <trkpt lat="43.52591" lon="5.86467">
        <ele>488</ele>
        <time>2018-01-07T11:13:47Z</time>
      </trkpt>
      <trkpt lat="43.52578" lon="5.86489">
        <ele>489</ele>
        <time>2018-01-07T11:13:52Z</time>
      </trkpt>
      <trkpt lat="43.52566" lon="5.86509">
        <ele>488</ele>
        <time>2018-01-07T11:13:57Z</time>
      </trkpt>
      <trkpt lat="43.52551" lon="5.86529">
        <ele>488</ele>
        <time>2018-01-07T11:14:02Z</time>
      </trkpt>
      <trkpt lat="43.52534" lon="5.86547">
        <ele>488</ele>
        <time>2018-01-07T11:14:07Z</time>
      </trkpt>
      <trkpt lat="43.52512" lon="5.86554">
        <ele>488</ele>
        <time>2018-01-07T11:14:12Z</time>
      </trkpt>
      <trkpt lat="43.52491" lon="5.86553">
        <ele>490</ele>
        <time>2018-01-07T11:14:17Z</time>
      </trkpt>
      <trkpt lat="43.5247" lon="5.86551">
        <ele>490</ele>
        <time>2018-01-07T11:14:22Z</time>
      </trkpt>
      <trkpt lat="43.52452" lon="5.86551">
        <ele>490</ele>
        <time>2018-01-07T11:14:27Z</time>
      </trkpt>
      <trkpt lat="43.52432" lon="5.8655">
        <ele>490</ele>
        <time>2018-01-07T11:14:32Z</time>
      </trkpt>
      <trkpt lat="43.52412" lon="5.86549">
        <ele>491</ele>
        <time>2018-01-07T11:14:37Z</time>
      </trkpt>
      <trkpt lat="43.52394" lon="5.86559">
        <ele>491</ele>
        <time>2018-01-07T11:14:42Z</time>
      </trkpt>
      <trkpt lat="43.52382" lon="5.86582">
        <ele>491</ele>
        <time>2018-01-07T11:14:47Z</time>
      </trkpt>
      <trkpt lat="43.52379" lon="5.86612">
        <ele>492</ele>
        <time>2018-01-07T11:14:52Z</time>
      </trkpt>
      <trkpt lat="43.52378" lon="5.8664">
        <ele>492</ele>
        <time>2018-01-07T11:14:57Z</time>
      </trkpt>
      <trkpt lat="43.52376" lon="5.86666">
        <ele>492</ele>
        <time>2018-01-07T11:15:02Z</time>
      </trkpt>
      <trkpt lat="43.52374" lon="5.86695">
        <ele>493</ele>
        <time>2018-01-07T11:15:08Z</time>
      </trkpt>
      <trkpt lat="43.52372" lon="5.8672">
        <ele>494</ele>
        <time>2018-01-07T11:15:15Z</time>
      </trkpt>
      <trkpt lat="43.52369" lon="5.86748">
        <ele>494</ele>
        <time>2018-01-07T11:15:22Z</time>
      </trkpt>
      <trkpt lat="43.52365" lon="5.86776">
        <ele>495</ele>
        <time>2018-01-07T11:15:29Z</time>
      </trkpt>
      <trkpt lat="43.5236" lon="5.86802">
        <ele>495</ele>
        <time>2018-01-07T11:15:36Z</time>
      </trkpt>
      <trkpt lat="43.52355" lon="5.86827">
        <ele>496</ele>
        <time>2018-01-07T11:15:42Z</time>
      </trkpt>
      <trkpt lat="43.52345" lon="5.86852">
        <ele>496</ele>
        <time>2018-01-07T11:15:49Z</time>
      </trkpt>
      <trkpt lat="43.52334" lon="5.86873">
        <ele>495</ele>
        <time>2018-01-07T11:15:55Z</time>
      </trkpt>
      <trkpt lat="43.52323" lon="5.86895">
        <ele>497</ele>
        <time>2018-01-07T11:16:01Z</time>
      </trkpt>
      <trkpt lat="43.52312" lon="5.86916">
        <ele>497</ele>
        <time>2018-01-07T11:16:07Z</time>
      </trkpt>
      <trkpt lat="43.523" lon="5.8694">
        <ele>497</ele>
        <time>2018-01-07T11:16:13Z</time>
      </trkpt>
      <trkpt lat="43.52289" lon="5.8696">
        <ele>497</ele>
        <time>2018-01-07T11:16:18Z</time>
      </trkpt>
      <trkpt lat="43.52279" lon="5.86981">
        <ele>496</ele>
        <time>2018-01-07T11:16:23Z</time>
      </trkpt>
      <trkpt lat="43.52267" lon="5.87003">
        <ele>495</ele>
        <time>2018-01-07T11:16:29Z</time>
      </trkpt>
      <trkpt lat="43.52257" lon="5.87024">
        <ele>495</ele>
        <time>2018-01-07T11:16:37Z</time>
      </trkpt>
      <trkpt lat="43.52246" lon="5.87049">
        <ele>494</ele>
        <time>2018-01-07T11:16:45Z</time>
      </trkpt>
      <trkpt lat="43.52233" lon="5.87073">
        <ele>494</ele>
        <time>2018-01-07T11:16:50Z</time>
      </trkpt>
      <trkpt lat="43.52221" lon="5.87094">
        <ele>491</ele>
        <time>2018-01-07T11:16:54Z</time>
      </trkpt>
      <trkpt lat="43.52212" lon="5.87117">
        <ele>491</ele>
        <time>2018-01-07T11:16:58Z</time>
      </trkpt>
      <trkpt lat="43.52225" lon="5.87135">
        <ele>491</ele>
        <time>2018-01-07T11:17:16Z</time>
      </trkpt>
      <trkpt lat="43.52243" lon="5.87136">
        <ele>491</ele>
        <time>2018-01-07T11:17:30Z</time>
      </trkpt>
      <trkpt lat="43.52262" lon="5.87138">
        <ele>491</ele>
        <time>2018-01-07T11:17:39Z</time>
      </trkpt>
      <trkpt lat="43.5228" lon="5.87143">
        <ele>491</ele>
        <time>2018-01-07T11:17:47Z</time>
      </trkpt>
      <trkpt lat="43.52299" lon="5.87141">
        <ele>491</ele>
        <time>2018-01-07T11:17:56Z</time>
      </trkpt>
      <trkpt lat="43.52317" lon="5.87142">
        <ele>490</ele>
        <time>2018-01-07T11:18:04Z</time>
      </trkpt>
      <trkpt lat="43.52334" lon="5.87134">
        <ele>488</ele>
        <time>2018-01-07T11:18:11Z</time>
      </trkpt>
      <trkpt lat="43.5235" lon="5.87146">
        <ele>487</ele>
        <time>2018-01-07T11:18:18Z</time>
      </trkpt>
      <trkpt lat="43.52357" lon="5.87171">
        <ele>486</ele>
        <time>2018-01-07T11:18:27Z</time>
      </trkpt>
      <trkpt lat="43.52372" lon="5.87192">
        <ele>485</ele>
        <time>2018-01-07T11:18:34Z</time>
      </trkpt>
      <trkpt lat="43.52378" lon="5.87216">
        <ele>485</ele>
        <time>2018-01-07T11:18:39Z</time>
      </trkpt>
      <trkpt lat="43.52389" lon="5.8724">
        <ele>485</ele>
        <time>2018-01-07T11:18:44Z</time>
      </trkpt>
      <trkpt lat="43.52403" lon="5.87262">
        <ele>485</ele>
        <time>2018-01-07T11:18:49Z</time>
      </trkpt>
      <trkpt lat="43.52409" lon="5.87291">
        <ele>485</ele>
        <time>2018-01-07T11:18:54Z</time>
      </trkpt>
      <trkpt lat="43.52421" lon="5.87313">
        <ele>481</ele>
        <time>2018-01-07T11:18:58Z</time>
      </trkpt>
      <trkpt lat="43.52426" lon="5.8734">
        <ele>482</ele>
        <time>2018-01-07T11:19:02Z</time>
      </trkpt>
      <trkpt lat="43.52437" lon="5.87364">
        <ele>478</ele>
        <time>2018-01-07T11:19:06Z</time>
      </trkpt>
      <trkpt lat="43.5244" lon="5.87394">
        <ele>477</ele>
        <time>2018-01-07T11:19:10Z</time>
      </trkpt>
      <trkpt lat="43.52444" lon="5.87424">
        <ele>472</ele>
        <time>2018-01-07T11:19:14Z</time>
      </trkpt>
      <trkpt lat="43.52445" lon="5.87452">
        <ele>469</ele>
        <time>2018-01-07T11:19:18Z</time>
      </trkpt>
      <trkpt lat="43.52441" lon="5.87477">
        <ele>469</ele>
        <time>2018-01-07T11:19:21Z</time>
      </trkpt>
      <trkpt lat="43.52439" lon="5.87505">
        <ele>464</ele>
        <time>2018-01-07T11:19:26Z</time>
      </trkpt>
      <trkpt lat="43.52434" lon="5.87537">
        <ele>460</ele>
        <time>2018-01-07T11:19:31Z</time>
      </trkpt>
      <trkpt lat="43.52422" lon="5.87557">
        <ele>460</ele>
        <time>2018-01-07T11:19:35Z</time>
      </trkpt>
      <trkpt lat="43.52422" lon="5.87582">
        <ele>464</ele>
        <time>2018-01-07T11:19:40Z</time>
      </trkpt>
      <trkpt lat="43.52407" lon="5.87608">
        <ele>462</ele>
        <time>2018-01-07T11:19:45Z</time>
      </trkpt>
      <trkpt lat="43.52392" lon="5.8763">
        <ele>460</ele>
        <time>2018-01-07T11:19:49Z</time>
      </trkpt>
      <trkpt lat="43.52381" lon="5.87654">
        <ele>459</ele>
        <time>2018-01-07T11:19:53Z</time>
      </trkpt>
      <trkpt lat="43.52374" lon="5.87679">
        <ele>450</ele>
        <time>2018-01-07T11:19:58Z</time>
      </trkpt>
      <trkpt lat="43.52388" lon="5.87696">
        <ele>449</ele>
        <time>2018-01-07T11:20:07Z</time>
      </trkpt>
      <trkpt lat="43.52389" lon="5.87726">
        <ele>447</ele>
        <time>2018-01-07T11:20:18Z</time>
      </trkpt>
      <trkpt lat="43.52379" lon="5.87749">
        <ele>446</ele>
        <time>2018-01-07T11:20:23Z</time>
      </trkpt>
      <trkpt lat="43.52371" lon="5.87773">
        <ele>436</ele>
        <time>2018-01-07T11:20:29Z</time>
      </trkpt>
      <trkpt lat="43.52361" lon="5.87794">
        <ele>434</ele>
        <time>2018-01-07T11:20:35Z</time>
      </trkpt>
      <trkpt lat="43.5234" lon="5.87803">
        <ele>434</ele>
        <time>2018-01-07T11:20:40Z</time>
      </trkpt>
      <trkpt lat="43.52323" lon="5.87815">
        <ele>433</ele>
        <time>2018-01-07T11:20:44Z</time>
      </trkpt>
      <trkpt lat="43.52302" lon="5.87828">
        <ele>432</ele>
        <time>2018-01-07T11:20:48Z</time>
      </trkpt>
      <trkpt lat="43.52284" lon="5.87837">
        <ele>424</ele>
        <time>2018-01-07T11:20:51Z</time>
      </trkpt>
      <trkpt lat="43.52266" lon="5.87841">
        <ele>424</ele>
        <time>2018-01-07T11:20:54Z</time>
      </trkpt>
      <trkpt lat="43.52249" lon="5.87852">
        <ele>423</ele>
        <time>2018-01-07T11:20:57Z</time>
      </trkpt>
      <trkpt lat="43.5223" lon="5.87866">
        <ele>421</ele>
        <time>2018-01-07T11:21:00Z</time>
      </trkpt>
      <trkpt lat="43.52212" lon="5.87877">
        <ele>420</ele>
        <time>2018-01-07T11:21:03Z</time>
      </trkpt>
      <trkpt lat="43.52193" lon="5.87889">
        <ele>419</ele>
        <time>2018-01-07T11:21:07Z</time>
      </trkpt>
      <trkpt lat="43.52172" lon="5.87897">
        <ele>417</ele>
        <time>2018-01-07T11:21:11Z</time>
      </trkpt>
      <trkpt lat="43.52149" lon="5.87904">
        <ele>417</ele>
        <time>2018-01-07T11:21:15Z</time>
      </trkpt>
      <trkpt lat="43.52131" lon="5.87913">
        <ele>417</ele>
        <time>2018-01-07T11:21:18Z</time>
      </trkpt>
      <trkpt lat="43.52111" lon="5.87925">
        <ele>411</ele>
        <time>2018-01-07T11:21:22Z</time>
      </trkpt>
      <trkpt lat="43.52092" lon="5.87936">
        <ele>410</ele>
        <time>2018-01-07T11:21:25Z</time>
      </trkpt>
      <trkpt lat="43.52074" lon="5.87949">
        <ele>409</ele>
        <time>2018-01-07T11:21:28Z</time>
      </trkpt>
      <trkpt lat="43.52054" lon="5.87953">
        <ele>408</ele>
        <time>2018-01-07T11:21:31Z</time>
      </trkpt>
      <trkpt lat="43.52032" lon="5.87964">
        <ele>407</ele>
        <time>2018-01-07T11:21:35Z</time>
      </trkpt>
      <trkpt lat="43.52013" lon="5.87964">
        <ele>407</ele>
        <time>2018-01-07T11:21:38Z</time>
      </trkpt>
      <trkpt lat="43.51994" lon="5.8797">
        <ele>406</ele>
        <time>2018-01-07T11:21:42Z</time>
      </trkpt>
      <trkpt lat="43.51975" lon="5.87981">
        <ele>405</ele>
        <time>2018-01-07T11:21:50Z</time>
      </trkpt>
      <trkpt lat="43.51958" lon="5.87998">
        <ele>405</ele>
        <time>2018-01-07T11:21:56Z</time>
      </trkpt>
      <trkpt lat="43.51943" lon="5.88011">
        <ele>399</ele>
        <time>2018-01-07T11:22:00Z</time>
      </trkpt>
      <trkpt lat="43.51926" lon="5.88023">
        <ele>399</ele>
        <time>2018-01-07T11:22:04Z</time>
      </trkpt>
      <trkpt lat="43.51906" lon="5.88029">
        <ele>397</ele>
        <time>2018-01-07T11:22:09Z</time>
      </trkpt>
      <trkpt lat="43.51886" lon="5.8803">
        <ele>396</ele>
        <time>2018-01-07T11:22:14Z</time>
      </trkpt>
      <trkpt lat="43.51868" lon="5.88038">
        <ele>395</ele>
        <time>2018-01-07T11:22:18Z</time>
      </trkpt>
      <trkpt lat="43.51851" lon="5.88048">
        <ele>394</ele>
        <time>2018-01-07T11:22:23Z</time>
      </trkpt>
      <trkpt lat="43.51833" lon="5.88044">
        <ele>392</ele>
        <time>2018-01-07T11:24:04Z</time>
      </trkpt>
      <trkpt lat="43.51829" lon="5.88017">
        <ele>392</ele>
        <time>2018-01-07T11:24:11Z</time>
      </trkpt>
      <trkpt lat="43.51825" lon="5.8799">
        <ele>396</ele>
        <time>2018-01-07T11:24:15Z</time>
      </trkpt>
      <trkpt lat="43.51828" lon="5.87965">
        <ele>398</ele>
        <time>2018-01-07T11:24:19Z</time>
      </trkpt>
      <trkpt lat="43.51809" lon="5.87966">
        <ele>399</ele>
        <time>2018-01-07T11:24:27Z</time>
      </trkpt>
      <trkpt lat="43.51798" lon="5.87987">
        <ele>398</ele>
        <time>2018-01-07T11:25:34Z</time>
      </trkpt>
      <trkpt lat="43.5179" lon="5.88014">
        <ele>392</ele>
        <time>2018-01-07T11:25:39Z</time>
      </trkpt>
      <trkpt lat="43.51783" lon="5.8804">
        <ele>391</ele>
        <time>2018-01-07T11:25:43Z</time>
      </trkpt>
      <trkpt lat="43.51766" lon="5.88063">
        <ele>389</ele>
        <time>2018-01-07T11:25:47Z</time>
      </trkpt>
      <trkpt lat="43.51756" lon="5.88085">
        <ele>383</ele>
        <time>2018-01-07T11:25:50Z</time>
      </trkpt>
      <trkpt lat="43.51745" lon="5.88112">
        <ele>383</ele>
        <time>2018-01-07T11:25:54Z</time>
      </trkpt>
      <trkpt lat="43.51728" lon="5.88134">
        <ele>383</ele>
        <time>2018-01-07T11:25:58Z</time>
      </trkpt>
      <trkpt lat="43.51713" lon="5.88148">
        <ele>383</ele>
        <time>2018-01-07T11:26:01Z</time>
      </trkpt>
      <trkpt lat="43.51705" lon="5.88177">
        <ele>376</ele>
        <time>2018-01-07T11:26:06Z</time>
      </trkpt>
      <trkpt lat="43.51704" lon="5.88209">
        <ele>374</ele>
        <time>2018-01-07T11:26:10Z</time>
      </trkpt>
      <trkpt lat="43.51705" lon="5.88234">
        <ele>372</ele>
        <time>2018-01-07T11:26:13Z</time>
      </trkpt>
      <trkpt lat="43.51696" lon="5.88257">
        <ele>368</ele>
        <time>2018-01-07T11:26:20Z</time>
      </trkpt>
      <trkpt lat="43.51681" lon="5.88272">
        <ele>368</ele>
        <time>2018-01-07T11:26:27Z</time>
      </trkpt>
      <trkpt lat="43.51666" lon="5.88291">
        <ele>365</ele>
        <time>2018-01-07T11:26:34Z</time>
      </trkpt>
      <trkpt lat="43.51657" lon="5.88313">
        <ele>365</ele>
        <time>2018-01-07T11:26:39Z</time>
      </trkpt>
      <trkpt lat="43.51645" lon="5.88334">
        <ele>368</ele>
        <time>2018-01-07T11:26:44Z</time>
      </trkpt>
      <trkpt lat="43.51624" lon="5.88343">
        <ele>369</ele>
        <time>2018-01-07T11:26:50Z</time>
      </trkpt>
      <trkpt lat="43.51607" lon="5.88327">
        <ele>364</ele>
        <time>2018-01-07T11:26:55Z</time>
      </trkpt>
      <trkpt lat="43.51597" lon="5.88305">
        <ele>364</ele>
        <time>2018-01-07T11:26:59Z</time>
      </trkpt>
      <trkpt lat="43.51583" lon="5.88282">
        <ele>364</ele>
        <time>2018-01-07T11:27:04Z</time>
      </trkpt>
      <trkpt lat="43.51572" lon="5.8826">
        <ele>365</ele>
        <time>2018-01-07T11:27:08Z</time>
      </trkpt>
      <trkpt lat="43.51551" lon="5.88257">
        <ele>365</ele>
        <time>2018-01-07T11:27:13Z</time>
      </trkpt>
      <trkpt lat="43.51532" lon="5.88273">
        <ele>365</ele>
        <time>2018-01-07T11:27:18Z</time>
      </trkpt>
      <trkpt lat="43.51515" lon="5.88287">
        <ele>365</ele>
        <time>2018-01-07T11:27:22Z</time>
      </trkpt>
      <trkpt lat="43.515" lon="5.88311">
        <ele>362</ele>
        <time>2018-01-07T11:27:26Z</time>
      </trkpt>
      <trkpt lat="43.51484" lon="5.88335">
        <ele>362</ele>
        <time>2018-01-07T11:27:30Z</time>
      </trkpt>
      <trkpt lat="43.51466" lon="5.88354">
        <ele>363</ele>
        <time>2018-01-07T11:27:34Z</time>
      </trkpt>
      <trkpt lat="43.51444" lon="5.88357">
        <ele>363</ele>
        <time>2018-01-07T11:27:38Z</time>
      </trkpt>
      <trkpt lat="43.51428" lon="5.88346">
        <ele>360</ele>
        <time>2018-01-07T11:27:41Z</time>
      </trkpt>
      <trkpt lat="43.5141" lon="5.88326">
        <ele>357</ele>
        <time>2018-01-07T11:27:45Z</time>
      </trkpt>
      <trkpt lat="43.51393" lon="5.88306">
        <ele>359</ele>
        <time>2018-01-07T11:27:49Z</time>
      </trkpt>
      <trkpt lat="43.51373" lon="5.88291">
        <ele>360</ele>
        <time>2018-01-07T11:27:53Z</time>
      </trkpt>
      <trkpt lat="43.51355" lon="5.88288">
        <ele>360</ele>
        <time>2018-01-07T11:27:56Z</time>
      </trkpt>
      <trkpt lat="43.51336" lon="5.88291">
        <ele>359</ele>
        <time>2018-01-07T11:27:59Z</time>
      </trkpt>
      <trkpt lat="43.51313" lon="5.88303">
        <ele>360</ele>
        <time>2018-01-07T11:28:03Z</time>
      </trkpt>
      <trkpt lat="43.51299" lon="5.88325">
        <ele>359</ele>
        <time>2018-01-07T11:28:07Z</time>
      </trkpt>
      <trkpt lat="43.51291" lon="5.88352">
        <ele>355</ele>
        <time>2018-01-07T11:28:10Z</time>
      </trkpt>
      <trkpt lat="43.51284" lon="5.88381">
        <ele>354</ele>
        <time>2018-01-07T11:28:14Z</time>
      </trkpt>
      <trkpt lat="43.51272" lon="5.88406">
        <ele>351</ele>
        <time>2018-01-07T11:28:18Z</time>
      </trkpt>
      <trkpt lat="43.5126" lon="5.88425">
        <ele>349</ele>
        <time>2018-01-07T11:28:22Z</time>
      </trkpt>
      <trkpt lat="43.51241" lon="5.88425">
        <ele>345</ele>
        <time>2018-01-07T11:28:29Z</time>
      </trkpt>
      <trkpt lat="43.51223" lon="5.8841">
        <ele>345</ele>
        <time>2018-01-07T11:28:33Z</time>
      </trkpt>
      <trkpt lat="43.51202" lon="5.88408">
        <ele>344</ele>
        <time>2018-01-07T11:28:36Z</time>
      </trkpt>
      <trkpt lat="43.51186" lon="5.88425">
        <ele>344</ele>
        <time>2018-01-07T11:28:39Z</time>
      </trkpt>
      <trkpt lat="43.51168" lon="5.88425">
        <ele>341</ele>
        <time>2018-01-07T11:28:44Z</time>
      </trkpt>
      <trkpt lat="43.51165" lon="5.88393">
        <ele>342</ele>
        <time>2018-01-07T11:28:48Z</time>
      </trkpt>
      <trkpt lat="43.51163" lon="5.88361">
        <ele>344</ele>
        <time>2018-01-07T11:28:52Z</time>
      </trkpt>
      <trkpt lat="43.51151" lon="5.88338">
        <ele>345</ele>
        <time>2018-01-07T11:28:56Z</time>
      </trkpt>
      <trkpt lat="43.51129" lon="5.88328">
        <ele>350</ele>
        <time>2018-01-07T11:29:00Z</time>
      </trkpt>
      <trkpt lat="43.5111" lon="5.88334">
        <ele>343</ele>
        <time>2018-01-07T11:29:03Z</time>
      </trkpt>
      <trkpt lat="43.51092" lon="5.88342">
        <ele>342</ele>
        <time>2018-01-07T11:29:06Z</time>
      </trkpt>
      <trkpt lat="43.51071" lon="5.88349">
        <ele>343</ele>
        <time>2018-01-07T11:29:10Z</time>
      </trkpt>
      <trkpt lat="43.51049" lon="5.88348">
        <ele>344</ele>
        <time>2018-01-07T11:29:14Z</time>
      </trkpt>
      <trkpt lat="43.51027" lon="5.88353">
        <ele>344</ele>
        <time>2018-01-07T11:29:18Z</time>
      </trkpt>
      <trkpt lat="43.51007" lon="5.88357">
        <ele>345</ele>
        <time>2018-01-07T11:29:22Z</time>
      </trkpt>
      <trkpt lat="43.50983" lon="5.88366">
        <ele>342</ele>
        <time>2018-01-07T11:29:26Z</time>
      </trkpt>
      <trkpt lat="43.50962" lon="5.88378">
        <ele>341</ele>
        <time>2018-01-07T11:29:30Z</time>
      </trkpt>
      <trkpt lat="43.50942" lon="5.88388">
        <ele>340</ele>
        <time>2018-01-07T11:29:34Z</time>
      </trkpt>
      <trkpt lat="43.5092" lon="5.88393">
        <ele>338</ele>
        <time>2018-01-07T11:29:38Z</time>
      </trkpt>
      <trkpt lat="43.50899" lon="5.88397">
        <ele>334</ele>
        <time>2018-01-07T11:29:42Z</time>
      </trkpt>
      <trkpt lat="43.50877" lon="5.88403">
        <ele>333</ele>
        <time>2018-01-07T11:29:47Z</time>
      </trkpt>
      <trkpt lat="43.50856" lon="5.88409">
        <ele>332</ele>
        <time>2018-01-07T11:29:52Z</time>
      </trkpt>
      <trkpt lat="43.50837" lon="5.88406">
        <ele>331</ele>
        <time>2018-01-07T11:29:56Z</time>
      </trkpt>
      <trkpt lat="43.50823" lon="5.88386">
        <ele>329</ele>
        <time>2018-01-07T11:30:00Z</time>
      </trkpt>
      <trkpt lat="43.50824" lon="5.88354">
        <ele>329</ele>
        <time>2018-01-07T11:30:04Z</time>
      </trkpt>
      <trkpt lat="43.50822" lon="5.88324">
        <ele>333</ele>
        <time>2018-01-07T11:30:08Z</time>
      </trkpt>
      <trkpt lat="43.50807" lon="5.883">
        <ele>335</ele>
        <time>2018-01-07T11:30:12Z</time>
      </trkpt>
      <trkpt lat="43.50787" lon="5.88291">
        <ele>335</ele>
        <time>2018-01-07T11:30:16Z</time>
      </trkpt>
      <trkpt lat="43.50769" lon="5.88294">
        <ele>335</ele>
        <time>2018-01-07T11:30:19Z</time>
      </trkpt>
      <trkpt lat="43.50752" lon="5.88306">
        <ele>332</ele>
        <time>2018-01-07T11:30:22Z</time>
      </trkpt>
      <trkpt lat="43.5074" lon="5.88326">
        <ele>331</ele>
        <time>2018-01-07T11:30:25Z</time>
      </trkpt>
      <trkpt lat="43.50732" lon="5.88351">
        <ele>328</ele>
        <time>2018-01-07T11:30:28Z</time>
      </trkpt>
      <trkpt lat="43.50717" lon="5.88374">
        <ele>328</ele>
        <time>2018-01-07T11:30:32Z</time>
      </trkpt>
      <trkpt lat="43.50702" lon="5.88394">
        <ele>328</ele>
        <time>2018-01-07T11:30:36Z</time>
      </trkpt>
      <trkpt lat="43.50689" lon="5.88421">
        <ele>326</ele>
        <time>2018-01-07T11:30:40Z</time>
      </trkpt>
      <trkpt lat="43.50668" lon="5.88438">
        <ele>325</ele>
        <time>2018-01-07T11:30:44Z</time>
      </trkpt>
      <trkpt lat="43.50651" lon="5.88445">
        <ele>323</ele>
        <time>2018-01-07T11:30:47Z</time>
      </trkpt>
      <trkpt lat="43.50627" lon="5.88455">
        <ele>324</ele>
        <time>2018-01-07T11:30:51Z</time>
      </trkpt>
      <trkpt lat="43.50608" lon="5.88457">
        <ele>324</ele>
        <time>2018-01-07T11:30:54Z</time>
      </trkpt>
      <trkpt lat="43.50591" lon="5.88468">
        <ele>323</ele>
        <time>2018-01-07T11:30:57Z</time>
      </trkpt>
      <trkpt lat="43.50574" lon="5.88483">
        <ele>324</ele>
        <time>2018-01-07T11:31:00Z</time>
      </trkpt>
      <trkpt lat="43.50558" lon="5.88506">
        <ele>322</ele>
        <time>2018-01-07T11:31:04Z</time>
      </trkpt>
      <trkpt lat="43.50545" lon="5.88527">
        <ele>322</ele>
        <time>2018-01-07T11:31:07Z</time>
      </trkpt>
      <trkpt lat="43.50531" lon="5.88544">
        <ele>322</ele>
        <time>2018-01-07T11:31:10Z</time>
      </trkpt>
      <trkpt lat="43.50516" lon="5.88558">
        <ele>321</ele>
        <time>2018-01-07T11:31:13Z</time>
      </trkpt>
      <trkpt lat="43.50498" lon="5.8857">
        <ele>318</ele>
        <time>2018-01-07T11:31:16Z</time>
      </trkpt>
      <trkpt lat="43.50481" lon="5.88582">
        <ele>318</ele>
        <time>2018-01-07T11:31:19Z</time>
      </trkpt>
      <trkpt lat="43.50463" lon="5.88597">
        <ele>317</ele>
        <time>2018-01-07T11:31:22Z</time>
      </trkpt>
      <trkpt lat="43.50444" lon="5.88609">
        <ele>317</ele>
        <time>2018-01-07T11:31:25Z</time>
      </trkpt>
      <trkpt lat="43.50427" lon="5.88619">
        <ele>317</ele>
        <time>2018-01-07T11:31:28Z</time>
      </trkpt>
      <trkpt lat="43.50406" lon="5.8863">
        <ele>313</ele>
        <time>2018-01-07T11:31:32Z</time>
      </trkpt>
      <trkpt lat="43.50388" lon="5.88643">
        <ele>312</ele>
        <time>2018-01-07T11:31:36Z</time>
      </trkpt>
      <trkpt lat="43.50372" lon="5.88659">
        <ele>311</ele>
        <time>2018-01-07T11:31:40Z</time>
      </trkpt>
      <trkpt lat="43.50363" lon="5.88686">
        <ele>309</ele>
        <time>2018-01-07T11:31:45Z</time>
      </trkpt>
    </trkseg>
  </trk>
</gpx>